<?xml version="1.0" encoding="UTF-8" standalone="no" ?>
<gpx xmlns="http://www.topografix.com/GPX/1/1" xmlns:xsi="http://www.w3.org/2001/XMLSchema-instance" xsi:schemaLocation="http://www.topografix.com/GPX/1/1 http://www.topografix.com/GPX/1/1/gpx.xsd" version="1.1" creator="VisuGPX - https://www.visugpx.com">
  <metadata>
    <name>arfeuilles 22 11 2014 30kms</name>
    <desc><![CDATA[rando au depart d arfeuilles, modulable en fonction de la forme.]]></desc>
  </metadata>
  <trk>
    <name><![CDATA[2014-11-22 12:42]]></name>
    <desc><![CDATA[<h1>OruxMaps</h1><br /><hr align="center" width="480" style="height: 2px; width: 517px"/><h2>Nom: 2014-11-22 12:42</h2><br /><p>Temps de départ: 11/22/2014 12:48</p><p>Temps d'arrivée: 11/22/2014 16:44</p><p>Distance: 31,3 km (03:55)</p><p>Temps déplacement: 02:07</p><p>Vitesse moyenne: 8 km/h</p><p>Vitesse moyenne: 14,7 km/h</p><p>Vitess Max.: 50,2 km/h</p><p>Altitude minimale: 417 m</p><p>Altitude maximale: 742 m</p><p>Vitesse d'élévation: 492,2 m/h</p><p>Vitesse de descente: -729,3 m/h</p><p>Gain Altitude: 1025 m</p><p>Perte Altitude: -1029 m</p><p>Temps d'élévation: 02:05</p><p>Temps de descente: 01:24</p><hr align="center" width="480" style="height: 2px; width: 517px"/>]]></desc>
    <trkseg>
      <trkpt lat="46.15807" lon="3.72952">
        <ele>435.55</ele>
        <time>2014-11-22T11:48:22Z</time>
      </trkpt>
      <trkpt lat="46.15798" lon="3.72975">
        <ele>428.55</ele>
        <time>2014-11-22T11:49:01Z</time>
      </trkpt>
      <trkpt lat="46.15786" lon="3.72994">
        <ele>424.54</ele>
        <time>2014-11-22T11:56:03Z</time>
      </trkpt>
      <trkpt lat="46.15777" lon="3.73018">
        <ele>424.55</ele>
        <time>2014-11-22T11:56:11Z</time>
      </trkpt>
      <trkpt lat="46.15757" lon="3.73022">
        <ele>424.55</ele>
        <time>2014-11-22T11:56:20Z</time>
      </trkpt>
      <trkpt lat="46.15743" lon="3.72999">
        <ele>424.55</ele>
        <time>2014-11-22T11:56:27Z</time>
      </trkpt>
      <trkpt lat="46.1573" lon="3.72977">
        <ele>424.55</ele>
        <time>2014-11-22T11:56:34Z</time>
      </trkpt>
      <trkpt lat="46.15718" lon="3.72954">
        <ele>424.55</ele>
        <time>2014-11-22T11:56:40Z</time>
      </trkpt>
      <trkpt lat="46.15705" lon="3.7293">
        <ele>424.55</ele>
        <time>2014-11-22T11:56:46Z</time>
      </trkpt>
      <trkpt lat="46.15692" lon="3.72906">
        <ele>425.52</ele>
        <time>2014-11-22T11:56:52Z</time>
      </trkpt>
      <trkpt lat="46.15683" lon="3.72881">
        <ele>425.55</ele>
        <time>2014-11-22T11:56:57Z</time>
      </trkpt>
      <trkpt lat="46.15674" lon="3.72855">
        <ele>427.24</ele>
        <time>2014-11-22T11:57:02Z</time>
      </trkpt>
      <trkpt lat="46.15667" lon="3.72831">
        <ele>430.2</ele>
        <time>2014-11-22T11:57:07Z</time>
      </trkpt>
      <trkpt lat="46.15657" lon="3.72808">
        <ele>431.48</ele>
        <time>2014-11-22T11:57:12Z</time>
      </trkpt>
      <trkpt lat="46.15638" lon="3.72803">
        <ele>431.55</ele>
        <time>2014-11-22T11:57:20Z</time>
      </trkpt>
      <trkpt lat="46.15617" lon="3.72801">
        <ele>431.55</ele>
        <time>2014-11-22T11:57:29Z</time>
      </trkpt>
      <trkpt lat="46.15597" lon="3.72797">
        <ele>431.55</ele>
        <time>2014-11-22T11:57:38Z</time>
      </trkpt>
      <trkpt lat="46.15576" lon="3.72788">
        <ele>430.58</ele>
        <time>2014-11-22T11:57:46Z</time>
      </trkpt>
      <trkpt lat="46.15556" lon="3.72788">
        <ele>430.55</ele>
        <time>2014-11-22T11:57:52Z</time>
      </trkpt>
      <trkpt lat="46.15536" lon="3.72791">
        <ele>430.55</ele>
        <time>2014-11-22T11:57:58Z</time>
      </trkpt>
      <trkpt lat="46.15515" lon="3.72793">
        <ele>430.55</ele>
        <time>2014-11-22T11:58:05Z</time>
      </trkpt>
      <trkpt lat="46.15493" lon="3.72793">
        <ele>429.62</ele>
        <time>2014-11-22T11:58:13Z</time>
      </trkpt>
      <trkpt lat="46.15474" lon="3.72799">
        <ele>429.55</ele>
        <time>2014-11-22T11:58:20Z</time>
      </trkpt>
      <trkpt lat="46.1545" lon="3.72818">
        <ele>430.55</ele>
        <time>2014-11-22T11:58:33Z</time>
      </trkpt>
      <trkpt lat="46.15432" lon="3.72829">
        <ele>431.54</ele>
        <time>2014-11-22T11:58:43Z</time>
      </trkpt>
      <trkpt lat="46.15414" lon="3.7284">
        <ele>432.52</ele>
        <time>2014-11-22T11:58:51Z</time>
      </trkpt>
      <trkpt lat="46.15393" lon="3.7284">
        <ele>434.05</ele>
        <time>2014-11-22T11:59:06Z</time>
      </trkpt>
      <trkpt lat="46.15373" lon="3.72844">
        <ele>434.55</ele>
        <time>2014-11-22T11:59:16Z</time>
      </trkpt>
      <trkpt lat="46.15352" lon="3.72851">
        <ele>435.54</ele>
        <time>2014-11-22T11:59:22Z</time>
      </trkpt>
      <trkpt lat="46.15332" lon="3.72855">
        <ele>435.55</ele>
        <time>2014-11-22T11:59:28Z</time>
      </trkpt>
      <trkpt lat="46.15314" lon="3.72857">
        <ele>436.52</ele>
        <time>2014-11-22T11:59:33Z</time>
      </trkpt>
      <trkpt lat="46.15294" lon="3.72855">
        <ele>437.8</ele>
        <time>2014-11-22T11:59:38Z</time>
      </trkpt>
      <trkpt lat="46.15276" lon="3.72849">
        <ele>440.44</ele>
        <time>2014-11-22T11:59:43Z</time>
      </trkpt>
      <trkpt lat="46.15258" lon="3.72844">
        <ele>440.55</ele>
        <time>2014-11-22T11:59:48Z</time>
      </trkpt>
      <trkpt lat="46.15238" lon="3.72838">
        <ele>441.52</ele>
        <time>2014-11-22T11:59:54Z</time>
      </trkpt>
      <trkpt lat="46.15219" lon="3.72831">
        <ele>441.55</ele>
        <time>2014-11-22T12:00:01Z</time>
      </trkpt>
      <trkpt lat="46.152" lon="3.72836">
        <ele>442.54</ele>
        <time>2014-11-22T12:00:07Z</time>
      </trkpt>
      <trkpt lat="46.1518" lon="3.72842">
        <ele>443.3</ele>
        <time>2014-11-22T12:00:13Z</time>
      </trkpt>
      <trkpt lat="46.1516" lon="3.72846">
        <ele>443.55</ele>
        <time>2014-11-22T12:00:19Z</time>
      </trkpt>
      <trkpt lat="46.15143" lon="3.72831">
        <ele>444.55</ele>
        <time>2014-11-22T12:00:29Z</time>
      </trkpt>
      <trkpt lat="46.15126" lon="3.72816">
        <ele>445.3</ele>
        <time>2014-11-22T12:00:38Z</time>
      </trkpt>
      <trkpt lat="46.15109" lon="3.72801">
        <ele>445.55</ele>
        <time>2014-11-22T12:00:46Z</time>
      </trkpt>
      <trkpt lat="46.15091" lon="3.72786">
        <ele>446.49</ele>
        <time>2014-11-22T12:00:54Z</time>
      </trkpt>
      <trkpt lat="46.15076" lon="3.72771">
        <ele>446.55</ele>
        <time>2014-11-22T12:01:02Z</time>
      </trkpt>
      <trkpt lat="46.1506" lon="3.72758">
        <ele>447.49</ele>
        <time>2014-11-22T12:01:09Z</time>
      </trkpt>
      <trkpt lat="46.15045" lon="3.72741">
        <ele>447.55</ele>
        <time>2014-11-22T12:01:17Z</time>
      </trkpt>
      <trkpt lat="46.15031" lon="3.72722">
        <ele>448.43</ele>
        <time>2014-11-22T12:01:25Z</time>
      </trkpt>
      <trkpt lat="46.15013" lon="3.72711">
        <ele>448.55</ele>
        <time>2014-11-22T12:01:33Z</time>
      </trkpt>
      <trkpt lat="46.14994" lon="3.72705">
        <ele>449.55</ele>
        <time>2014-11-22T12:01:41Z</time>
      </trkpt>
      <trkpt lat="46.14976" lon="3.72698">
        <ele>450.43</ele>
        <time>2014-11-22T12:01:48Z</time>
      </trkpt>
      <trkpt lat="46.14957" lon="3.72692">
        <ele>451.43</ele>
        <time>2014-11-22T12:01:55Z</time>
      </trkpt>
      <trkpt lat="46.14936" lon="3.72688">
        <ele>452.54</ele>
        <time>2014-11-22T12:02:04Z</time>
      </trkpt>
      <trkpt lat="46.14915" lon="3.72679">
        <ele>453.54</ele>
        <time>2014-11-22T12:02:12Z</time>
      </trkpt>
      <trkpt lat="46.14893" lon="3.72673">
        <ele>454.54</ele>
        <time>2014-11-22T12:02:22Z</time>
      </trkpt>
      <trkpt lat="46.14874" lon="3.72673">
        <ele>455.49</ele>
        <time>2014-11-22T12:02:29Z</time>
      </trkpt>
      <trkpt lat="46.14853" lon="3.72679">
        <ele>456.52</ele>
        <time>2014-11-22T12:02:36Z</time>
      </trkpt>
      <trkpt lat="46.14835" lon="3.72688">
        <ele>457.52</ele>
        <time>2014-11-22T12:02:42Z</time>
      </trkpt>
      <trkpt lat="46.14815" lon="3.72696">
        <ele>458.54</ele>
        <time>2014-11-22T12:02:48Z</time>
      </trkpt>
      <trkpt lat="46.14797" lon="3.72705">
        <ele>459.3</ele>
        <time>2014-11-22T12:02:53Z</time>
      </trkpt>
      <trkpt lat="46.1478" lon="3.72718">
        <ele>459.55</ele>
        <time>2014-11-22T12:03:02Z</time>
      </trkpt>
      <trkpt lat="46.14762" lon="3.72728">
        <ele>459.55</ele>
        <time>2014-11-22T12:03:13Z</time>
      </trkpt>
      <trkpt lat="46.14744" lon="3.72722">
        <ele>459.55</ele>
        <time>2014-11-22T12:03:21Z</time>
      </trkpt>
      <trkpt lat="46.14743" lon="3.72694">
        <ele>459.55</ele>
        <time>2014-11-22T12:03:31Z</time>
      </trkpt>
      <trkpt lat="46.14753" lon="3.7267">
        <ele>460.49</ele>
        <time>2014-11-22T12:03:42Z</time>
      </trkpt>
      <trkpt lat="46.14762" lon="3.72647">
        <ele>460.55</ele>
        <time>2014-11-22T12:03:50Z</time>
      </trkpt>
      <trkpt lat="46.14765" lon="3.72621">
        <ele>460.55</ele>
        <time>2014-11-22T12:03:56Z</time>
      </trkpt>
      <trkpt lat="46.14756" lon="3.72595">
        <ele>460.55</ele>
        <time>2014-11-22T12:04:02Z</time>
      </trkpt>
      <trkpt lat="46.14742" lon="3.72574">
        <ele>460.55</ele>
        <time>2014-11-22T12:04:10Z</time>
      </trkpt>
      <trkpt lat="46.14721" lon="3.72567">
        <ele>459.8</ele>
        <time>2014-11-22T12:04:19Z</time>
      </trkpt>
      <trkpt lat="46.14704" lon="3.72576">
        <ele>459.55</ele>
        <time>2014-11-22T12:04:28Z</time>
      </trkpt>
      <trkpt lat="46.14687" lon="3.72585">
        <ele>458.56</ele>
        <time>2014-11-22T12:04:37Z</time>
      </trkpt>
      <trkpt lat="46.14673" lon="3.72602">
        <ele>457.62</ele>
        <time>2014-11-22T12:04:46Z</time>
      </trkpt>
      <trkpt lat="46.14658" lon="3.72619">
        <ele>458.55</ele>
        <time>2014-11-22T12:04:55Z</time>
      </trkpt>
      <trkpt lat="46.14646" lon="3.7264">
        <ele>459.49</ele>
        <time>2014-11-22T12:05:05Z</time>
      </trkpt>
      <trkpt lat="46.14639" lon="3.72666">
        <ele>462.49</ele>
        <time>2014-11-22T12:05:22Z</time>
      </trkpt>
      <trkpt lat="46.14628" lon="3.72688">
        <ele>468.02</ele>
        <time>2014-11-22T12:05:41Z</time>
      </trkpt>
      <trkpt lat="46.14617" lon="3.72713">
        <ele>469.3</ele>
        <time>2014-11-22T12:05:48Z</time>
      </trkpt>
      <trkpt lat="46.14612" lon="3.72739">
        <ele>469.55</ele>
        <time>2014-11-22T12:05:53Z</time>
      </trkpt>
      <trkpt lat="46.14609" lon="3.72765">
        <ele>469.55</ele>
        <time>2014-11-22T12:06:01Z</time>
      </trkpt>
      <trkpt lat="46.14603" lon="3.72791">
        <ele>471.49</ele>
        <time>2014-11-22T12:06:12Z</time>
      </trkpt>
      <trkpt lat="46.14596" lon="3.72816">
        <ele>473.52</ele>
        <time>2014-11-22T12:06:24Z</time>
      </trkpt>
      <trkpt lat="46.14582" lon="3.72838">
        <ele>476.99</ele>
        <time>2014-11-22T12:06:36Z</time>
      </trkpt>
      <trkpt lat="46.14566" lon="3.72851">
        <ele>482.26</ele>
        <time>2014-11-22T12:06:50Z</time>
      </trkpt>
      <trkpt lat="46.14547" lon="3.72853">
        <ele>488.26</ele>
        <time>2014-11-22T12:07:05Z</time>
      </trkpt>
      <trkpt lat="46.14529" lon="3.72857">
        <ele>494.27</ele>
        <time>2014-11-22T12:07:21Z</time>
      </trkpt>
      <trkpt lat="46.14513" lon="3.7287">
        <ele>498.48</ele>
        <time>2014-11-22T12:07:36Z</time>
      </trkpt>
      <trkpt lat="46.14496" lon="3.72883">
        <ele>502.42</ele>
        <time>2014-11-22T12:07:51Z</time>
      </trkpt>
      <trkpt lat="46.14479" lon="3.72896">
        <ele>505.42</ele>
        <time>2014-11-22T12:08:07Z</time>
      </trkpt>
      <trkpt lat="46.14463" lon="3.72909">
        <ele>508.04</ele>
        <time>2014-11-22T12:08:21Z</time>
      </trkpt>
      <trkpt lat="46.14446" lon="3.72919">
        <ele>511.29</ele>
        <time>2014-11-22T12:08:36Z</time>
      </trkpt>
      <trkpt lat="46.14429" lon="3.72932">
        <ele>514.49</ele>
        <time>2014-11-22T12:08:51Z</time>
      </trkpt>
      <trkpt lat="46.14414" lon="3.72947">
        <ele>517.52</ele>
        <time>2014-11-22T12:09:09Z</time>
      </trkpt>
      <trkpt lat="46.14398" lon="3.72962">
        <ele>520.3</ele>
        <time>2014-11-22T12:09:24Z</time>
      </trkpt>
      <trkpt lat="46.14381" lon="3.72975">
        <ele>521.54</ele>
        <time>2014-11-22T12:09:35Z</time>
      </trkpt>
      <trkpt lat="46.14367" lon="3.72992">
        <ele>523.52</ele>
        <time>2014-11-22T12:09:47Z</time>
      </trkpt>
      <trkpt lat="46.14351" lon="3.73007">
        <ele>525.49</ele>
        <time>2014-11-22T12:10:00Z</time>
      </trkpt>
      <trkpt lat="46.14336" lon="3.73022">
        <ele>529.29</ele>
        <time>2014-11-22T12:10:14Z</time>
      </trkpt>
      <trkpt lat="46.14324" lon="3.73044">
        <ele>533.98</ele>
        <time>2014-11-22T12:10:28Z</time>
      </trkpt>
      <trkpt lat="46.14341" lon="3.73031">
        <ele>536.02</ele>
        <time>2014-11-22T12:10:37Z</time>
      </trkpt>
      <trkpt lat="46.14361" lon="3.73024">
        <ele>538.02</ele>
        <time>2014-11-22T12:10:45Z</time>
      </trkpt>
      <trkpt lat="46.14381" lon="3.73009">
        <ele>541.98</ele>
        <time>2014-11-22T12:10:51Z</time>
      </trkpt>
      <trkpt lat="46.14399" lon="3.73001">
        <ele>546.36</ele>
        <time>2014-11-22T12:10:54Z</time>
      </trkpt>
      <trkpt lat="46.1442" lon="3.7299">
        <ele>549.29</ele>
        <time>2014-11-22T12:10:58Z</time>
      </trkpt>
      <trkpt lat="46.14441" lon="3.72984">
        <ele>550.47</ele>
        <time>2014-11-22T12:11:02Z</time>
      </trkpt>
      <trkpt lat="46.14458" lon="3.72975">
        <ele>549.8</ele>
        <time>2014-11-22T12:11:06Z</time>
      </trkpt>
      <trkpt lat="46.14442" lon="3.72958">
        <ele>542.08</ele>
        <time>2014-11-22T12:12:13Z</time>
      </trkpt>
      <trkpt lat="46.14423" lon="3.72964">
        <ele>540.07</ele>
        <time>2014-11-22T12:12:23Z</time>
      </trkpt>
      <trkpt lat="46.14404" lon="3.72973">
        <ele>539.05</ele>
        <time>2014-11-22T12:12:32Z</time>
      </trkpt>
      <trkpt lat="46.14383" lon="3.72982">
        <ele>538.55</ele>
        <time>2014-11-22T12:12:40Z</time>
      </trkpt>
      <trkpt lat="46.14367" lon="3.72997">
        <ele>538.05</ele>
        <time>2014-11-22T12:12:49Z</time>
      </trkpt>
      <trkpt lat="46.14351" lon="3.73012">
        <ele>537.55</ele>
        <time>2014-11-22T12:13:01Z</time>
      </trkpt>
      <trkpt lat="46.14335" lon="3.73027">
        <ele>538.05</ele>
        <time>2014-11-22T12:13:11Z</time>
      </trkpt>
      <trkpt lat="46.14319" lon="3.73039">
        <ele>539.54</ele>
        <time>2014-11-22T12:13:22Z</time>
      </trkpt>
      <trkpt lat="46.14302" lon="3.7305">
        <ele>541.55</ele>
        <time>2014-11-22T12:13:34Z</time>
      </trkpt>
      <trkpt lat="46.14292" lon="3.73076">
        <ele>543.99</ele>
        <time>2014-11-22T12:13:42Z</time>
      </trkpt>
      <trkpt lat="46.14286" lon="3.73102">
        <ele>545.48</ele>
        <time>2014-11-22T12:13:48Z</time>
      </trkpt>
      <trkpt lat="46.14272" lon="3.73123">
        <ele>546.52</ele>
        <time>2014-11-22T12:13:55Z</time>
      </trkpt>
      <trkpt lat="46.14266" lon="3.73149">
        <ele>548.55</ele>
        <time>2014-11-22T12:14:35Z</time>
      </trkpt>
      <trkpt lat="46.14247" lon="3.73142">
        <ele>549.55</ele>
        <time>2014-11-22T12:17:54Z</time>
      </trkpt>
      <trkpt lat="46.14228" lon="3.73147">
        <ele>552.55</ele>
        <time>2014-11-22T12:17:59Z</time>
      </trkpt>
      <trkpt lat="46.1421" lon="3.73149">
        <ele>554.4</ele>
        <time>2014-11-22T12:18:04Z</time>
      </trkpt>
      <trkpt lat="46.14197" lon="3.7313">
        <ele>554.55</ele>
        <time>2014-11-22T12:18:12Z</time>
      </trkpt>
      <trkpt lat="46.14193" lon="3.73102">
        <ele>555.54</ele>
        <time>2014-11-22T12:18:18Z</time>
      </trkpt>
      <trkpt lat="46.14183" lon="3.7308">
        <ele>557.02</ele>
        <time>2014-11-22T12:18:23Z</time>
      </trkpt>
      <trkpt lat="46.1417" lon="3.73061">
        <ele>557.54</ele>
        <time>2014-11-22T12:18:28Z</time>
      </trkpt>
      <trkpt lat="46.14162" lon="3.73037">
        <ele>557.55</ele>
        <time>2014-11-22T12:18:33Z</time>
      </trkpt>
      <trkpt lat="46.14156" lon="3.73009">
        <ele>556.8</ele>
        <time>2014-11-22T12:18:38Z</time>
      </trkpt>
      <trkpt lat="46.14143" lon="3.72984">
        <ele>555.13</ele>
        <time>2014-11-22T12:18:42Z</time>
      </trkpt>
      <trkpt lat="46.14126" lon="3.72964">
        <ele>553.13</ele>
        <time>2014-11-22T12:18:45Z</time>
      </trkpt>
      <trkpt lat="46.14104" lon="3.72947">
        <ele>550.5</ele>
        <time>2014-11-22T12:18:48Z</time>
      </trkpt>
      <trkpt lat="46.1408" lon="3.72934">
        <ele>548.92</ele>
        <time>2014-11-22T12:18:51Z</time>
      </trkpt>
      <trkpt lat="46.1406" lon="3.72928">
        <ele>548.15</ele>
        <time>2014-11-22T12:18:53Z</time>
      </trkpt>
      <trkpt lat="46.14038" lon="3.72921">
        <ele>547.13</ele>
        <time>2014-11-22T12:18:56Z</time>
      </trkpt>
      <trkpt lat="46.14017" lon="3.72919">
        <ele>546.62</ele>
        <time>2014-11-22T12:18:59Z</time>
      </trkpt>
      <trkpt lat="46.13996" lon="3.72919">
        <ele>546.56</ele>
        <time>2014-11-22T12:19:02Z</time>
      </trkpt>
      <trkpt lat="46.13973" lon="3.72919">
        <ele>545.8</ele>
        <time>2014-11-22T12:19:05Z</time>
      </trkpt>
      <trkpt lat="46.13952" lon="3.7293">
        <ele>544.83</ele>
        <time>2014-11-22T12:19:08Z</time>
      </trkpt>
      <trkpt lat="46.13932" lon="3.72932">
        <ele>541.21</ele>
        <time>2014-11-22T12:19:11Z</time>
      </trkpt>
      <trkpt lat="46.13911" lon="3.7293">
        <ele>537.64</ele>
        <time>2014-11-22T12:19:14Z</time>
      </trkpt>
      <trkpt lat="46.13893" lon="3.7293">
        <ele>534.56</ele>
        <time>2014-11-22T12:19:17Z</time>
      </trkpt>
      <trkpt lat="46.13875" lon="3.72928">
        <ele>532.05</ele>
        <time>2014-11-22T12:19:20Z</time>
      </trkpt>
      <trkpt lat="46.13852" lon="3.72928">
        <ele>530.05</ele>
        <time>2014-11-22T12:19:33Z</time>
      </trkpt>
      <trkpt lat="46.13869" lon="3.72915">
        <ele>514.87</ele>
        <time>2014-11-22T12:20:24Z</time>
      </trkpt>
      <trkpt lat="46.13887" lon="3.72906">
        <ele>504.9</ele>
        <time>2014-11-22T12:20:30Z</time>
      </trkpt>
      <trkpt lat="46.13904" lon="3.72889">
        <ele>501.55</ele>
        <time>2014-11-22T12:21:44Z</time>
      </trkpt>
      <trkpt lat="46.13886" lon="3.72874">
        <ele>497.12</ele>
        <time>2014-11-22T12:22:37Z</time>
      </trkpt>
      <trkpt lat="46.13867" lon="3.72859">
        <ele>496.05</ele>
        <time>2014-11-22T12:22:46Z</time>
      </trkpt>
      <trkpt lat="46.1385" lon="3.72842">
        <ele>494.56</ele>
        <time>2014-11-22T12:22:57Z</time>
      </trkpt>
      <trkpt lat="46.13848" lon="3.72812">
        <ele>493.58</ele>
        <time>2014-11-22T12:23:04Z</time>
      </trkpt>
      <trkpt lat="46.13859" lon="3.72788">
        <ele>492.06</ele>
        <time>2014-11-22T12:23:16Z</time>
      </trkpt>
      <trkpt lat="46.13876" lon="3.72778">
        <ele>491.55</ele>
        <time>2014-11-22T12:23:38Z</time>
      </trkpt>
      <trkpt lat="46.13882" lon="3.7275">
        <ele>492.55</ele>
        <time>2014-11-22T12:23:53Z</time>
      </trkpt>
      <trkpt lat="46.1389" lon="3.72726">
        <ele>493.55</ele>
        <time>2014-11-22T12:24:06Z</time>
      </trkpt>
      <trkpt lat="46.13895" lon="3.727">
        <ele>495.49</ele>
        <time>2014-11-22T12:24:23Z</time>
      </trkpt>
      <trkpt lat="46.13904" lon="3.72677">
        <ele>497.55</ele>
        <time>2014-11-22T12:24:39Z</time>
      </trkpt>
      <trkpt lat="46.13916" lon="3.72655">
        <ele>500.02</ele>
        <time>2014-11-22T12:24:57Z</time>
      </trkpt>
      <trkpt lat="46.13932" lon="3.72643">
        <ele>504.05</ele>
        <time>2014-11-22T12:25:16Z</time>
      </trkpt>
      <trkpt lat="46.13945" lon="3.72619">
        <ele>506.98</ele>
        <time>2014-11-22T12:25:26Z</time>
      </trkpt>
      <trkpt lat="46.13956" lon="3.72597">
        <ele>509.52</ele>
        <time>2014-11-22T12:25:38Z</time>
      </trkpt>
      <trkpt lat="46.13969" lon="3.72578">
        <ele>512.52</ele>
        <time>2014-11-22T12:25:53Z</time>
      </trkpt>
      <trkpt lat="46.13983" lon="3.72561">
        <ele>515.49</ele>
        <time>2014-11-22T12:26:08Z</time>
      </trkpt>
      <trkpt lat="46.13998" lon="3.72544">
        <ele>517.52</ele>
        <time>2014-11-22T12:26:21Z</time>
      </trkpt>
      <trkpt lat="46.14009" lon="3.72522">
        <ele>518.49</ele>
        <time>2014-11-22T12:26:30Z</time>
      </trkpt>
      <trkpt lat="46.14014" lon="3.72497">
        <ele>518.55</ele>
        <time>2014-11-22T12:26:37Z</time>
      </trkpt>
      <trkpt lat="46.14019" lon="3.72471">
        <ele>518.55</ele>
        <time>2014-11-22T12:26:44Z</time>
      </trkpt>
      <trkpt lat="46.14026" lon="3.72447">
        <ele>519.55</ele>
        <time>2014-11-22T12:26:54Z</time>
      </trkpt>
      <trkpt lat="46.14036" lon="3.72424">
        <ele>520.55</ele>
        <time>2014-11-22T12:27:08Z</time>
      </trkpt>
      <trkpt lat="46.14036" lon="3.72396">
        <ele>521.55</ele>
        <time>2014-11-22T12:27:19Z</time>
      </trkpt>
      <trkpt lat="46.14029" lon="3.7237">
        <ele>522.55</ele>
        <time>2014-11-22T12:27:28Z</time>
      </trkpt>
      <trkpt lat="46.14022" lon="3.72344">
        <ele>523.55</ele>
        <time>2014-11-22T12:27:39Z</time>
      </trkpt>
      <trkpt lat="46.14021" lon="3.72316">
        <ele>524.55</ele>
        <time>2014-11-22T12:27:53Z</time>
      </trkpt>
      <trkpt lat="46.14006" lon="3.72301">
        <ele>526.49</ele>
        <time>2014-11-22T12:30:36Z</time>
      </trkpt>
      <trkpt lat="46.13987" lon="3.72295">
        <ele>526.55</ele>
        <time>2014-11-22T12:30:51Z</time>
      </trkpt>
      <trkpt lat="46.13969" lon="3.72299">
        <ele>528.52</ele>
        <time>2014-11-22T12:31:03Z</time>
      </trkpt>
      <trkpt lat="46.13951" lon="3.72306">
        <ele>530.43</ele>
        <time>2014-11-22T12:31:14Z</time>
      </trkpt>
      <trkpt lat="46.13934" lon="3.72314">
        <ele>532.42</ele>
        <time>2014-11-22T12:31:23Z</time>
      </trkpt>
      <trkpt lat="46.13914" lon="3.72321">
        <ele>535.02</ele>
        <time>2014-11-22T12:31:33Z</time>
      </trkpt>
      <trkpt lat="46.13896" lon="3.72323">
        <ele>537.42</ele>
        <time>2014-11-22T12:31:43Z</time>
      </trkpt>
      <trkpt lat="46.13878" lon="3.72331">
        <ele>539.49</ele>
        <time>2014-11-22T12:31:53Z</time>
      </trkpt>
      <trkpt lat="46.13863" lon="3.72346">
        <ele>541.99</ele>
        <time>2014-11-22T12:32:01Z</time>
      </trkpt>
      <trkpt lat="46.13847" lon="3.72359">
        <ele>543.49</ele>
        <time>2014-11-22T12:32:08Z</time>
      </trkpt>
      <trkpt lat="46.13829" lon="3.72366">
        <ele>546.02</ele>
        <time>2014-11-22T12:32:16Z</time>
      </trkpt>
      <trkpt lat="46.1381" lon="3.72379">
        <ele>548.02</ele>
        <time>2014-11-22T12:32:24Z</time>
      </trkpt>
      <trkpt lat="46.13796" lon="3.72398">
        <ele>549.49</ele>
        <time>2014-11-22T12:32:31Z</time>
      </trkpt>
      <trkpt lat="46.13784" lon="3.72417">
        <ele>551.27</ele>
        <time>2014-11-22T12:32:36Z</time>
      </trkpt>
      <trkpt lat="46.13769" lon="3.72437">
        <ele>552.98</ele>
        <time>2014-11-22T12:32:41Z</time>
      </trkpt>
      <trkpt lat="46.13752" lon="3.72454">
        <ele>554.29</ele>
        <time>2014-11-22T12:32:46Z</time>
      </trkpt>
      <trkpt lat="46.13736" lon="3.72473">
        <ele>555.48</ele>
        <time>2014-11-22T12:32:51Z</time>
      </trkpt>
      <trkpt lat="46.13721" lon="3.72488">
        <ele>557.27</ele>
        <time>2014-11-22T12:32:56Z</time>
      </trkpt>
      <trkpt lat="46.13705" lon="3.72505">
        <ele>558.49</ele>
        <time>2014-11-22T12:33:02Z</time>
      </trkpt>
      <trkpt lat="46.13689" lon="3.72518">
        <ele>560.29</ele>
        <time>2014-11-22T12:33:08Z</time>
      </trkpt>
      <trkpt lat="46.13671" lon="3.72529">
        <ele>561.49</ele>
        <time>2014-11-22T12:33:15Z</time>
      </trkpt>
      <trkpt lat="46.13652" lon="3.72533">
        <ele>562.52</ele>
        <time>2014-11-22T12:33:22Z</time>
      </trkpt>
      <trkpt lat="46.13632" lon="3.72533">
        <ele>562.55</ele>
        <time>2014-11-22T12:33:31Z</time>
      </trkpt>
      <trkpt lat="46.13613" lon="3.72533">
        <ele>562.55</ele>
        <time>2014-11-22T12:33:42Z</time>
      </trkpt>
      <trkpt lat="46.13595" lon="3.72531">
        <ele>563.55</ele>
        <time>2014-11-22T12:33:50Z</time>
      </trkpt>
      <trkpt lat="46.13577" lon="3.72533">
        <ele>565.3</ele>
        <time>2014-11-22T12:33:57Z</time>
      </trkpt>
      <trkpt lat="46.13557" lon="3.72533">
        <ele>568.27</ele>
        <time>2014-11-22T12:34:13Z</time>
      </trkpt>
      <trkpt lat="46.1354" lon="3.7252">
        <ele>571.02</ele>
        <time>2014-11-22T12:34:23Z</time>
      </trkpt>
      <trkpt lat="46.13524" lon="3.72505">
        <ele>572.52</ele>
        <time>2014-11-22T12:34:31Z</time>
      </trkpt>
      <trkpt lat="46.13507" lon="3.7249">
        <ele>573.49</ele>
        <time>2014-11-22T12:34:39Z</time>
      </trkpt>
      <trkpt lat="46.1349" lon="3.72479">
        <ele>573.55</ele>
        <time>2014-11-22T12:34:48Z</time>
      </trkpt>
      <trkpt lat="46.1347" lon="3.72471">
        <ele>573.55</ele>
        <time>2014-11-22T12:34:58Z</time>
      </trkpt>
      <trkpt lat="46.13451" lon="3.72467">
        <ele>573.55</ele>
        <time>2014-11-22T12:35:07Z</time>
      </trkpt>
      <trkpt lat="46.13433" lon="3.72464">
        <ele>573.55</ele>
        <time>2014-11-22T12:35:14Z</time>
      </trkpt>
      <trkpt lat="46.13415" lon="3.72467">
        <ele>574.55</ele>
        <time>2014-11-22T12:35:22Z</time>
      </trkpt>
      <trkpt lat="46.13398" lon="3.72479">
        <ele>573.68</ele>
        <time>2014-11-22T12:35:31Z</time>
      </trkpt>
      <trkpt lat="46.13381" lon="3.72488">
        <ele>572.62</ele>
        <time>2014-11-22T12:35:42Z</time>
      </trkpt>
      <trkpt lat="46.13363" lon="3.72497">
        <ele>573.3</ele>
        <time>2014-11-22T12:35:53Z</time>
      </trkpt>
      <trkpt lat="46.13346" lon="3.72509">
        <ele>574.05</ele>
        <time>2014-11-22T12:36:03Z</time>
      </trkpt>
      <trkpt lat="46.13331" lon="3.72524">
        <ele>574.54</ele>
        <time>2014-11-22T12:36:08Z</time>
      </trkpt>
      <trkpt lat="46.13314" lon="3.7254">
        <ele>574.55</ele>
        <time>2014-11-22T12:36:13Z</time>
      </trkpt>
      <trkpt lat="46.13294" lon="3.72546">
        <ele>576.68</ele>
        <time>2014-11-22T12:36:18Z</time>
      </trkpt>
      <trkpt lat="46.13273" lon="3.72542">
        <ele>577.71</ele>
        <time>2014-11-22T12:36:23Z</time>
      </trkpt>
      <trkpt lat="46.1325" lon="3.72552">
        <ele>577.55</ele>
        <time>2014-11-22T12:36:32Z</time>
      </trkpt>
      <trkpt lat="46.13232" lon="3.72565">
        <ele>577.55</ele>
        <time>2014-11-22T12:36:38Z</time>
      </trkpt>
      <trkpt lat="46.13216" lon="3.72582">
        <ele>576.57</ele>
        <time>2014-11-22T12:36:44Z</time>
      </trkpt>
      <trkpt lat="46.132" lon="3.72602">
        <ele>576.55</ele>
        <time>2014-11-22T12:36:51Z</time>
      </trkpt>
      <trkpt lat="46.13185" lon="3.72617">
        <ele>576.55</ele>
        <time>2014-11-22T12:36:57Z</time>
      </trkpt>
      <trkpt lat="46.13167" lon="3.72634">
        <ele>576.55</ele>
        <time>2014-11-22T12:37:03Z</time>
      </trkpt>
      <trkpt lat="46.13148" lon="3.72647">
        <ele>576.05</ele>
        <time>2014-11-22T12:37:08Z</time>
      </trkpt>
      <trkpt lat="46.1313" lon="3.72662">
        <ele>573.72</ele>
        <time>2014-11-22T12:37:13Z</time>
      </trkpt>
      <trkpt lat="46.13116" lon="3.72681">
        <ele>573.56</ele>
        <time>2014-11-22T12:37:18Z</time>
      </trkpt>
      <trkpt lat="46.13101" lon="3.72698">
        <ele>572.62</ele>
        <time>2014-11-22T12:37:23Z</time>
      </trkpt>
      <trkpt lat="46.13085" lon="3.72715">
        <ele>571.68</ele>
        <time>2014-11-22T12:37:28Z</time>
      </trkpt>
      <trkpt lat="46.13067" lon="3.72726">
        <ele>571.05</ele>
        <time>2014-11-22T12:37:35Z</time>
      </trkpt>
      <trkpt lat="46.13048" lon="3.7273">
        <ele>570.56</ele>
        <time>2014-11-22T12:37:42Z</time>
      </trkpt>
      <trkpt lat="46.13027" lon="3.72737">
        <ele>569.57</ele>
        <time>2014-11-22T12:37:48Z</time>
      </trkpt>
      <trkpt lat="46.13011" lon="3.72754">
        <ele>569.55</ele>
        <time>2014-11-22T12:37:53Z</time>
      </trkpt>
      <trkpt lat="46.13007" lon="3.72782">
        <ele>568.68</ele>
        <time>2014-11-22T12:37:58Z</time>
      </trkpt>
      <trkpt lat="46.13013" lon="3.72812">
        <ele>567.62</ele>
        <time>2014-11-22T12:38:03Z</time>
      </trkpt>
      <trkpt lat="46.13014" lon="3.7284">
        <ele>567.56</ele>
        <time>2014-11-22T12:38:07Z</time>
      </trkpt>
      <trkpt lat="46.13009" lon="3.72868">
        <ele>567.55</ele>
        <time>2014-11-22T12:38:11Z</time>
      </trkpt>
      <trkpt lat="46.12991" lon="3.72894">
        <ele>567.55</ele>
        <time>2014-11-22T12:38:19Z</time>
      </trkpt>
      <trkpt lat="46.12971" lon="3.72902">
        <ele>568.05</ele>
        <time>2014-11-22T12:38:31Z</time>
      </trkpt>
      <trkpt lat="46.12948" lon="3.72902">
        <ele>570.05</ele>
        <time>2014-11-22T12:38:57Z</time>
      </trkpt>
      <trkpt lat="46.1293" lon="3.72894">
        <ele>571.05</ele>
        <time>2014-11-22T12:39:14Z</time>
      </trkpt>
      <trkpt lat="46.12911" lon="3.72887">
        <ele>573.04</ele>
        <time>2014-11-22T12:39:29Z</time>
      </trkpt>
      <trkpt lat="46.12892" lon="3.72881">
        <ele>574.05</ele>
        <time>2014-11-22T12:39:39Z</time>
      </trkpt>
      <trkpt lat="46.12872" lon="3.72881">
        <ele>577.55</ele>
        <time>2014-11-22T12:39:53Z</time>
      </trkpt>
      <trkpt lat="46.12854" lon="3.72891">
        <ele>580.55</ele>
        <time>2014-11-22T12:40:24Z</time>
      </trkpt>
      <trkpt lat="46.12857" lon="3.72919">
        <ele>583.49</ele>
        <time>2014-11-22T12:41:49Z</time>
      </trkpt>
      <trkpt lat="46.12856" lon="3.72952">
        <ele>586.52</ele>
        <time>2014-11-22T12:41:55Z</time>
      </trkpt>
      <trkpt lat="46.12848" lon="3.72979">
        <ele>590.74</ele>
        <time>2014-11-22T12:41:59Z</time>
      </trkpt>
      <trkpt lat="46.12836" lon="3.73001">
        <ele>592.29</ele>
        <time>2014-11-22T12:42:05Z</time>
      </trkpt>
      <trkpt lat="46.12822" lon="3.73024">
        <ele>593.05</ele>
        <time>2014-11-22T12:42:14Z</time>
      </trkpt>
      <trkpt lat="46.12809" lon="3.73048">
        <ele>594.3</ele>
        <time>2014-11-22T12:42:21Z</time>
      </trkpt>
      <trkpt lat="46.12797" lon="3.7307">
        <ele>595.05</ele>
        <time>2014-11-22T12:42:28Z</time>
      </trkpt>
      <trkpt lat="46.12787" lon="3.73093">
        <ele>596.05</ele>
        <time>2014-11-22T12:42:34Z</time>
      </trkpt>
      <trkpt lat="46.12777" lon="3.73121">
        <ele>596.52</ele>
        <time>2014-11-22T12:42:38Z</time>
      </trkpt>
      <trkpt lat="46.12765" lon="3.73151">
        <ele>596.55</ele>
        <time>2014-11-22T12:42:41Z</time>
      </trkpt>
      <trkpt lat="46.12753" lon="3.73175">
        <ele>596.55</ele>
        <time>2014-11-22T12:42:44Z</time>
      </trkpt>
      <trkpt lat="46.1274" lon="3.73196">
        <ele>596.55</ele>
        <time>2014-11-22T12:42:47Z</time>
      </trkpt>
      <trkpt lat="46.12726" lon="3.73215">
        <ele>596.55</ele>
        <time>2014-11-22T12:42:50Z</time>
      </trkpt>
      <trkpt lat="46.1271" lon="3.73237">
        <ele>596.55</ele>
        <time>2014-11-22T12:42:54Z</time>
      </trkpt>
      <trkpt lat="46.12697" lon="3.73256">
        <ele>595.8</ele>
        <time>2014-11-22T12:42:58Z</time>
      </trkpt>
      <trkpt lat="46.12682" lon="3.73278">
        <ele>593.26</ele>
        <time>2014-11-22T12:43:02Z</time>
      </trkpt>
      <trkpt lat="46.12667" lon="3.73293">
        <ele>592.1</ele>
        <time>2014-11-22T12:43:06Z</time>
      </trkpt>
      <trkpt lat="46.12646" lon="3.73301">
        <ele>590.62</ele>
        <time>2014-11-22T12:43:12Z</time>
      </trkpt>
      <trkpt lat="46.12627" lon="3.73297">
        <ele>587.57</ele>
        <time>2014-11-22T12:43:18Z</time>
      </trkpt>
      <trkpt lat="46.12609" lon="3.73288">
        <ele>584.68</ele>
        <time>2014-11-22T12:43:23Z</time>
      </trkpt>
      <trkpt lat="46.12581" lon="3.73288">
        <ele>584.55</ele>
        <time>2014-11-22T12:43:35Z</time>
      </trkpt>
      <trkpt lat="46.12565" lon="3.73306">
        <ele>584.55</ele>
        <time>2014-11-22T12:43:44Z</time>
      </trkpt>
      <trkpt lat="46.12551" lon="3.73329">
        <ele>584.55</ele>
        <time>2014-11-22T12:43:50Z</time>
      </trkpt>
      <trkpt lat="46.12537" lon="3.73351">
        <ele>586.18</ele>
        <time>2014-11-22T12:43:55Z</time>
      </trkpt>
      <trkpt lat="46.12511" lon="3.73361">
        <ele>586.55</ele>
        <time>2014-11-22T12:44:12Z</time>
      </trkpt>
      <trkpt lat="46.12494" lon="3.73379">
        <ele>587.05</ele>
        <time>2014-11-22T12:44:18Z</time>
      </trkpt>
      <trkpt lat="46.12481" lon="3.73402">
        <ele>587.55</ele>
        <time>2014-11-22T12:44:27Z</time>
      </trkpt>
      <trkpt lat="46.12489" lon="3.73426">
        <ele>586.68</ele>
        <time>2014-11-22T12:44:32Z</time>
      </trkpt>
      <trkpt lat="46.12495" lon="3.73451">
        <ele>586.06</ele>
        <time>2014-11-22T12:44:36Z</time>
      </trkpt>
      <trkpt lat="46.12503" lon="3.73477">
        <ele>584.13</ele>
        <time>2014-11-22T12:44:41Z</time>
      </trkpt>
      <trkpt lat="46.12506" lon="3.73503">
        <ele>582.21</ele>
        <time>2014-11-22T12:44:45Z</time>
      </trkpt>
      <trkpt lat="46.12509" lon="3.73531">
        <ele>579.89</ele>
        <time>2014-11-22T12:44:50Z</time>
      </trkpt>
      <trkpt lat="46.12511" lon="3.73559">
        <ele>577.21</ele>
        <time>2014-11-22T12:44:56Z</time>
      </trkpt>
      <trkpt lat="46.12511" lon="3.73589">
        <ele>569.76</ele>
        <time>2014-11-22T12:45:01Z</time>
      </trkpt>
      <trkpt lat="46.12507" lon="3.73615">
        <ele>565.58</ele>
        <time>2014-11-22T12:45:04Z</time>
      </trkpt>
      <trkpt lat="46.12495" lon="3.73638">
        <ele>562.56</ele>
        <time>2014-11-22T12:45:07Z</time>
      </trkpt>
      <trkpt lat="46.12478" lon="3.73655">
        <ele>560.93</ele>
        <time>2014-11-22T12:45:10Z</time>
      </trkpt>
      <trkpt lat="46.12459" lon="3.73677">
        <ele>558.97</ele>
        <time>2014-11-22T12:45:13Z</time>
      </trkpt>
      <trkpt lat="46.12439" lon="3.73703">
        <ele>556.11</ele>
        <time>2014-11-22T12:45:16Z</time>
      </trkpt>
      <trkpt lat="46.12432" lon="3.73735">
        <ele>554.25</ele>
        <time>2014-11-22T12:45:19Z</time>
      </trkpt>
      <trkpt lat="46.12429" lon="3.73769">
        <ele>551.01</ele>
        <time>2014-11-22T12:45:22Z</time>
      </trkpt>
      <trkpt lat="46.12425" lon="3.73795">
        <ele>548.67</ele>
        <time>2014-11-22T12:45:24Z</time>
      </trkpt>
      <trkpt lat="46.12419" lon="3.73823">
        <ele>546.58</ele>
        <time>2014-11-22T12:45:26Z</time>
      </trkpt>
      <trkpt lat="46.12411" lon="3.73851">
        <ele>544.56</ele>
        <time>2014-11-22T12:45:28Z</time>
      </trkpt>
      <trkpt lat="46.12405" lon="3.73885">
        <ele>543.18</ele>
        <time>2014-11-22T12:45:31Z</time>
      </trkpt>
      <trkpt lat="46.12402" lon="3.73913">
        <ele>542.63</ele>
        <time>2014-11-22T12:45:34Z</time>
      </trkpt>
      <trkpt lat="46.1239" lon="3.73941">
        <ele>541.18</ele>
        <time>2014-11-22T12:45:38Z</time>
      </trkpt>
      <trkpt lat="46.12379" lon="3.73962">
        <ele>540.63</ele>
        <time>2014-11-22T12:45:41Z</time>
      </trkpt>
      <trkpt lat="46.12379" lon="3.73994">
        <ele>539.12</ele>
        <time>2014-11-22T12:45:45Z</time>
      </trkpt>
      <trkpt lat="46.12387" lon="3.74018">
        <ele>537.84</ele>
        <time>2014-11-22T12:45:49Z</time>
      </trkpt>
      <trkpt lat="46.12386" lon="3.74048">
        <ele>537.57</ele>
        <time>2014-11-22T12:45:53Z</time>
      </trkpt>
      <trkpt lat="46.12382" lon="3.74078">
        <ele>537.55</ele>
        <time>2014-11-22T12:45:57Z</time>
      </trkpt>
      <trkpt lat="46.12379" lon="3.74108">
        <ele>536.68</ele>
        <time>2014-11-22T12:46:01Z</time>
      </trkpt>
      <trkpt lat="46.12366" lon="3.7413">
        <ele>537.5</ele>
        <time>2014-11-22T12:46:05Z</time>
      </trkpt>
      <trkpt lat="46.12355" lon="3.74157">
        <ele>539.55</ele>
        <time>2014-11-22T12:46:37Z</time>
      </trkpt>
      <trkpt lat="46.12332" lon="3.74175">
        <ele>542.02</ele>
        <time>2014-11-22T12:46:45Z</time>
      </trkpt>
      <trkpt lat="46.12315" lon="3.7419">
        <ele>542.55</ele>
        <time>2014-11-22T12:46:56Z</time>
      </trkpt>
      <trkpt lat="46.12309" lon="3.74218">
        <ele>542.55</ele>
        <time>2014-11-22T12:47:03Z</time>
      </trkpt>
      <trkpt lat="46.12302" lon="3.74248">
        <ele>542.55</ele>
        <time>2014-11-22T12:47:12Z</time>
      </trkpt>
      <trkpt lat="46.12319" lon="3.74235">
        <ele>541.62</ele>
        <time>2014-11-22T12:47:36Z</time>
      </trkpt>
      <trkpt lat="46.12331" lon="3.74213">
        <ele>541.55</ele>
        <time>2014-11-22T12:47:43Z</time>
      </trkpt>
      <trkpt lat="46.12348" lon="3.74202">
        <ele>542.05</ele>
        <time>2014-11-22T12:47:48Z</time>
      </trkpt>
      <trkpt lat="46.12367" lon="3.74205">
        <ele>542.05</ele>
        <time>2014-11-22T12:47:55Z</time>
      </trkpt>
      <trkpt lat="46.12379" lon="3.74226">
        <ele>541.57</ele>
        <time>2014-11-22T12:48:00Z</time>
      </trkpt>
      <trkpt lat="46.12394" lon="3.74248">
        <ele>542.49</ele>
        <time>2014-11-22T12:48:05Z</time>
      </trkpt>
      <trkpt lat="46.12399" lon="3.74275">
        <ele>543.04</ele>
        <time>2014-11-22T12:48:12Z</time>
      </trkpt>
      <trkpt lat="46.12392" lon="3.74305">
        <ele>539.51</ele>
        <time>2014-11-22T12:48:17Z</time>
      </trkpt>
      <trkpt lat="46.12391" lon="3.74333">
        <ele>536.99</ele>
        <time>2014-11-22T12:48:21Z</time>
      </trkpt>
      <trkpt lat="46.12391" lon="3.74361">
        <ele>533.21</ele>
        <time>2014-11-22T12:48:25Z</time>
      </trkpt>
      <trkpt lat="46.12396" lon="3.74396">
        <ele>530.07</ele>
        <time>2014-11-22T12:48:33Z</time>
      </trkpt>
      <trkpt lat="46.12404" lon="3.7443">
        <ele>528.06</ele>
        <time>2014-11-22T12:48:45Z</time>
      </trkpt>
      <trkpt lat="46.12396" lon="3.74456">
        <ele>526.06</ele>
        <time>2014-11-22T12:48:56Z</time>
      </trkpt>
      <trkpt lat="46.12391" lon="3.74481">
        <ele>525.05</ele>
        <time>2014-11-22T12:49:10Z</time>
      </trkpt>
      <trkpt lat="46.12393" lon="3.74509">
        <ele>524.55</ele>
        <time>2014-11-22T12:49:21Z</time>
      </trkpt>
      <trkpt lat="46.12397" lon="3.74537">
        <ele>525.43</ele>
        <time>2014-11-22T12:49:30Z</time>
      </trkpt>
      <trkpt lat="46.12403" lon="3.74563">
        <ele>526.3</ele>
        <time>2014-11-22T12:49:37Z</time>
      </trkpt>
      <trkpt lat="46.12412" lon="3.74587">
        <ele>527.43</ele>
        <time>2014-11-22T12:49:45Z</time>
      </trkpt>
      <trkpt lat="46.12422" lon="3.74612">
        <ele>528.55</ele>
        <time>2014-11-22T12:49:57Z</time>
      </trkpt>
      <trkpt lat="46.12432" lon="3.74636">
        <ele>530.43</ele>
        <time>2014-11-22T12:50:09Z</time>
      </trkpt>
      <trkpt lat="46.1244" lon="3.7466">
        <ele>532.3</ele>
        <time>2014-11-22T12:50:22Z</time>
      </trkpt>
      <trkpt lat="46.12441" lon="3.74687">
        <ele>535.04</ele>
        <time>2014-11-22T12:50:42Z</time>
      </trkpt>
      <trkpt lat="46.12431" lon="3.74709">
        <ele>537.05</ele>
        <time>2014-11-22T12:51:00Z</time>
      </trkpt>
      <trkpt lat="46.12424" lon="3.74739">
        <ele>539.05</ele>
        <time>2014-11-22T12:51:15Z</time>
      </trkpt>
      <trkpt lat="46.12422" lon="3.74767">
        <ele>542.55</ele>
        <time>2014-11-22T12:51:43Z</time>
      </trkpt>
      <trkpt lat="46.12429" lon="3.74793">
        <ele>545.54</ele>
        <time>2014-11-22T12:52:50Z</time>
      </trkpt>
      <trkpt lat="46.1244" lon="3.74814">
        <ele>547.43</ele>
        <time>2014-11-22T12:53:01Z</time>
      </trkpt>
      <trkpt lat="46.12454" lon="3.74831">
        <ele>549.05</ele>
        <time>2014-11-22T12:53:12Z</time>
      </trkpt>
      <trkpt lat="46.12468" lon="3.74848">
        <ele>550.43</ele>
        <time>2014-11-22T12:53:22Z</time>
      </trkpt>
      <trkpt lat="46.12483" lon="3.74863">
        <ele>551.54</ele>
        <time>2014-11-22T12:53:34Z</time>
      </trkpt>
      <trkpt lat="46.12499" lon="3.74878">
        <ele>552.54</ele>
        <time>2014-11-22T12:53:46Z</time>
      </trkpt>
      <trkpt lat="46.12515" lon="3.74891">
        <ele>553.43</ele>
        <time>2014-11-22T12:53:59Z</time>
      </trkpt>
      <trkpt lat="46.12533" lon="3.749">
        <ele>554.55</ele>
        <time>2014-11-22T12:54:11Z</time>
      </trkpt>
      <trkpt lat="46.12551" lon="3.74911">
        <ele>556.43</ele>
        <time>2014-11-22T12:54:25Z</time>
      </trkpt>
      <trkpt lat="46.12568" lon="3.74921">
        <ele>558.49</ele>
        <time>2014-11-22T12:54:40Z</time>
      </trkpt>
      <trkpt lat="46.12583" lon="3.74936">
        <ele>560.52</ele>
        <time>2014-11-22T12:54:55Z</time>
      </trkpt>
      <trkpt lat="46.126" lon="3.74947">
        <ele>562.52</ele>
        <time>2014-11-22T12:55:10Z</time>
      </trkpt>
      <trkpt lat="46.12616" lon="3.7496">
        <ele>564.49</ele>
        <time>2014-11-22T12:55:25Z</time>
      </trkpt>
      <trkpt lat="46.12632" lon="3.74973">
        <ele>566.54</ele>
        <time>2014-11-22T12:55:40Z</time>
      </trkpt>
      <trkpt lat="46.12651" lon="3.74981">
        <ele>569.04</ele>
        <time>2014-11-22T12:55:54Z</time>
      </trkpt>
      <trkpt lat="46.12669" lon="3.74988">
        <ele>571.42</ele>
        <time>2014-11-22T12:56:05Z</time>
      </trkpt>
      <trkpt lat="46.12687" lon="3.74996">
        <ele>574.48</ele>
        <time>2014-11-22T12:56:17Z</time>
      </trkpt>
      <trkpt lat="46.12705" lon="3.75003">
        <ele>577.04</ele>
        <time>2014-11-22T12:56:29Z</time>
      </trkpt>
      <trkpt lat="46.12721" lon="3.75016">
        <ele>579.43</ele>
        <time>2014-11-22T12:56:43Z</time>
      </trkpt>
      <trkpt lat="46.12736" lon="3.75031">
        <ele>582.42</ele>
        <time>2014-11-22T12:57:00Z</time>
      </trkpt>
      <trkpt lat="46.12751" lon="3.75046">
        <ele>585.29</ele>
        <time>2014-11-22T12:57:14Z</time>
      </trkpt>
      <trkpt lat="46.12767" lon="3.75063">
        <ele>587.54</ele>
        <time>2014-11-22T12:57:29Z</time>
      </trkpt>
      <trkpt lat="46.12779" lon="3.75084">
        <ele>590.05</ele>
        <time>2014-11-22T12:57:45Z</time>
      </trkpt>
      <trkpt lat="46.12793" lon="3.75102">
        <ele>591.54</ele>
        <time>2014-11-22T12:57:58Z</time>
      </trkpt>
      <trkpt lat="46.12807" lon="3.75121">
        <ele>592.55</ele>
        <time>2014-11-22T12:58:09Z</time>
      </trkpt>
      <trkpt lat="46.12822" lon="3.75138">
        <ele>594.52</ele>
        <time>2014-11-22T12:58:19Z</time>
      </trkpt>
      <trkpt lat="46.12833" lon="3.75162">
        <ele>596.52</ele>
        <time>2014-11-22T12:58:29Z</time>
      </trkpt>
      <trkpt lat="46.12848" lon="3.75179">
        <ele>599.02</ele>
        <time>2014-11-22T12:58:39Z</time>
      </trkpt>
      <trkpt lat="46.12863" lon="3.75196">
        <ele>600.49</ele>
        <time>2014-11-22T12:58:46Z</time>
      </trkpt>
      <trkpt lat="46.12878" lon="3.75211">
        <ele>601.54</ele>
        <time>2014-11-22T12:58:53Z</time>
      </trkpt>
      <trkpt lat="46.12894" lon="3.75226">
        <ele>603.3</ele>
        <time>2014-11-22T12:59:00Z</time>
      </trkpt>
      <trkpt lat="46.12909" lon="3.75245">
        <ele>604.3</ele>
        <time>2014-11-22T12:59:07Z</time>
      </trkpt>
      <trkpt lat="46.12924" lon="3.75265">
        <ele>605.3</ele>
        <time>2014-11-22T12:59:13Z</time>
      </trkpt>
      <trkpt lat="46.12938" lon="3.75284">
        <ele>606.05</ele>
        <time>2014-11-22T12:59:19Z</time>
      </trkpt>
      <trkpt lat="46.1295" lon="3.75305">
        <ele>607.3</ele>
        <time>2014-11-22T12:59:25Z</time>
      </trkpt>
      <trkpt lat="46.12961" lon="3.75331">
        <ele>608.49</ele>
        <time>2014-11-22T12:59:31Z</time>
      </trkpt>
      <trkpt lat="46.12967" lon="3.75357">
        <ele>609.49</ele>
        <time>2014-11-22T12:59:36Z</time>
      </trkpt>
      <trkpt lat="46.12972" lon="3.75387">
        <ele>611.02</ele>
        <time>2014-11-22T12:59:42Z</time>
      </trkpt>
      <trkpt lat="46.12978" lon="3.75417">
        <ele>612.98</ele>
        <time>2014-11-22T12:59:48Z</time>
      </trkpt>
      <trkpt lat="46.12985" lon="3.75441">
        <ele>614.29</ele>
        <time>2014-11-22T12:59:53Z</time>
      </trkpt>
      <trkpt lat="46.12993" lon="3.75466">
        <ele>615.48</ele>
        <time>2014-11-22T12:59:58Z</time>
      </trkpt>
      <trkpt lat="46.12995" lon="3.75499">
        <ele>619.77</ele>
        <time>2014-11-22T13:00:03Z</time>
      </trkpt>
      <trkpt lat="46.1299" lon="3.75531">
        <ele>625.44</ele>
        <time>2014-11-22T13:00:07Z</time>
      </trkpt>
      <trkpt lat="46.12979" lon="3.75556">
        <ele>629.55</ele>
        <time>2014-11-22T13:00:11Z</time>
      </trkpt>
      <trkpt lat="46.12968" lon="3.7558">
        <ele>631.99</ele>
        <time>2014-11-22T13:00:16Z</time>
      </trkpt>
      <trkpt lat="46.12951" lon="3.75595">
        <ele>632.54</ele>
        <time>2014-11-22T13:00:21Z</time>
      </trkpt>
      <trkpt lat="46.12937" lon="3.75612">
        <ele>633.3</ele>
        <time>2014-11-22T13:00:24Z</time>
      </trkpt>
      <trkpt lat="46.1293" lon="3.75638">
        <ele>634.4</ele>
        <time>2014-11-22T13:00:27Z</time>
      </trkpt>
      <trkpt lat="46.12923" lon="3.75666">
        <ele>636.73</ele>
        <time>2014-11-22T13:00:31Z</time>
      </trkpt>
      <trkpt lat="46.12908" lon="3.7569">
        <ele>637.53</ele>
        <time>2014-11-22T13:00:36Z</time>
      </trkpt>
      <trkpt lat="46.12893" lon="3.75705">
        <ele>636.57</ele>
        <time>2014-11-22T13:00:42Z</time>
      </trkpt>
      <trkpt lat="46.12875" lon="3.757">
        <ele>636.55</ele>
        <time>2014-11-22T13:00:51Z</time>
      </trkpt>
      <trkpt lat="46.12857" lon="3.75692">
        <ele>636.55</ele>
        <time>2014-11-22T13:00:57Z</time>
      </trkpt>
      <trkpt lat="46.1283" lon="3.75683">
        <ele>635.07</ele>
        <time>2014-11-22T13:01:04Z</time>
      </trkpt>
      <trkpt lat="46.12812" lon="3.75679">
        <ele>633.63</ele>
        <time>2014-11-22T13:01:09Z</time>
      </trkpt>
      <trkpt lat="46.12792" lon="3.7567">
        <ele>632.8</ele>
        <time>2014-11-22T13:01:16Z</time>
      </trkpt>
      <trkpt lat="46.12773" lon="3.75664">
        <ele>633.05</ele>
        <time>2014-11-22T13:01:27Z</time>
      </trkpt>
      <trkpt lat="46.12755" lon="3.75649">
        <ele>635.02</ele>
        <time>2014-11-22T13:01:36Z</time>
      </trkpt>
      <trkpt lat="46.12736" lon="3.75649">
        <ele>637.97</ele>
        <time>2014-11-22T13:01:41Z</time>
      </trkpt>
      <trkpt lat="46.12718" lon="3.75649">
        <ele>640.89</ele>
        <time>2014-11-22T13:01:45Z</time>
      </trkpt>
      <trkpt lat="46.127" lon="3.75647">
        <ele>642.47</ele>
        <time>2014-11-22T13:01:50Z</time>
      </trkpt>
      <trkpt lat="46.12681" lon="3.7564">
        <ele>644.48</ele>
        <time>2014-11-22T13:01:57Z</time>
      </trkpt>
      <trkpt lat="46.1266" lon="3.75629">
        <ele>647.03</ele>
        <time>2014-11-22T13:02:05Z</time>
      </trkpt>
      <trkpt lat="46.12641" lon="3.75621">
        <ele>648.99</ele>
        <time>2014-11-22T13:02:12Z</time>
      </trkpt>
      <trkpt lat="46.12615" lon="3.75608">
        <ele>650.54</ele>
        <time>2014-11-22T13:02:20Z</time>
      </trkpt>
      <trkpt lat="46.12597" lon="3.75602">
        <ele>651.05</ele>
        <time>2014-11-22T13:02:26Z</time>
      </trkpt>
      <trkpt lat="46.12573" lon="3.75593">
        <ele>651.55</ele>
        <time>2014-11-22T13:02:36Z</time>
      </trkpt>
      <trkpt lat="46.12551" lon="3.75587">
        <ele>652.52</ele>
        <time>2014-11-22T13:02:44Z</time>
      </trkpt>
      <trkpt lat="46.12523" lon="3.7558">
        <ele>653.52</ele>
        <time>2014-11-22T13:02:54Z</time>
      </trkpt>
      <trkpt lat="46.12505" lon="3.75576">
        <ele>653.55</ele>
        <time>2014-11-22T13:03:01Z</time>
      </trkpt>
      <trkpt lat="46.12486" lon="3.75574">
        <ele>653.55</ele>
        <time>2014-11-22T13:03:10Z</time>
      </trkpt>
      <trkpt lat="46.12468" lon="3.75567">
        <ele>654.55</ele>
        <time>2014-11-22T13:03:19Z</time>
      </trkpt>
      <trkpt lat="46.12448" lon="3.75567">
        <ele>655.05</ele>
        <time>2014-11-22T13:03:32Z</time>
      </trkpt>
      <trkpt lat="46.12432" lon="3.7558">
        <ele>657.02</ele>
        <time>2014-11-22T13:04:34Z</time>
      </trkpt>
      <trkpt lat="46.12415" lon="3.75589">
        <ele>658.54</ele>
        <time>2014-11-22T13:04:48Z</time>
      </trkpt>
      <trkpt lat="46.12397" lon="3.75602">
        <ele>659.52</ele>
        <time>2014-11-22T13:04:58Z</time>
      </trkpt>
      <trkpt lat="46.12381" lon="3.75617">
        <ele>660.49</ele>
        <time>2014-11-22T13:05:05Z</time>
      </trkpt>
      <trkpt lat="46.12365" lon="3.75632">
        <ele>661.49</ele>
        <time>2014-11-22T13:05:11Z</time>
      </trkpt>
      <trkpt lat="46.12348" lon="3.75647">
        <ele>662.52</ele>
        <time>2014-11-22T13:05:18Z</time>
      </trkpt>
      <trkpt lat="46.12332" lon="3.75662">
        <ele>663.52</ele>
        <time>2014-11-22T13:05:25Z</time>
      </trkpt>
      <trkpt lat="46.12317" lon="3.75677">
        <ele>664.49</ele>
        <time>2014-11-22T13:05:32Z</time>
      </trkpt>
      <trkpt lat="46.12301" lon="3.75692">
        <ele>665.3</ele>
        <time>2014-11-22T13:05:40Z</time>
      </trkpt>
      <trkpt lat="46.12286" lon="3.75707">
        <ele>665.55</ele>
        <time>2014-11-22T13:05:48Z</time>
      </trkpt>
      <trkpt lat="46.1227" lon="3.75722">
        <ele>666.52</ele>
        <time>2014-11-22T13:05:56Z</time>
      </trkpt>
      <trkpt lat="46.12254" lon="3.75739">
        <ele>666.55</ele>
        <time>2014-11-22T13:06:04Z</time>
      </trkpt>
      <trkpt lat="46.12238" lon="3.75752">
        <ele>667.55</ele>
        <time>2014-11-22T13:06:14Z</time>
      </trkpt>
      <trkpt lat="46.12221" lon="3.75765">
        <ele>668.55</ele>
        <time>2014-11-22T13:06:24Z</time>
      </trkpt>
      <trkpt lat="46.12203" lon="3.75771">
        <ele>669.3</ele>
        <time>2014-11-22T13:06:33Z</time>
      </trkpt>
      <trkpt lat="46.12185" lon="3.75773">
        <ele>669.55</ele>
        <time>2014-11-22T13:06:41Z</time>
      </trkpt>
      <trkpt lat="46.12165" lon="3.75775">
        <ele>671.3</ele>
        <time>2014-11-22T13:06:49Z</time>
      </trkpt>
      <trkpt lat="46.12145" lon="3.75777">
        <ele>672.49</ele>
        <time>2014-11-22T13:06:58Z</time>
      </trkpt>
      <trkpt lat="46.12125" lon="3.75773">
        <ele>673.05</ele>
        <time>2014-11-22T13:07:07Z</time>
      </trkpt>
      <trkpt lat="46.12105" lon="3.75773">
        <ele>674.79</ele>
        <time>2014-11-22T13:07:12Z</time>
      </trkpt>
      <trkpt lat="46.12087" lon="3.75784">
        <ele>676.21</ele>
        <time>2014-11-22T13:07:15Z</time>
      </trkpt>
      <trkpt lat="46.1207" lon="3.75799">
        <ele>676.01</ele>
        <time>2014-11-22T13:07:18Z</time>
      </trkpt>
      <trkpt lat="46.12054" lon="3.75814">
        <ele>675.61</ele>
        <time>2014-11-22T13:07:21Z</time>
      </trkpt>
      <trkpt lat="46.12037" lon="3.75829">
        <ele>675.56</ele>
        <time>2014-11-22T13:07:25Z</time>
      </trkpt>
      <trkpt lat="46.1202" lon="3.75842">
        <ele>674.62</ele>
        <time>2014-11-22T13:07:30Z</time>
      </trkpt>
      <trkpt lat="46.12005" lon="3.75857">
        <ele>674.55</ele>
        <time>2014-11-22T13:07:35Z</time>
      </trkpt>
      <trkpt lat="46.1199" lon="3.75876">
        <ele>674.55</ele>
        <time>2014-11-22T13:07:40Z</time>
      </trkpt>
      <trkpt lat="46.11974" lon="3.75898">
        <ele>675.99</ele>
        <time>2014-11-22T13:07:45Z</time>
      </trkpt>
      <trkpt lat="46.11961" lon="3.75919">
        <ele>677.02</ele>
        <time>2014-11-22T13:07:49Z</time>
      </trkpt>
      <trkpt lat="46.11949" lon="3.75943">
        <ele>677.52</ele>
        <time>2014-11-22T13:07:53Z</time>
      </trkpt>
      <trkpt lat="46.11936" lon="3.75964">
        <ele>677.55</ele>
        <time>2014-11-22T13:07:57Z</time>
      </trkpt>
      <trkpt lat="46.11921" lon="3.75988">
        <ele>678.49</ele>
        <time>2014-11-22T13:08:02Z</time>
      </trkpt>
      <trkpt lat="46.11908" lon="3.76014">
        <ele>678.43</ele>
        <time>2014-11-22T13:08:07Z</time>
      </trkpt>
      <trkpt lat="46.11895" lon="3.76037">
        <ele>678.55</ele>
        <time>2014-11-22T13:08:12Z</time>
      </trkpt>
      <trkpt lat="46.11884" lon="3.76059">
        <ele>680.02</ele>
        <time>2014-11-22T13:08:17Z</time>
      </trkpt>
      <trkpt lat="46.11871" lon="3.76078">
        <ele>680.54</ele>
        <time>2014-11-22T13:08:22Z</time>
      </trkpt>
      <trkpt lat="46.11856" lon="3.76095">
        <ele>680.55</ele>
        <time>2014-11-22T13:08:28Z</time>
      </trkpt>
      <trkpt lat="46.11842" lon="3.76117">
        <ele>680.55</ele>
        <time>2014-11-22T13:08:38Z</time>
      </trkpt>
      <trkpt lat="46.11821" lon="3.76136">
        <ele>680.55</ele>
        <time>2014-11-22T13:08:48Z</time>
      </trkpt>
      <trkpt lat="46.11814" lon="3.76177">
        <ele>681.55</ele>
        <time>2014-11-22T13:09:05Z</time>
      </trkpt>
      <trkpt lat="46.11811" lon="3.76217">
        <ele>680.55</ele>
        <time>2014-11-22T13:09:19Z</time>
      </trkpt>
      <trkpt lat="46.11813" lon="3.7626">
        <ele>680.05</ele>
        <time>2014-11-22T13:09:30Z</time>
      </trkpt>
      <trkpt lat="46.11808" lon="3.76286">
        <ele>679.55</ele>
        <time>2014-11-22T13:09:41Z</time>
      </trkpt>
      <trkpt lat="46.11798" lon="3.76312">
        <ele>679.55</ele>
        <time>2014-11-22T13:09:52Z</time>
      </trkpt>
      <trkpt lat="46.11782" lon="3.76327">
        <ele>681.43</ele>
        <time>2014-11-22T13:10:43Z</time>
      </trkpt>
      <trkpt lat="46.11766" lon="3.7634">
        <ele>683.05</ele>
        <time>2014-11-22T13:10:55Z</time>
      </trkpt>
      <trkpt lat="46.11747" lon="3.76346">
        <ele>685.05</ele>
        <time>2014-11-22T13:11:08Z</time>
      </trkpt>
      <trkpt lat="46.11727" lon="3.76359">
        <ele>685.55</ele>
        <time>2014-11-22T13:11:19Z</time>
      </trkpt>
      <trkpt lat="46.11716" lon="3.76383">
        <ele>686.54</ele>
        <time>2014-11-22T13:11:29Z</time>
      </trkpt>
      <trkpt lat="46.11699" lon="3.76393">
        <ele>688.05</ele>
        <time>2014-11-22T13:11:44Z</time>
      </trkpt>
      <trkpt lat="46.11681" lon="3.76395">
        <ele>689.43</ele>
        <time>2014-11-22T13:11:56Z</time>
      </trkpt>
      <trkpt lat="46.11663" lon="3.76395">
        <ele>690.55</ele>
        <time>2014-11-22T13:12:10Z</time>
      </trkpt>
      <trkpt lat="46.11644" lon="3.76395">
        <ele>692.05</ele>
        <time>2014-11-22T13:12:23Z</time>
      </trkpt>
      <trkpt lat="46.11627" lon="3.76387">
        <ele>694.05</ele>
        <time>2014-11-22T13:12:37Z</time>
      </trkpt>
      <trkpt lat="46.11621" lon="3.76361">
        <ele>695.52</ele>
        <time>2014-11-22T13:12:48Z</time>
      </trkpt>
      <trkpt lat="46.11612" lon="3.76335">
        <ele>696.8</ele>
        <time>2014-11-22T13:12:54Z</time>
      </trkpt>
      <trkpt lat="46.11599" lon="3.76312">
        <ele>698.38</ele>
        <time>2014-11-22T13:12:58Z</time>
      </trkpt>
      <trkpt lat="46.11586" lon="3.76288">
        <ele>699.41</ele>
        <time>2014-11-22T13:13:01Z</time>
      </trkpt>
      <trkpt lat="46.11571" lon="3.76262">
        <ele>699.53</ele>
        <time>2014-11-22T13:13:04Z</time>
      </trkpt>
      <trkpt lat="46.11558" lon="3.76243">
        <ele>700.43</ele>
        <time>2014-11-22T13:13:07Z</time>
      </trkpt>
      <trkpt lat="46.11548" lon="3.76222">
        <ele>700.54</ele>
        <time>2014-11-22T13:13:10Z</time>
      </trkpt>
      <trkpt lat="46.11534" lon="3.76198">
        <ele>699.68</ele>
        <time>2014-11-22T13:13:14Z</time>
      </trkpt>
      <trkpt lat="46.11519" lon="3.76174">
        <ele>698.12</ele>
        <time>2014-11-22T13:13:18Z</time>
      </trkpt>
      <trkpt lat="46.11501" lon="3.76151">
        <ele>695.46</ele>
        <time>2014-11-22T13:13:22Z</time>
      </trkpt>
      <trkpt lat="46.11482" lon="3.76132">
        <ele>692.05</ele>
        <time>2014-11-22T13:13:26Z</time>
      </trkpt>
      <trkpt lat="46.11465" lon="3.76119">
        <ele>691.57</ele>
        <time>2014-11-22T13:13:31Z</time>
      </trkpt>
      <trkpt lat="46.1144" lon="3.76099">
        <ele>690.55</ele>
        <time>2014-11-22T13:13:56Z</time>
      </trkpt>
      <trkpt lat="46.11422" lon="3.76095">
        <ele>689.58</ele>
        <time>2014-11-22T13:14:01Z</time>
      </trkpt>
      <trkpt lat="46.11404" lon="3.76091">
        <ele>688.68</ele>
        <time>2014-11-22T13:14:06Z</time>
      </trkpt>
      <trkpt lat="46.11377" lon="3.7608">
        <ele>688.05</ele>
        <time>2014-11-22T13:14:16Z</time>
      </trkpt>
      <trkpt lat="46.11358" lon="3.7608">
        <ele>686.8</ele>
        <time>2014-11-22T13:14:24Z</time>
      </trkpt>
      <trkpt lat="46.1134" lon="3.76078">
        <ele>686.55</ele>
        <time>2014-11-22T13:14:31Z</time>
      </trkpt>
      <trkpt lat="46.11314" lon="3.7608">
        <ele>686.55</ele>
        <time>2014-11-22T13:14:44Z</time>
      </trkpt>
      <trkpt lat="46.11293" lon="3.76078">
        <ele>686.55</ele>
        <time>2014-11-22T13:14:54Z</time>
      </trkpt>
      <trkpt lat="46.11272" lon="3.76082">
        <ele>686.55</ele>
        <time>2014-11-22T13:15:06Z</time>
      </trkpt>
      <trkpt lat="46.11247" lon="3.76089">
        <ele>687.05</ele>
        <time>2014-11-22T13:15:25Z</time>
      </trkpt>
      <trkpt lat="46.11227" lon="3.76099">
        <ele>688.52</ele>
        <time>2014-11-22T13:15:43Z</time>
      </trkpt>
      <trkpt lat="46.11203" lon="3.76108">
        <ele>689.55</ele>
        <time>2014-11-22T13:15:57Z</time>
      </trkpt>
      <trkpt lat="46.11178" lon="3.76114">
        <ele>691.05</ele>
        <time>2014-11-22T13:16:11Z</time>
      </trkpt>
      <trkpt lat="46.11159" lon="3.76121">
        <ele>691.55</ele>
        <time>2014-11-22T13:16:18Z</time>
      </trkpt>
      <trkpt lat="46.11139" lon="3.76127">
        <ele>692.55</ele>
        <time>2014-11-22T13:16:25Z</time>
      </trkpt>
      <trkpt lat="46.11121" lon="3.76138">
        <ele>693.49</ele>
        <time>2014-11-22T13:16:32Z</time>
      </trkpt>
      <trkpt lat="46.11106" lon="3.76153">
        <ele>694.43</ele>
        <time>2014-11-22T13:16:40Z</time>
      </trkpt>
      <trkpt lat="46.11089" lon="3.76166">
        <ele>695.05</ele>
        <time>2014-11-22T13:16:49Z</time>
      </trkpt>
      <trkpt lat="46.11071" lon="3.76181">
        <ele>695.55</ele>
        <time>2014-11-22T13:16:58Z</time>
      </trkpt>
      <trkpt lat="46.11054" lon="3.76192">
        <ele>696.55</ele>
        <time>2014-11-22T13:17:08Z</time>
      </trkpt>
      <trkpt lat="46.11038" lon="3.76204">
        <ele>697.49</ele>
        <time>2014-11-22T13:17:18Z</time>
      </trkpt>
      <trkpt lat="46.11024" lon="3.76224">
        <ele>697.55</ele>
        <time>2014-11-22T13:17:29Z</time>
      </trkpt>
      <trkpt lat="46.11012" lon="3.76245">
        <ele>698.55</ele>
        <time>2014-11-22T13:17:39Z</time>
      </trkpt>
      <trkpt lat="46.11001" lon="3.76267">
        <ele>699.55</ele>
        <time>2014-11-22T13:17:48Z</time>
      </trkpt>
      <trkpt lat="46.10987" lon="3.76286">
        <ele>700.55</ele>
        <time>2014-11-22T13:17:58Z</time>
      </trkpt>
      <trkpt lat="46.10973" lon="3.76305">
        <ele>701.54</ele>
        <time>2014-11-22T13:18:09Z</time>
      </trkpt>
      <trkpt lat="46.10957" lon="3.7632">
        <ele>702.43</ele>
        <time>2014-11-22T13:18:19Z</time>
      </trkpt>
      <trkpt lat="46.1094" lon="3.76335">
        <ele>703.52</ele>
        <time>2014-11-22T13:18:29Z</time>
      </trkpt>
      <trkpt lat="46.10923" lon="3.76346">
        <ele>704.52</ele>
        <time>2014-11-22T13:18:37Z</time>
      </trkpt>
      <trkpt lat="46.10906" lon="3.76357">
        <ele>705.52</ele>
        <time>2014-11-22T13:18:44Z</time>
      </trkpt>
      <trkpt lat="46.10889" lon="3.7637">
        <ele>707.49</ele>
        <time>2014-11-22T13:18:53Z</time>
      </trkpt>
      <trkpt lat="46.10893" lon="3.76395">
        <ele>713.42</ele>
        <time>2014-11-22T13:19:12Z</time>
      </trkpt>
      <trkpt lat="46.10875" lon="3.76402">
        <ele>724.54</ele>
        <time>2014-11-22T13:25:54Z</time>
      </trkpt>
      <trkpt lat="46.10858" lon="3.76415">
        <ele>725.05</ele>
        <time>2014-11-22T13:26:02Z</time>
      </trkpt>
      <trkpt lat="46.10841" lon="3.76423">
        <ele>725.55</ele>
        <time>2014-11-22T13:26:09Z</time>
      </trkpt>
      <trkpt lat="46.10822" lon="3.76436">
        <ele>726.54</ele>
        <time>2014-11-22T13:26:16Z</time>
      </trkpt>
      <trkpt lat="46.10803" lon="3.76443">
        <ele>727.43</ele>
        <time>2014-11-22T13:26:23Z</time>
      </trkpt>
      <trkpt lat="46.10784" lon="3.76449">
        <ele>727.55</ele>
        <time>2014-11-22T13:26:31Z</time>
      </trkpt>
      <trkpt lat="46.10763" lon="3.76451">
        <ele>728.55</ele>
        <time>2014-11-22T13:26:39Z</time>
      </trkpt>
      <trkpt lat="46.10746" lon="3.76466">
        <ele>730.68</ele>
        <time>2014-11-22T13:26:44Z</time>
      </trkpt>
      <trkpt lat="46.10731" lon="3.76483">
        <ele>734.07</ele>
        <time>2014-11-22T13:26:47Z</time>
      </trkpt>
      <trkpt lat="46.10718" lon="3.76511">
        <ele>737.49</ele>
        <time>2014-11-22T13:26:50Z</time>
      </trkpt>
      <trkpt lat="46.10707" lon="3.76537">
        <ele>738.42</ele>
        <time>2014-11-22T13:26:53Z</time>
      </trkpt>
      <trkpt lat="46.10701" lon="3.76567">
        <ele>738.66</ele>
        <time>2014-11-22T13:26:56Z</time>
      </trkpt>
      <trkpt lat="46.10702" lon="3.76599">
        <ele>739.07</ele>
        <time>2014-11-22T13:26:59Z</time>
      </trkpt>
      <trkpt lat="46.10703" lon="3.76627">
        <ele>740.68</ele>
        <time>2014-11-22T13:27:01Z</time>
      </trkpt>
      <trkpt lat="46.10707" lon="3.76668">
        <ele>742.57</ele>
        <time>2014-11-22T13:27:04Z</time>
      </trkpt>
      <trkpt lat="46.10709" lon="3.76696">
        <ele>742.06</ele>
        <time>2014-11-22T13:27:06Z</time>
      </trkpt>
      <trkpt lat="46.1071" lon="3.76732">
        <ele>740.24</ele>
        <time>2014-11-22T13:27:09Z</time>
      </trkpt>
      <trkpt lat="46.10714" lon="3.76765">
        <ele>739.14</ele>
        <time>2014-11-22T13:27:12Z</time>
      </trkpt>
      <trkpt lat="46.10722" lon="3.76788">
        <ele>738.63</ele>
        <time>2014-11-22T13:27:15Z</time>
      </trkpt>
      <trkpt lat="46.1073" lon="3.76816">
        <ele>737.68</ele>
        <time>2014-11-22T13:27:19Z</time>
      </trkpt>
      <trkpt lat="46.10736" lon="3.76844">
        <ele>736.57</ele>
        <time>2014-11-22T13:27:25Z</time>
      </trkpt>
      <trkpt lat="46.1074" lon="3.76872">
        <ele>735.3</ele>
        <time>2014-11-22T13:27:30Z</time>
      </trkpt>
      <trkpt lat="46.10743" lon="3.76904">
        <ele>733.72</ele>
        <time>2014-11-22T13:27:34Z</time>
      </trkpt>
      <trkpt lat="46.1074" lon="3.76938">
        <ele>732.63</ele>
        <time>2014-11-22T13:27:38Z</time>
      </trkpt>
      <trkpt lat="46.10738" lon="3.76968">
        <ele>732.56</ele>
        <time>2014-11-22T13:27:41Z</time>
      </trkpt>
      <trkpt lat="46.10738" lon="3.77001">
        <ele>733.43</ele>
        <time>2014-11-22T13:27:44Z</time>
      </trkpt>
      <trkpt lat="46.10739" lon="3.77037">
        <ele>734.04</ele>
        <time>2014-11-22T13:27:47Z</time>
      </trkpt>
      <trkpt lat="46.1074" lon="3.77074">
        <ele>733.99</ele>
        <time>2014-11-22T13:27:50Z</time>
      </trkpt>
      <trkpt lat="46.10746" lon="3.77108">
        <ele>731.48</ele>
        <time>2014-11-22T13:27:53Z</time>
      </trkpt>
      <trkpt lat="46.10759" lon="3.7714">
        <ele>728.54</ele>
        <time>2014-11-22T13:27:56Z</time>
      </trkpt>
      <trkpt lat="46.10771" lon="3.77162">
        <ele>725.8</ele>
        <time>2014-11-22T13:27:58Z</time>
      </trkpt>
      <trkpt lat="46.10788" lon="3.77177">
        <ele>721.61</ele>
        <time>2014-11-22T13:28:00Z</time>
      </trkpt>
      <trkpt lat="46.10805" lon="3.77192">
        <ele>716.32</ele>
        <time>2014-11-22T13:28:02Z</time>
      </trkpt>
      <trkpt lat="46.10822" lon="3.77202">
        <ele>711.74</ele>
        <time>2014-11-22T13:28:04Z</time>
      </trkpt>
      <trkpt lat="46.10847" lon="3.77213">
        <ele>705.58</ele>
        <time>2014-11-22T13:28:07Z</time>
      </trkpt>
      <trkpt lat="46.10858" lon="3.77234">
        <ele>701.68</ele>
        <time>2014-11-22T13:28:10Z</time>
      </trkpt>
      <trkpt lat="46.10859" lon="3.77264">
        <ele>699.94</ele>
        <time>2014-11-22T13:28:13Z</time>
      </trkpt>
      <trkpt lat="46.10857" lon="3.77299">
        <ele>700.1</ele>
        <time>2014-11-22T13:28:16Z</time>
      </trkpt>
      <trkpt lat="46.10866" lon="3.77327">
        <ele>700.5</ele>
        <time>2014-11-22T13:28:19Z</time>
      </trkpt>
      <trkpt lat="46.10877" lon="3.77348">
        <ele>700.05</ele>
        <time>2014-11-22T13:28:22Z</time>
      </trkpt>
      <trkpt lat="46.10889" lon="3.7737">
        <ele>699.57</ele>
        <time>2014-11-22T13:28:27Z</time>
      </trkpt>
      <trkpt lat="46.10903" lon="3.77389">
        <ele>698.68</ele>
        <time>2014-11-22T13:28:33Z</time>
      </trkpt>
      <trkpt lat="46.10922" lon="3.77391">
        <ele>698.55</ele>
        <time>2014-11-22T13:28:41Z</time>
      </trkpt>
      <trkpt lat="46.10942" lon="3.77378">
        <ele>698.55</ele>
        <time>2014-11-22T13:28:51Z</time>
      </trkpt>
      <trkpt lat="46.10964" lon="3.77374">
        <ele>696.07</ele>
        <time>2014-11-22T13:29:11Z</time>
      </trkpt>
      <trkpt lat="46.10983" lon="3.77374">
        <ele>695.06</ele>
        <time>2014-11-22T13:29:17Z</time>
      </trkpt>
      <trkpt lat="46.11004" lon="3.77376">
        <ele>694.56</ele>
        <time>2014-11-22T13:29:23Z</time>
      </trkpt>
      <trkpt lat="46.11022" lon="3.77376">
        <ele>693.58</ele>
        <time>2014-11-22T13:29:28Z</time>
      </trkpt>
      <trkpt lat="46.11041" lon="3.7738">
        <ele>693.55</ele>
        <time>2014-11-22T13:29:34Z</time>
      </trkpt>
      <trkpt lat="46.11061" lon="3.77385">
        <ele>693.18</ele>
        <time>2014-11-22T13:29:39Z</time>
      </trkpt>
      <trkpt lat="46.1108" lon="3.77389">
        <ele>694.03</ele>
        <time>2014-11-22T13:29:43Z</time>
      </trkpt>
      <trkpt lat="46.11101" lon="3.77391">
        <ele>695.91</ele>
        <time>2014-11-22T13:29:48Z</time>
      </trkpt>
      <trkpt lat="46.11122" lon="3.77395">
        <ele>696.51</ele>
        <time>2014-11-22T13:29:52Z</time>
      </trkpt>
      <trkpt lat="46.11141" lon="3.774">
        <ele>696.55</ele>
        <time>2014-11-22T13:29:56Z</time>
      </trkpt>
      <trkpt lat="46.11159" lon="3.77406">
        <ele>696.55</ele>
        <time>2014-11-22T13:30:01Z</time>
      </trkpt>
      <trkpt lat="46.11176" lon="3.77415">
        <ele>695.68</ele>
        <time>2014-11-22T13:30:06Z</time>
      </trkpt>
      <trkpt lat="46.11197" lon="3.77423">
        <ele>696.31</ele>
        <time>2014-11-22T13:30:11Z</time>
      </trkpt>
      <trkpt lat="46.11216" lon="3.7743">
        <ele>695.16</ele>
        <time>2014-11-22T13:30:15Z</time>
      </trkpt>
      <trkpt lat="46.1124" lon="3.77438">
        <ele>693.22</ele>
        <time>2014-11-22T13:30:19Z</time>
      </trkpt>
      <trkpt lat="46.11258" lon="3.77445">
        <ele>691.89</ele>
        <time>2014-11-22T13:30:22Z</time>
      </trkpt>
      <trkpt lat="46.11275" lon="3.77453">
        <ele>690.84</ele>
        <time>2014-11-22T13:30:25Z</time>
      </trkpt>
      <trkpt lat="46.11293" lon="3.77455">
        <ele>690.59</ele>
        <time>2014-11-22T13:30:28Z</time>
      </trkpt>
      <trkpt lat="46.11314" lon="3.77455">
        <ele>689.81</ele>
        <time>2014-11-22T13:30:32Z</time>
      </trkpt>
      <trkpt lat="46.1133" lon="3.77475">
        <ele>688.81</ele>
        <time>2014-11-22T13:30:37Z</time>
      </trkpt>
      <trkpt lat="46.11341" lon="3.77496">
        <ele>688.57</ele>
        <time>2014-11-22T13:30:41Z</time>
      </trkpt>
      <trkpt lat="46.1136" lon="3.77509">
        <ele>688.62</ele>
        <time>2014-11-22T13:30:46Z</time>
      </trkpt>
      <trkpt lat="46.11378" lon="3.77511">
        <ele>688.55</ele>
        <time>2014-11-22T13:30:52Z</time>
      </trkpt>
      <trkpt lat="46.11396" lon="3.77509">
        <ele>688.55</ele>
        <time>2014-11-22T13:30:57Z</time>
      </trkpt>
      <trkpt lat="46.11416" lon="3.77509">
        <ele>688.55</ele>
        <time>2014-11-22T13:31:03Z</time>
      </trkpt>
      <trkpt lat="46.11434" lon="3.77509">
        <ele>688.55</ele>
        <time>2014-11-22T13:31:12Z</time>
      </trkpt>
      <trkpt lat="46.11451" lon="3.77518">
        <ele>688.55</ele>
        <time>2014-11-22T13:31:18Z</time>
      </trkpt>
      <trkpt lat="46.11467" lon="3.77533">
        <ele>688.55</ele>
        <time>2014-11-22T13:31:26Z</time>
      </trkpt>
      <trkpt lat="46.1148" lon="3.77552">
        <ele>689.52</ele>
        <time>2014-11-22T13:31:35Z</time>
      </trkpt>
      <trkpt lat="46.11497" lon="3.77537">
        <ele>693.22</ele>
        <time>2014-11-22T13:32:34Z</time>
      </trkpt>
      <trkpt lat="46.1151" lon="3.77518">
        <ele>696.45</ele>
        <time>2014-11-22T13:32:39Z</time>
      </trkpt>
      <trkpt lat="46.11521" lon="3.7749">
        <ele>697.54</ele>
        <time>2014-11-22T13:32:45Z</time>
      </trkpt>
      <trkpt lat="46.11522" lon="3.7746">
        <ele>700.33</ele>
        <time>2014-11-22T13:32:50Z</time>
      </trkpt>
      <trkpt lat="46.11522" lon="3.7743">
        <ele>699.29</ele>
        <time>2014-11-22T13:32:54Z</time>
      </trkpt>
      <trkpt lat="46.11514" lon="3.77406">
        <ele>697.9</ele>
        <time>2014-11-22T13:32:57Z</time>
      </trkpt>
      <trkpt lat="46.11514" lon="3.77374">
        <ele>697.57</ele>
        <time>2014-11-22T13:33:01Z</time>
      </trkpt>
      <trkpt lat="46.11517" lon="3.77346">
        <ele>698.31</ele>
        <time>2014-11-22T13:33:04Z</time>
      </trkpt>
      <trkpt lat="46.11514" lon="3.77318">
        <ele>699.27</ele>
        <time>2014-11-22T13:33:07Z</time>
      </trkpt>
      <trkpt lat="46.11511" lon="3.77288">
        <ele>700.77</ele>
        <time>2014-11-22T13:33:10Z</time>
      </trkpt>
      <trkpt lat="46.1151" lon="3.77254">
        <ele>702</ele>
        <time>2014-11-22T13:33:14Z</time>
      </trkpt>
      <trkpt lat="46.11516" lon="3.77224">
        <ele>702.02</ele>
        <time>2014-11-22T13:33:18Z</time>
      </trkpt>
      <trkpt lat="46.11533" lon="3.77209">
        <ele>700.71</ele>
        <time>2014-11-22T13:33:22Z</time>
      </trkpt>
      <trkpt lat="46.11553" lon="3.77194">
        <ele>698.84</ele>
        <time>2014-11-22T13:33:27Z</time>
      </trkpt>
      <trkpt lat="46.1157" lon="3.77179">
        <ele>694.53</ele>
        <time>2014-11-22T13:33:32Z</time>
      </trkpt>
      <trkpt lat="46.11582" lon="3.77155">
        <ele>693.57</ele>
        <time>2014-11-22T13:33:38Z</time>
      </trkpt>
      <trkpt lat="46.1159" lon="3.77129">
        <ele>692.68</ele>
        <time>2014-11-22T13:33:44Z</time>
      </trkpt>
      <trkpt lat="46.11606" lon="3.77108">
        <ele>692.55</ele>
        <time>2014-11-22T13:33:54Z</time>
      </trkpt>
      <trkpt lat="46.11623" lon="3.77095">
        <ele>691.56</ele>
        <time>2014-11-22T13:34:02Z</time>
      </trkpt>
      <trkpt lat="46.11639" lon="3.77082">
        <ele>691.55</ele>
        <time>2014-11-22T13:34:10Z</time>
      </trkpt>
      <trkpt lat="46.11655" lon="3.77067">
        <ele>690.8</ele>
        <time>2014-11-22T13:34:20Z</time>
      </trkpt>
      <trkpt lat="46.11668" lon="3.77043">
        <ele>690.55</ele>
        <time>2014-11-22T13:34:33Z</time>
      </trkpt>
      <trkpt lat="46.11675" lon="3.7702">
        <ele>690.55</ele>
        <time>2014-11-22T13:36:23Z</time>
      </trkpt>
      <trkpt lat="46.1168" lon="3.76994">
        <ele>689.8</ele>
        <time>2014-11-22T13:36:34Z</time>
      </trkpt>
      <trkpt lat="46.11687" lon="3.76968">
        <ele>689.55</ele>
        <time>2014-11-22T13:36:47Z</time>
      </trkpt>
      <trkpt lat="46.11697" lon="3.76945">
        <ele>691.43</ele>
        <time>2014-11-22T13:37:03Z</time>
      </trkpt>
      <trkpt lat="46.11699" lon="3.76917">
        <ele>695.27</ele>
        <time>2014-11-22T13:37:19Z</time>
      </trkpt>
      <trkpt lat="46.11697" lon="3.76889">
        <ele>701.41</ele>
        <time>2014-11-22T13:37:38Z</time>
      </trkpt>
      <trkpt lat="46.11695" lon="3.76859">
        <ele>705.79</ele>
        <time>2014-11-22T13:37:45Z</time>
      </trkpt>
      <trkpt lat="46.11698" lon="3.76831">
        <ele>710.21</ele>
        <time>2014-11-22T13:37:48Z</time>
      </trkpt>
      <trkpt lat="46.117" lon="3.76792">
        <ele>713.16</ele>
        <time>2014-11-22T13:37:52Z</time>
      </trkpt>
      <trkpt lat="46.117" lon="3.76754">
        <ele>713</ele>
        <time>2014-11-22T13:37:55Z</time>
      </trkpt>
      <trkpt lat="46.11703" lon="3.76715">
        <ele>711.86</ele>
        <time>2014-11-22T13:37:58Z</time>
      </trkpt>
      <trkpt lat="46.11708" lon="3.76689">
        <ele>711.13</ele>
        <time>2014-11-22T13:38:00Z</time>
      </trkpt>
      <trkpt lat="46.11711" lon="3.76651">
        <ele>709.38</ele>
        <time>2014-11-22T13:38:03Z</time>
      </trkpt>
      <trkpt lat="46.11713" lon="3.76623">
        <ele>706.76</ele>
        <time>2014-11-22T13:38:05Z</time>
      </trkpt>
      <trkpt lat="46.11715" lon="3.76589">
        <ele>702.83</ele>
        <time>2014-11-22T13:38:08Z</time>
      </trkpt>
      <trkpt lat="46.11718" lon="3.76554">
        <ele>699.95</ele>
        <time>2014-11-22T13:38:12Z</time>
      </trkpt>
      <trkpt lat="46.11722" lon="3.76524">
        <ele>697.89</ele>
        <time>2014-11-22T13:38:16Z</time>
      </trkpt>
      <trkpt lat="46.11727" lon="3.76496">
        <ele>696.69</ele>
        <time>2014-11-22T13:38:21Z</time>
      </trkpt>
      <trkpt lat="46.11735" lon="3.76471">
        <ele>696.56</ele>
        <time>2014-11-22T13:38:25Z</time>
      </trkpt>
      <trkpt lat="46.11746" lon="3.76449">
        <ele>695.68</ele>
        <time>2014-11-22T13:38:30Z</time>
      </trkpt>
      <trkpt lat="46.11762" lon="3.7643">
        <ele>695.55</ele>
        <time>2014-11-22T13:38:39Z</time>
      </trkpt>
      <trkpt lat="46.11778" lon="3.76413">
        <ele>694.58</ele>
        <time>2014-11-22T13:39:06Z</time>
      </trkpt>
      <trkpt lat="46.11793" lon="3.76395">
        <ele>693.8</ele>
        <time>2014-11-22T13:39:15Z</time>
      </trkpt>
      <trkpt lat="46.11808" lon="3.76376">
        <ele>693.55</ele>
        <time>2014-11-22T13:39:25Z</time>
      </trkpt>
      <trkpt lat="46.11827" lon="3.76389">
        <ele>692.05</ele>
        <time>2014-11-22T13:39:45Z</time>
      </trkpt>
      <trkpt lat="46.11845" lon="3.76395">
        <ele>690.24</ele>
        <time>2014-11-22T13:39:48Z</time>
      </trkpt>
      <trkpt lat="46.11862" lon="3.76406">
        <ele>689.14</ele>
        <time>2014-11-22T13:39:51Z</time>
      </trkpt>
      <trkpt lat="46.1188" lon="3.76417">
        <ele>687.88</ele>
        <time>2014-11-22T13:39:54Z</time>
      </trkpt>
      <trkpt lat="46.11901" lon="3.76434">
        <ele>686.82</ele>
        <time>2014-11-22T13:39:58Z</time>
      </trkpt>
      <trkpt lat="46.11916" lon="3.76462">
        <ele>687.44</ele>
        <time>2014-11-22T13:40:02Z</time>
      </trkpt>
      <trkpt lat="46.11924" lon="3.76492">
        <ele>689.36</ele>
        <time>2014-11-22T13:40:06Z</time>
      </trkpt>
      <trkpt lat="46.11935" lon="3.76516">
        <ele>688.61</ele>
        <time>2014-11-22T13:40:11Z</time>
      </trkpt>
      <trkpt lat="46.11949" lon="3.76533">
        <ele>688.55</ele>
        <time>2014-11-22T13:40:18Z</time>
      </trkpt>
      <trkpt lat="46.11961" lon="3.76556">
        <ele>689.05</ele>
        <time>2014-11-22T13:40:31Z</time>
      </trkpt>
      <trkpt lat="46.11978" lon="3.76569">
        <ele>688.3</ele>
        <time>2014-11-22T13:40:51Z</time>
      </trkpt>
      <trkpt lat="46.11994" lon="3.76589">
        <ele>686.27</ele>
        <time>2014-11-22T13:40:54Z</time>
      </trkpt>
      <trkpt lat="46.12014" lon="3.76601">
        <ele>684.27</ele>
        <time>2014-11-22T13:40:57Z</time>
      </trkpt>
      <trkpt lat="46.12032" lon="3.76623">
        <ele>681.91</ele>
        <time>2014-11-22T13:41:01Z</time>
      </trkpt>
      <trkpt lat="46.12042" lon="3.76651">
        <ele>681.08</ele>
        <time>2014-11-22T13:41:05Z</time>
      </trkpt>
      <trkpt lat="46.12049" lon="3.76677">
        <ele>679.87</ele>
        <time>2014-11-22T13:41:08Z</time>
      </trkpt>
      <trkpt lat="46.12055" lon="3.76707">
        <ele>678.72</ele>
        <time>2014-11-22T13:41:11Z</time>
      </trkpt>
      <trkpt lat="46.12069" lon="3.7673">
        <ele>677.19</ele>
        <time>2014-11-22T13:41:15Z</time>
      </trkpt>
      <trkpt lat="46.12087" lon="3.76745">
        <ele>675.64</ele>
        <time>2014-11-22T13:41:20Z</time>
      </trkpt>
      <trkpt lat="46.1211" lon="3.7675">
        <ele>674.55</ele>
        <time>2014-11-22T13:41:27Z</time>
      </trkpt>
      <trkpt lat="46.12117" lon="3.76724">
        <ele>671.22</ele>
        <time>2014-11-22T13:41:33Z</time>
      </trkpt>
      <trkpt lat="46.12135" lon="3.76732">
        <ele>658.66</ele>
        <time>2014-11-22T13:41:37Z</time>
      </trkpt>
      <trkpt lat="46.12143" lon="3.76756">
        <ele>650.73</ele>
        <time>2014-11-22T13:41:43Z</time>
      </trkpt>
      <trkpt lat="46.12162" lon="3.76737">
        <ele>647.05</ele>
        <time>2014-11-22T13:43:01Z</time>
      </trkpt>
      <trkpt lat="46.12172" lon="3.76713">
        <ele>643.8</ele>
        <time>2014-11-22T13:44:50Z</time>
      </trkpt>
      <trkpt lat="46.12187" lon="3.76698">
        <ele>637.55</ele>
        <time>2014-11-22T13:47:44Z</time>
      </trkpt>
      <trkpt lat="46.12196" lon="3.76674">
        <ele>638.55</ele>
        <time>2014-11-22T13:47:51Z</time>
      </trkpt>
      <trkpt lat="46.12205" lon="3.76649">
        <ele>639.05</ele>
        <time>2014-11-22T13:47:58Z</time>
      </trkpt>
      <trkpt lat="46.12216" lon="3.76625">
        <ele>639.55</ele>
        <time>2014-11-22T13:48:04Z</time>
      </trkpt>
      <trkpt lat="46.12229" lon="3.76604">
        <ele>640.49</ele>
        <time>2014-11-22T13:48:08Z</time>
      </trkpt>
      <trkpt lat="46.1224" lon="3.76582">
        <ele>640.55</ele>
        <time>2014-11-22T13:48:13Z</time>
      </trkpt>
      <trkpt lat="46.12252" lon="3.76561">
        <ele>640.55</ele>
        <time>2014-11-22T13:48:18Z</time>
      </trkpt>
      <trkpt lat="46.12265" lon="3.76541">
        <ele>640.55</ele>
        <time>2014-11-22T13:48:23Z</time>
      </trkpt>
      <trkpt lat="46.12276" lon="3.76516">
        <ele>640.55</ele>
        <time>2014-11-22T13:48:29Z</time>
      </trkpt>
      <trkpt lat="46.12287" lon="3.76488">
        <ele>640.55</ele>
        <time>2014-11-22T13:48:34Z</time>
      </trkpt>
      <trkpt lat="46.12298" lon="3.76464">
        <ele>639.68</ele>
        <time>2014-11-22T13:48:39Z</time>
      </trkpt>
      <trkpt lat="46.12312" lon="3.76441">
        <ele>639.06</ele>
        <time>2014-11-22T13:48:44Z</time>
      </trkpt>
      <trkpt lat="46.12324" lon="3.76421">
        <ele>637.21</ele>
        <time>2014-11-22T13:48:48Z</time>
      </trkpt>
      <trkpt lat="46.12338" lon="3.76404">
        <ele>635.84</ele>
        <time>2014-11-22T13:48:52Z</time>
      </trkpt>
      <trkpt lat="46.12356" lon="3.76387">
        <ele>633.22</ele>
        <time>2014-11-22T13:48:57Z</time>
      </trkpt>
      <trkpt lat="46.12372" lon="3.76372">
        <ele>630.84</ele>
        <time>2014-11-22T13:49:03Z</time>
      </trkpt>
      <trkpt lat="46.12389" lon="3.76357">
        <ele>629.62</ele>
        <time>2014-11-22T13:49:09Z</time>
      </trkpt>
      <trkpt lat="46.12407" lon="3.7635">
        <ele>627.69</ele>
        <time>2014-11-22T13:49:16Z</time>
      </trkpt>
      <trkpt lat="46.12425" lon="3.76348">
        <ele>626.58</ele>
        <time>2014-11-22T13:49:25Z</time>
      </trkpt>
      <trkpt lat="46.12444" lon="3.76338">
        <ele>626.55</ele>
        <time>2014-11-22T13:49:34Z</time>
      </trkpt>
      <trkpt lat="46.12462" lon="3.76331">
        <ele>626.55</ele>
        <time>2014-11-22T13:49:44Z</time>
      </trkpt>
      <trkpt lat="46.12481" lon="3.76325">
        <ele>627.55</ele>
        <time>2014-11-22T13:49:53Z</time>
      </trkpt>
      <trkpt lat="46.12499" lon="3.7632">
        <ele>629.42</ele>
        <time>2014-11-22T13:50:00Z</time>
      </trkpt>
      <trkpt lat="46.12518" lon="3.7632">
        <ele>631.42</ele>
        <time>2014-11-22T13:50:07Z</time>
      </trkpt>
      <trkpt lat="46.12538" lon="3.7632">
        <ele>633.42</ele>
        <time>2014-11-22T13:50:16Z</time>
      </trkpt>
      <trkpt lat="46.12556" lon="3.7632">
        <ele>634.49</ele>
        <time>2014-11-22T13:50:23Z</time>
      </trkpt>
      <trkpt lat="46.12576" lon="3.7632">
        <ele>636.04</ele>
        <time>2014-11-22T13:50:30Z</time>
      </trkpt>
      <trkpt lat="46.12595" lon="3.76314">
        <ele>638.02</ele>
        <time>2014-11-22T13:50:38Z</time>
      </trkpt>
      <trkpt lat="46.12614" lon="3.76314">
        <ele>639.54</ele>
        <time>2014-11-22T13:50:46Z</time>
      </trkpt>
      <trkpt lat="46.12635" lon="3.7631">
        <ele>639.55</ele>
        <time>2014-11-22T13:50:52Z</time>
      </trkpt>
      <trkpt lat="46.12654" lon="3.76301">
        <ele>639.55</ele>
        <time>2014-11-22T13:50:59Z</time>
      </trkpt>
      <trkpt lat="46.12672" lon="3.76292">
        <ele>639.55</ele>
        <time>2014-11-22T13:51:07Z</time>
      </trkpt>
      <trkpt lat="46.12692" lon="3.7629">
        <ele>638.68</ele>
        <time>2014-11-22T13:51:14Z</time>
      </trkpt>
      <trkpt lat="46.12711" lon="3.76292">
        <ele>638.56</ele>
        <time>2014-11-22T13:51:19Z</time>
      </trkpt>
      <trkpt lat="46.12729" lon="3.7629">
        <ele>638.55</ele>
        <time>2014-11-22T13:51:24Z</time>
      </trkpt>
      <trkpt lat="46.12749" lon="3.7629">
        <ele>639.05</ele>
        <time>2014-11-22T13:51:29Z</time>
      </trkpt>
      <trkpt lat="46.12768" lon="3.76288">
        <ele>640.29</ele>
        <time>2014-11-22T13:51:34Z</time>
      </trkpt>
      <trkpt lat="46.12786" lon="3.76288">
        <ele>641.42</ele>
        <time>2014-11-22T13:51:39Z</time>
      </trkpt>
      <trkpt lat="46.12804" lon="3.76288">
        <ele>644.92</ele>
        <time>2014-11-22T13:51:43Z</time>
      </trkpt>
      <trkpt lat="46.12827" lon="3.76282">
        <ele>649.51</ele>
        <time>2014-11-22T13:51:47Z</time>
      </trkpt>
      <trkpt lat="46.12845" lon="3.76284">
        <ele>652.05</ele>
        <time>2014-11-22T13:51:50Z</time>
      </trkpt>
      <trkpt lat="46.12864" lon="3.76292">
        <ele>653.86</ele>
        <time>2014-11-22T13:51:53Z</time>
      </trkpt>
      <trkpt lat="46.12882" lon="3.76301">
        <ele>655.22</ele>
        <time>2014-11-22T13:51:56Z</time>
      </trkpt>
      <trkpt lat="46.129" lon="3.76312">
        <ele>655.54</ele>
        <time>2014-11-22T13:52:01Z</time>
      </trkpt>
      <trkpt lat="46.12917" lon="3.76327">
        <ele>656.05</ele>
        <time>2014-11-22T13:52:06Z</time>
      </trkpt>
      <trkpt lat="46.12935" lon="3.76344">
        <ele>656.52</ele>
        <time>2014-11-22T13:52:10Z</time>
      </trkpt>
      <trkpt lat="46.12954" lon="3.76363">
        <ele>657.05</ele>
        <time>2014-11-22T13:52:14Z</time>
      </trkpt>
      <trkpt lat="46.12969" lon="3.76378">
        <ele>657.49</ele>
        <time>2014-11-22T13:52:17Z</time>
      </trkpt>
      <trkpt lat="46.12985" lon="3.764">
        <ele>658.3</ele>
        <time>2014-11-22T13:52:21Z</time>
      </trkpt>
      <trkpt lat="46.12999" lon="3.76419">
        <ele>659.04</ele>
        <time>2014-11-22T13:52:25Z</time>
      </trkpt>
      <trkpt lat="46.13014" lon="3.76441">
        <ele>660.02</ele>
        <time>2014-11-22T13:52:29Z</time>
      </trkpt>
      <trkpt lat="46.13032" lon="3.76464">
        <ele>660.49</ele>
        <time>2014-11-22T13:52:32Z</time>
      </trkpt>
      <trkpt lat="46.13052" lon="3.76488">
        <ele>661.04</ele>
        <time>2014-11-22T13:52:35Z</time>
      </trkpt>
      <trkpt lat="46.13069" lon="3.76511">
        <ele>662.24</ele>
        <time>2014-11-22T13:52:38Z</time>
      </trkpt>
      <trkpt lat="46.13083" lon="3.76537">
        <ele>664.14</ele>
        <time>2014-11-22T13:52:41Z</time>
      </trkpt>
      <trkpt lat="46.13095" lon="3.76559">
        <ele>664</ele>
        <time>2014-11-22T13:52:44Z</time>
      </trkpt>
      <trkpt lat="46.13117" lon="3.76563">
        <ele>662.58</ele>
        <time>2014-11-22T13:52:48Z</time>
      </trkpt>
      <trkpt lat="46.13139" lon="3.76569">
        <ele>657.56</ele>
        <time>2014-11-22T13:52:50Z</time>
      </trkpt>
      <trkpt lat="46.13158" lon="3.76556">
        <ele>654.15</ele>
        <time>2014-11-22T13:52:55Z</time>
      </trkpt>
      <trkpt lat="46.13173" lon="3.76541">
        <ele>651.84</ele>
        <time>2014-11-22T13:53:01Z</time>
      </trkpt>
      <trkpt lat="46.13191" lon="3.76531">
        <ele>650.69</ele>
        <time>2014-11-22T13:53:06Z</time>
      </trkpt>
      <trkpt lat="46.13209" lon="3.7652">
        <ele>649.09</ele>
        <time>2014-11-22T13:53:11Z</time>
      </trkpt>
      <trkpt lat="46.1321" lon="3.76492">
        <ele>646.62</ele>
        <time>2014-11-22T13:53:23Z</time>
      </trkpt>
      <trkpt lat="46.13211" lon="3.76464">
        <ele>645.57</ele>
        <time>2014-11-22T13:53:33Z</time>
      </trkpt>
      <trkpt lat="46.13213" lon="3.76426">
        <ele>644.55</ele>
        <time>2014-11-22T13:53:49Z</time>
      </trkpt>
      <trkpt lat="46.13198" lon="3.76398">
        <ele>644.55</ele>
        <time>2014-11-22T13:53:57Z</time>
      </trkpt>
      <trkpt lat="46.13196" lon="3.76368">
        <ele>644.55</ele>
        <time>2014-11-22T13:54:04Z</time>
      </trkpt>
      <trkpt lat="46.13203" lon="3.76344">
        <ele>644.55</ele>
        <time>2014-11-22T13:54:12Z</time>
      </trkpt>
      <trkpt lat="46.1322" lon="3.76335">
        <ele>645.43</ele>
        <time>2014-11-22T13:54:20Z</time>
      </trkpt>
      <trkpt lat="46.1324" lon="3.76335">
        <ele>646.8</ele>
        <time>2014-11-22T13:54:26Z</time>
      </trkpt>
      <trkpt lat="46.13261" lon="3.76335">
        <ele>647.75</ele>
        <time>2014-11-22T13:54:31Z</time>
      </trkpt>
      <trkpt lat="46.13279" lon="3.76335">
        <ele>646.82</ele>
        <time>2014-11-22T13:54:35Z</time>
      </trkpt>
      <trkpt lat="46.13301" lon="3.76338">
        <ele>646.07</ele>
        <time>2014-11-22T13:54:39Z</time>
      </trkpt>
      <trkpt lat="46.13321" lon="3.7634">
        <ele>645.07</ele>
        <time>2014-11-22T13:54:44Z</time>
      </trkpt>
      <trkpt lat="46.13339" lon="3.76342">
        <ele>644.59</ele>
        <time>2014-11-22T13:54:48Z</time>
      </trkpt>
      <trkpt lat="46.1336" lon="3.76344">
        <ele>644.55</ele>
        <time>2014-11-22T13:54:53Z</time>
      </trkpt>
      <trkpt lat="46.13379" lon="3.76342">
        <ele>644.55</ele>
        <time>2014-11-22T13:54:58Z</time>
      </trkpt>
      <trkpt lat="46.13397" lon="3.76338">
        <ele>644.55</ele>
        <time>2014-11-22T13:55:03Z</time>
      </trkpt>
      <trkpt lat="46.13416" lon="3.76331">
        <ele>644.55</ele>
        <time>2014-11-22T13:55:08Z</time>
      </trkpt>
      <trkpt lat="46.13434" lon="3.76329">
        <ele>644.55</ele>
        <time>2014-11-22T13:55:13Z</time>
      </trkpt>
      <trkpt lat="46.13454" lon="3.76327">
        <ele>644.55</ele>
        <time>2014-11-22T13:55:19Z</time>
      </trkpt>
      <trkpt lat="46.13475" lon="3.76323">
        <ele>645.52</ele>
        <time>2014-11-22T13:55:25Z</time>
      </trkpt>
      <trkpt lat="46.13493" lon="3.76316">
        <ele>645.55</ele>
        <time>2014-11-22T13:55:30Z</time>
      </trkpt>
      <trkpt lat="46.13512" lon="3.76303">
        <ele>646.43</ele>
        <time>2014-11-22T13:55:35Z</time>
      </trkpt>
      <trkpt lat="46.1353" lon="3.7629">
        <ele>647.52</ele>
        <time>2014-11-22T13:55:40Z</time>
      </trkpt>
      <trkpt lat="46.1355" lon="3.76273">
        <ele>649.02</ele>
        <time>2014-11-22T13:55:45Z</time>
      </trkpt>
      <trkpt lat="46.13568" lon="3.76256">
        <ele>649.54</ele>
        <time>2014-11-22T13:55:50Z</time>
      </trkpt>
      <trkpt lat="46.13588" lon="3.76243">
        <ele>649.55</ele>
        <time>2014-11-22T13:55:55Z</time>
      </trkpt>
      <trkpt lat="46.13608" lon="3.76232">
        <ele>649.55</ele>
        <time>2014-11-22T13:55:59Z</time>
      </trkpt>
      <trkpt lat="46.13625" lon="3.76222">
        <ele>649.55</ele>
        <time>2014-11-22T13:56:03Z</time>
      </trkpt>
      <trkpt lat="46.13643" lon="3.76207">
        <ele>649.55</ele>
        <time>2014-11-22T13:56:08Z</time>
      </trkpt>
      <trkpt lat="46.13661" lon="3.76192">
        <ele>649.55</ele>
        <time>2014-11-22T13:56:13Z</time>
      </trkpt>
      <trkpt lat="46.13677" lon="3.76179">
        <ele>650.3</ele>
        <time>2014-11-22T13:56:17Z</time>
      </trkpt>
      <trkpt lat="46.13695" lon="3.76166">
        <ele>651.29</ele>
        <time>2014-11-22T13:56:21Z</time>
      </trkpt>
      <trkpt lat="46.13711" lon="3.76151">
        <ele>652.29</ele>
        <time>2014-11-22T13:56:25Z</time>
      </trkpt>
      <trkpt lat="46.13728" lon="3.76138">
        <ele>652.54</ele>
        <time>2014-11-22T13:56:29Z</time>
      </trkpt>
      <trkpt lat="46.13744" lon="3.76125">
        <ele>652.55</ele>
        <time>2014-11-22T13:56:33Z</time>
      </trkpt>
      <trkpt lat="46.13762" lon="3.76112">
        <ele>652.55</ele>
        <time>2014-11-22T13:56:38Z</time>
      </trkpt>
      <trkpt lat="46.13781" lon="3.76099">
        <ele>652.55</ele>
        <time>2014-11-22T13:56:43Z</time>
      </trkpt>
      <trkpt lat="46.138" lon="3.76086">
        <ele>652.55</ele>
        <time>2014-11-22T13:56:48Z</time>
      </trkpt>
      <trkpt lat="46.13818" lon="3.76069">
        <ele>652.55</ele>
        <time>2014-11-22T13:56:53Z</time>
      </trkpt>
      <trkpt lat="46.13834" lon="3.76052">
        <ele>652.55</ele>
        <time>2014-11-22T13:56:58Z</time>
      </trkpt>
      <trkpt lat="46.13848" lon="3.76035">
        <ele>652.55</ele>
        <time>2014-11-22T13:57:03Z</time>
      </trkpt>
      <trkpt lat="46.13863" lon="3.76018">
        <ele>652.55</ele>
        <time>2014-11-22T13:57:09Z</time>
      </trkpt>
      <trkpt lat="46.13879" lon="3.75996">
        <ele>654.05</ele>
        <time>2014-11-22T13:57:24Z</time>
      </trkpt>
      <trkpt lat="46.13871" lon="3.75971">
        <ele>655.55</ele>
        <time>2014-11-22T14:00:55Z</time>
      </trkpt>
      <trkpt lat="46.13855" lon="3.75953">
        <ele>655.55</ele>
        <time>2014-11-22T14:01:06Z</time>
      </trkpt>
      <trkpt lat="46.13839" lon="3.75934">
        <ele>654.8</ele>
        <time>2014-11-22T14:01:13Z</time>
      </trkpt>
      <trkpt lat="46.13823" lon="3.75915">
        <ele>652.15</ele>
        <time>2014-11-22T14:01:18Z</time>
      </trkpt>
      <trkpt lat="46.13806" lon="3.75893">
        <ele>651.59</ele>
        <time>2014-11-22T14:01:22Z</time>
      </trkpt>
      <trkpt lat="46.13788" lon="3.75872">
        <ele>651.56</ele>
        <time>2014-11-22T14:01:25Z</time>
      </trkpt>
      <trkpt lat="46.1377" lon="3.75846">
        <ele>651.55</ele>
        <time>2014-11-22T14:01:28Z</time>
      </trkpt>
      <trkpt lat="46.13757" lon="3.75827">
        <ele>651.05</ele>
        <time>2014-11-22T14:01:30Z</time>
      </trkpt>
      <trkpt lat="46.13744" lon="3.75805">
        <ele>650.68</ele>
        <time>2014-11-22T14:01:32Z</time>
      </trkpt>
      <trkpt lat="46.13732" lon="3.75784">
        <ele>650.08</ele>
        <time>2014-11-22T14:01:34Z</time>
      </trkpt>
      <trkpt lat="46.13718" lon="3.75765">
        <ele>649.69</ele>
        <time>2014-11-22T14:01:36Z</time>
      </trkpt>
      <trkpt lat="46.13705" lon="3.75745">
        <ele>648.34</ele>
        <time>2014-11-22T14:01:38Z</time>
      </trkpt>
      <trkpt lat="46.13695" lon="3.75724">
        <ele>646.4</ele>
        <time>2014-11-22T14:01:41Z</time>
      </trkpt>
      <trkpt lat="46.13681" lon="3.75702">
        <ele>643.67</ele>
        <time>2014-11-22T14:01:46Z</time>
      </trkpt>
      <trkpt lat="46.13661" lon="3.75692">
        <ele>639.59</ele>
        <time>2014-11-22T14:01:51Z</time>
      </trkpt>
      <trkpt lat="46.1364" lon="3.75685">
        <ele>632.81</ele>
        <time>2014-11-22T14:01:54Z</time>
      </trkpt>
      <trkpt lat="46.13622" lon="3.75674">
        <ele>627.08</ele>
        <time>2014-11-22T14:01:57Z</time>
      </trkpt>
      <trkpt lat="46.13604" lon="3.75659">
        <ele>624.12</ele>
        <time>2014-11-22T14:02:00Z</time>
      </trkpt>
      <trkpt lat="46.13589" lon="3.7564">
        <ele>621.9</ele>
        <time>2014-11-22T14:02:04Z</time>
      </trkpt>
      <trkpt lat="46.13581" lon="3.75617">
        <ele>621.57</ele>
        <time>2014-11-22T14:02:08Z</time>
      </trkpt>
      <trkpt lat="46.13572" lon="3.75589">
        <ele>622.99</ele>
        <time>2014-11-22T14:02:12Z</time>
      </trkpt>
      <trkpt lat="46.13559" lon="3.75563">
        <ele>624.46</ele>
        <time>2014-11-22T14:02:16Z</time>
      </trkpt>
      <trkpt lat="46.13549" lon="3.75541">
        <ele>625.42</ele>
        <time>2014-11-22T14:02:19Z</time>
      </trkpt>
      <trkpt lat="46.13533" lon="3.75529">
        <ele>625.54</ele>
        <time>2014-11-22T14:02:22Z</time>
      </trkpt>
      <trkpt lat="46.13507" lon="3.75524">
        <ele>625.55</ele>
        <time>2014-11-22T14:02:25Z</time>
      </trkpt>
      <trkpt lat="46.13489" lon="3.75522">
        <ele>624.8</ele>
        <time>2014-11-22T14:02:27Z</time>
      </trkpt>
      <trkpt lat="46.13462" lon="3.75511">
        <ele>624.58</ele>
        <time>2014-11-22T14:02:30Z</time>
      </trkpt>
      <trkpt lat="46.13445" lon="3.75501">
        <ele>623.81</ele>
        <time>2014-11-22T14:02:32Z</time>
      </trkpt>
      <trkpt lat="46.13421" lon="3.75486">
        <ele>623.09</ele>
        <time>2014-11-22T14:02:35Z</time>
      </trkpt>
      <trkpt lat="46.13398" lon="3.75473">
        <ele>621.37</ele>
        <time>2014-11-22T14:02:38Z</time>
      </trkpt>
      <trkpt lat="46.13382" lon="3.75449">
        <ele>619.28</ele>
        <time>2014-11-22T14:02:41Z</time>
      </trkpt>
      <trkpt lat="46.13369" lon="3.75421">
        <ele>618.64</ele>
        <time>2014-11-22T14:02:44Z</time>
      </trkpt>
      <trkpt lat="46.13369" lon="3.75385">
        <ele>617.69</ele>
        <time>2014-11-22T14:02:47Z</time>
      </trkpt>
      <trkpt lat="46.13367" lon="3.7535">
        <ele>617.57</ele>
        <time>2014-11-22T14:02:50Z</time>
      </trkpt>
      <trkpt lat="46.13361" lon="3.75325">
        <ele>618.49</ele>
        <time>2014-11-22T14:02:54Z</time>
      </trkpt>
      <trkpt lat="46.13346" lon="3.7531">
        <ele>618.55</ele>
        <time>2014-11-22T14:02:57Z</time>
      </trkpt>
      <trkpt lat="46.1333" lon="3.7529">
        <ele>617.11</ele>
        <time>2014-11-22T14:03:01Z</time>
      </trkpt>
      <trkpt lat="46.13319" lon="3.75267">
        <ele>616.57</ele>
        <time>2014-11-22T14:03:06Z</time>
      </trkpt>
      <trkpt lat="46.13305" lon="3.75239">
        <ele>617.52</ele>
        <time>2014-11-22T14:03:14Z</time>
      </trkpt>
      <trkpt lat="46.13289" lon="3.75215">
        <ele>617.55</ele>
        <time>2014-11-22T14:03:22Z</time>
      </trkpt>
      <trkpt lat="46.13274" lon="3.75192">
        <ele>618.54</ele>
        <time>2014-11-22T14:03:31Z</time>
      </trkpt>
      <trkpt lat="46.13262" lon="3.75168">
        <ele>619.54</ele>
        <time>2014-11-22T14:03:40Z</time>
      </trkpt>
      <trkpt lat="46.13251" lon="3.75142">
        <ele>620.05</ele>
        <time>2014-11-22T14:03:53Z</time>
      </trkpt>
      <trkpt lat="46.13244" lon="3.75119">
        <ele>620.55</ele>
        <time>2014-11-22T14:04:11Z</time>
      </trkpt>
      <trkpt lat="46.13242" lon="3.75091">
        <ele>620.55</ele>
        <time>2014-11-22T14:04:14Z</time>
      </trkpt>
      <trkpt lat="46.13232" lon="3.75059">
        <ele>620.55</ele>
        <time>2014-11-22T14:04:17Z</time>
      </trkpt>
      <trkpt lat="46.13225" lon="3.75035">
        <ele>621.3</ele>
        <time>2014-11-22T14:04:19Z</time>
      </trkpt>
      <trkpt lat="46.13218" lon="3.75009">
        <ele>621.49</ele>
        <time>2014-11-22T14:04:21Z</time>
      </trkpt>
      <trkpt lat="46.13213" lon="3.74984">
        <ele>622.29</ele>
        <time>2014-11-22T14:04:23Z</time>
      </trkpt>
      <trkpt lat="46.13209" lon="3.74949">
        <ele>622.52</ele>
        <time>2014-11-22T14:04:26Z</time>
      </trkpt>
      <trkpt lat="46.13206" lon="3.74917">
        <ele>619.99</ele>
        <time>2014-11-22T14:04:30Z</time>
      </trkpt>
      <trkpt lat="46.13202" lon="3.74885">
        <ele>618.64</ele>
        <time>2014-11-22T14:04:34Z</time>
      </trkpt>
      <trkpt lat="46.13194" lon="3.74853">
        <ele>618.56</ele>
        <time>2014-11-22T14:04:38Z</time>
      </trkpt>
      <trkpt lat="46.13181" lon="3.74833">
        <ele>619.43</ele>
        <time>2014-11-22T14:04:41Z</time>
      </trkpt>
      <trkpt lat="46.13157" lon="3.74818">
        <ele>619.54</ele>
        <time>2014-11-22T14:04:44Z</time>
      </trkpt>
      <trkpt lat="46.13139" lon="3.74814">
        <ele>618.8</ele>
        <time>2014-11-22T14:04:46Z</time>
      </trkpt>
      <trkpt lat="46.13116" lon="3.74812">
        <ele>617.21</ele>
        <time>2014-11-22T14:04:49Z</time>
      </trkpt>
      <trkpt lat="46.13096" lon="3.74801">
        <ele>614.55</ele>
        <time>2014-11-22T14:06:01Z</time>
      </trkpt>
      <trkpt lat="46.13086" lon="3.74778">
        <ele>610.19</ele>
        <time>2014-11-22T14:06:08Z</time>
      </trkpt>
      <trkpt lat="46.13075" lon="3.74754">
        <ele>607.94</ele>
        <time>2014-11-22T14:06:14Z</time>
      </trkpt>
      <trkpt lat="46.13066" lon="3.7473">
        <ele>605.84</ele>
        <time>2014-11-22T14:06:20Z</time>
      </trkpt>
      <trkpt lat="46.13058" lon="3.74707">
        <ele>604.12</ele>
        <time>2014-11-22T14:06:25Z</time>
      </trkpt>
      <trkpt lat="46.13052" lon="3.74679">
        <ele>602.62</ele>
        <time>2014-11-22T14:06:32Z</time>
      </trkpt>
      <trkpt lat="46.13051" lon="3.74651">
        <ele>600.68</ele>
        <time>2014-11-22T14:06:40Z</time>
      </trkpt>
      <trkpt lat="46.13054" lon="3.74623">
        <ele>598.81</ele>
        <time>2014-11-22T14:06:49Z</time>
      </trkpt>
      <trkpt lat="46.13066" lon="3.74599">
        <ele>598.05</ele>
        <time>2014-11-22T14:06:57Z</time>
      </trkpt>
      <trkpt lat="46.13079" lon="3.7458">
        <ele>597.57</ele>
        <time>2014-11-22T14:07:02Z</time>
      </trkpt>
      <trkpt lat="46.13093" lon="3.74559">
        <ele>596.57</ele>
        <time>2014-11-22T14:07:08Z</time>
      </trkpt>
      <trkpt lat="46.13104" lon="3.74537">
        <ele>596.05</ele>
        <time>2014-11-22T14:07:13Z</time>
      </trkpt>
      <trkpt lat="46.13117" lon="3.74516">
        <ele>595.57</ele>
        <time>2014-11-22T14:07:18Z</time>
      </trkpt>
      <trkpt lat="46.13132" lon="3.74494">
        <ele>595.55</ele>
        <time>2014-11-22T14:07:24Z</time>
      </trkpt>
      <trkpt lat="46.13143" lon="3.74473">
        <ele>596.43</ele>
        <time>2014-11-22T14:07:30Z</time>
      </trkpt>
      <trkpt lat="46.13155" lon="3.74451">
        <ele>596.55</ele>
        <time>2014-11-22T14:07:36Z</time>
      </trkpt>
      <trkpt lat="46.13167" lon="3.74426">
        <ele>596.55</ele>
        <time>2014-11-22T14:07:44Z</time>
      </trkpt>
      <trkpt lat="46.13175" lon="3.744">
        <ele>597.54</ele>
        <time>2014-11-22T14:07:51Z</time>
      </trkpt>
      <trkpt lat="46.13183" lon="3.74372">
        <ele>599.05</ele>
        <time>2014-11-22T14:07:59Z</time>
      </trkpt>
      <trkpt lat="46.13189" lon="3.74346">
        <ele>600.3</ele>
        <time>2014-11-22T14:08:05Z</time>
      </trkpt>
      <trkpt lat="46.13203" lon="3.74323">
        <ele>601.49</ele>
        <time>2014-11-22T14:08:11Z</time>
      </trkpt>
      <trkpt lat="46.13216" lon="3.74303">
        <ele>605.3</ele>
        <time>2014-11-22T14:08:15Z</time>
      </trkpt>
      <trkpt lat="46.13231" lon="3.74282">
        <ele>608.1</ele>
        <time>2014-11-22T14:08:19Z</time>
      </trkpt>
      <trkpt lat="46.13248" lon="3.74267">
        <ele>609.41</ele>
        <time>2014-11-22T14:08:24Z</time>
      </trkpt>
      <trkpt lat="46.13264" lon="3.74252">
        <ele>609.55</ele>
        <time>2014-11-22T14:08:30Z</time>
      </trkpt>
      <trkpt lat="46.13284" lon="3.74237">
        <ele>610.3</ele>
        <time>2014-11-22T14:08:35Z</time>
      </trkpt>
      <trkpt lat="46.13304" lon="3.7423">
        <ele>611.48</ele>
        <time>2014-11-22T14:08:40Z</time>
      </trkpt>
      <trkpt lat="46.13323" lon="3.74226">
        <ele>612.52</ele>
        <time>2014-11-22T14:08:45Z</time>
      </trkpt>
      <trkpt lat="46.13342" lon="3.74224">
        <ele>612.55</ele>
        <time>2014-11-22T14:08:50Z</time>
      </trkpt>
      <trkpt lat="46.13361" lon="3.74215">
        <ele>612.55</ele>
        <time>2014-11-22T14:08:56Z</time>
      </trkpt>
      <trkpt lat="46.13378" lon="3.742">
        <ele>612.55</ele>
        <time>2014-11-22T14:09:02Z</time>
      </trkpt>
      <trkpt lat="46.13396" lon="3.74183">
        <ele>612.55</ele>
        <time>2014-11-22T14:09:08Z</time>
      </trkpt>
      <trkpt lat="46.13412" lon="3.74166">
        <ele>613.05</ele>
        <time>2014-11-22T14:09:14Z</time>
      </trkpt>
      <trkpt lat="46.13426" lon="3.74149">
        <ele>613.55</ele>
        <time>2014-11-22T14:09:20Z</time>
      </trkpt>
      <trkpt lat="46.13441" lon="3.74132">
        <ele>613.55</ele>
        <time>2014-11-22T14:09:26Z</time>
      </trkpt>
      <trkpt lat="46.1346" lon="3.74117">
        <ele>612.68</ele>
        <time>2014-11-22T14:09:32Z</time>
      </trkpt>
      <trkpt lat="46.13477" lon="3.74108">
        <ele>612.56</ele>
        <time>2014-11-22T14:09:37Z</time>
      </trkpt>
      <trkpt lat="46.13495" lon="3.74099">
        <ele>612.55</ele>
        <time>2014-11-22T14:09:43Z</time>
      </trkpt>
      <trkpt lat="46.13511" lon="3.74112">
        <ele>612.55</ele>
        <time>2014-11-22T14:09:57Z</time>
      </trkpt>
      <trkpt lat="46.13515" lon="3.74138">
        <ele>613.54</ele>
        <time>2014-11-22T14:10:06Z</time>
      </trkpt>
      <trkpt lat="46.13525" lon="3.74166">
        <ele>614.54</ele>
        <time>2014-11-22T14:10:17Z</time>
      </trkpt>
      <trkpt lat="46.13538" lon="3.74185">
        <ele>616.3</ele>
        <time>2014-11-22T14:10:30Z</time>
      </trkpt>
      <trkpt lat="46.13556" lon="3.74196">
        <ele>619.04</ele>
        <time>2014-11-22T14:10:46Z</time>
      </trkpt>
      <trkpt lat="46.13575" lon="3.74209">
        <ele>620.52</ele>
        <time>2014-11-22T14:10:57Z</time>
      </trkpt>
      <trkpt lat="46.13594" lon="3.74222">
        <ele>622.42</ele>
        <time>2014-11-22T14:11:07Z</time>
      </trkpt>
      <trkpt lat="46.13613" lon="3.7423">
        <ele>623.43</ele>
        <time>2014-11-22T14:11:15Z</time>
      </trkpt>
      <trkpt lat="46.13631" lon="3.74241">
        <ele>624.49</ele>
        <time>2014-11-22T14:11:23Z</time>
      </trkpt>
      <trkpt lat="46.13649" lon="3.7425">
        <ele>625.49</ele>
        <time>2014-11-22T14:11:30Z</time>
      </trkpt>
      <trkpt lat="46.13669" lon="3.74254">
        <ele>626.49</ele>
        <time>2014-11-22T14:11:37Z</time>
      </trkpt>
      <trkpt lat="46.13687" lon="3.74258">
        <ele>627.49</ele>
        <time>2014-11-22T14:11:44Z</time>
      </trkpt>
      <trkpt lat="46.13705" lon="3.74265">
        <ele>628.49</ele>
        <time>2014-11-22T14:11:51Z</time>
      </trkpt>
      <trkpt lat="46.13725" lon="3.74271">
        <ele>629.52</ele>
        <time>2014-11-22T14:11:59Z</time>
      </trkpt>
      <trkpt lat="46.13744" lon="3.7428">
        <ele>630.54</ele>
        <time>2014-11-22T14:12:08Z</time>
      </trkpt>
      <trkpt lat="46.13763" lon="3.74288">
        <ele>631.49</ele>
        <time>2014-11-22T14:12:17Z</time>
      </trkpt>
      <trkpt lat="46.1378" lon="3.74299">
        <ele>631.55</ele>
        <time>2014-11-22T14:12:25Z</time>
      </trkpt>
      <trkpt lat="46.13799" lon="3.7431">
        <ele>632.49</ele>
        <time>2014-11-22T14:12:33Z</time>
      </trkpt>
      <trkpt lat="46.13816" lon="3.74321">
        <ele>633.3</ele>
        <time>2014-11-22T14:12:41Z</time>
      </trkpt>
      <trkpt lat="46.13833" lon="3.74333">
        <ele>634.05</ele>
        <time>2014-11-22T14:12:48Z</time>
      </trkpt>
      <trkpt lat="46.1385" lon="3.74348">
        <ele>635.3</ele>
        <time>2014-11-22T14:12:55Z</time>
      </trkpt>
      <trkpt lat="46.13868" lon="3.74363">
        <ele>638.05</ele>
        <time>2014-11-22T14:13:01Z</time>
      </trkpt>
      <trkpt lat="46.13886" lon="3.74374">
        <ele>642.52</ele>
        <time>2014-11-22T14:13:05Z</time>
      </trkpt>
      <trkpt lat="46.13902" lon="3.74387">
        <ele>644.46</ele>
        <time>2014-11-22T14:13:10Z</time>
      </trkpt>
      <trkpt lat="46.13919" lon="3.74398">
        <ele>644.55</ele>
        <time>2014-11-22T14:13:16Z</time>
      </trkpt>
      <trkpt lat="46.13936" lon="3.74415">
        <ele>645.55</ele>
        <time>2014-11-22T14:13:25Z</time>
      </trkpt>
      <trkpt lat="46.13954" lon="3.74428">
        <ele>651.05</ele>
        <time>2014-11-22T14:17:10Z</time>
      </trkpt>
      <trkpt lat="46.13972" lon="3.74439">
        <ele>653.66</ele>
        <time>2014-11-22T14:17:15Z</time>
      </trkpt>
      <trkpt lat="46.13992" lon="3.74456">
        <ele>656.18</ele>
        <time>2014-11-22T14:17:19Z</time>
      </trkpt>
      <trkpt lat="46.14006" lon="3.74477">
        <ele>657.26</ele>
        <time>2014-11-22T14:17:22Z</time>
      </trkpt>
      <trkpt lat="46.14014" lon="3.74501">
        <ele>657.52</ele>
        <time>2014-11-22T14:17:25Z</time>
      </trkpt>
      <trkpt lat="46.1402" lon="3.74531">
        <ele>657.55</ele>
        <time>2014-11-22T14:17:29Z</time>
      </trkpt>
      <trkpt lat="46.1402" lon="3.74565">
        <ele>658.49</ele>
        <time>2014-11-22T14:17:33Z</time>
      </trkpt>
      <trkpt lat="46.1402" lon="3.74597">
        <ele>658.55</ele>
        <time>2014-11-22T14:17:37Z</time>
      </trkpt>
      <trkpt lat="46.14038" lon="3.74597">
        <ele>661.55</ele>
        <time>2014-11-22T14:20:33Z</time>
      </trkpt>
      <trkpt lat="46.1405" lon="3.74576">
        <ele>660.8</ele>
        <time>2014-11-22T14:20:36Z</time>
      </trkpt>
      <trkpt lat="46.14065" lon="3.74554">
        <ele>660.58</ele>
        <time>2014-11-22T14:20:39Z</time>
      </trkpt>
      <trkpt lat="46.14079" lon="3.74529">
        <ele>660.56</ele>
        <time>2014-11-22T14:20:42Z</time>
      </trkpt>
      <trkpt lat="46.14089" lon="3.74503">
        <ele>661.05</ele>
        <time>2014-11-22T14:20:45Z</time>
      </trkpt>
      <trkpt lat="46.14098" lon="3.74477">
        <ele>660.62</ele>
        <time>2014-11-22T14:20:48Z</time>
      </trkpt>
      <trkpt lat="46.14107" lon="3.74454">
        <ele>660.06</ele>
        <time>2014-11-22T14:20:51Z</time>
      </trkpt>
      <trkpt lat="46.14116" lon="3.74424">
        <ele>659.62</ele>
        <time>2014-11-22T14:20:54Z</time>
      </trkpt>
      <trkpt lat="46.1413" lon="3.74391">
        <ele>659.56</ele>
        <time>2014-11-22T14:20:57Z</time>
      </trkpt>
      <trkpt lat="46.14141" lon="3.74359">
        <ele>659.68</ele>
        <time>2014-11-22T14:21:00Z</time>
      </trkpt>
      <trkpt lat="46.14146" lon="3.74333">
        <ele>659.58</ele>
        <time>2014-11-22T14:21:02Z</time>
      </trkpt>
      <trkpt lat="46.14152" lon="3.74303">
        <ele>659.06</ele>
        <time>2014-11-22T14:21:04Z</time>
      </trkpt>
      <trkpt lat="46.14158" lon="3.74273">
        <ele>658.18</ele>
        <time>2014-11-22T14:21:06Z</time>
      </trkpt>
      <trkpt lat="46.14166" lon="3.74241">
        <ele>657.21</ele>
        <time>2014-11-22T14:21:08Z</time>
      </trkpt>
      <trkpt lat="46.14173" lon="3.74211">
        <ele>655.47</ele>
        <time>2014-11-22T14:21:10Z</time>
      </trkpt>
      <trkpt lat="46.14182" lon="3.74183">
        <ele>654.03</ele>
        <time>2014-11-22T14:21:12Z</time>
      </trkpt>
      <trkpt lat="46.14188" lon="3.74153">
        <ele>651.67</ele>
        <time>2014-11-22T14:21:14Z</time>
      </trkpt>
      <trkpt lat="46.14196" lon="3.74123">
        <ele>648.08</ele>
        <time>2014-11-22T14:21:16Z</time>
      </trkpt>
      <trkpt lat="46.14203" lon="3.74093">
        <ele>644.44</ele>
        <time>2014-11-22T14:21:18Z</time>
      </trkpt>
      <trkpt lat="46.14211" lon="3.74067">
        <ele>640.52</ele>
        <time>2014-11-22T14:21:20Z</time>
      </trkpt>
      <trkpt lat="46.1422" lon="3.74035">
        <ele>636.67</ele>
        <time>2014-11-22T14:21:23Z</time>
      </trkpt>
      <trkpt lat="46.14232" lon="3.74012">
        <ele>633.57</ele>
        <time>2014-11-22T14:21:26Z</time>
      </trkpt>
      <trkpt lat="46.14246" lon="3.73986">
        <ele>631.87</ele>
        <time>2014-11-22T14:21:30Z</time>
      </trkpt>
      <trkpt lat="46.14252" lon="3.73951">
        <ele>631.05</ele>
        <time>2014-11-22T14:21:48Z</time>
      </trkpt>
      <trkpt lat="46.14271" lon="3.73951">
        <ele>628.55</ele>
        <time>2014-11-22T14:22:10Z</time>
      </trkpt>
      <trkpt lat="46.14278" lon="3.73924">
        <ele>627.68</ele>
        <time>2014-11-22T14:22:15Z</time>
      </trkpt>
      <trkpt lat="46.1428" lon="3.73891">
        <ele>627.57</ele>
        <time>2014-11-22T14:22:18Z</time>
      </trkpt>
      <trkpt lat="46.14286" lon="3.73855">
        <ele>626.8</ele>
        <time>2014-11-22T14:22:21Z</time>
      </trkpt>
      <trkpt lat="46.14291" lon="3.73829">
        <ele>626.12</ele>
        <time>2014-11-22T14:22:23Z</time>
      </trkpt>
      <trkpt lat="46.143" lon="3.73806">
        <ele>625.69</ele>
        <time>2014-11-22T14:22:25Z</time>
      </trkpt>
      <trkpt lat="46.14319" lon="3.7378">
        <ele>624.82</ele>
        <time>2014-11-22T14:22:28Z</time>
      </trkpt>
      <trkpt lat="46.14341" lon="3.73769">
        <ele>622.96</ele>
        <time>2014-11-22T14:22:31Z</time>
      </trkpt>
      <trkpt lat="46.14359" lon="3.7376">
        <ele>620.77</ele>
        <time>2014-11-22T14:22:35Z</time>
      </trkpt>
      <trkpt lat="46.14378" lon="3.73754">
        <ele>619.81</ele>
        <time>2014-11-22T14:22:40Z</time>
      </trkpt>
      <trkpt lat="46.14401" lon="3.73752">
        <ele>617.76</ele>
        <time>2014-11-22T14:22:44Z</time>
      </trkpt>
      <trkpt lat="46.14419" lon="3.73752">
        <ele>616.7</ele>
        <time>2014-11-22T14:22:47Z</time>
      </trkpt>
      <trkpt lat="46.14437" lon="3.73754">
        <ele>616.07</ele>
        <time>2014-11-22T14:22:50Z</time>
      </trkpt>
      <trkpt lat="46.14461" lon="3.73754">
        <ele>614.84</ele>
        <time>2014-11-22T14:22:54Z</time>
      </trkpt>
      <trkpt lat="46.14485" lon="3.73743">
        <ele>614.57</ele>
        <time>2014-11-22T14:22:58Z</time>
      </trkpt>
      <trkpt lat="46.14509" lon="3.7373">
        <ele>614.81</ele>
        <time>2014-11-22T14:23:01Z</time>
      </trkpt>
      <trkpt lat="46.14528" lon="3.73724">
        <ele>613.71</ele>
        <time>2014-11-22T14:23:04Z</time>
      </trkpt>
      <trkpt lat="46.14539" lon="3.73696">
        <ele>607.38</ele>
        <time>2014-11-22T14:23:08Z</time>
      </trkpt>
      <trkpt lat="46.1454" lon="3.73666">
        <ele>602.41</ele>
        <time>2014-11-22T14:23:11Z</time>
      </trkpt>
      <trkpt lat="46.14541" lon="3.73632">
        <ele>596.53</ele>
        <time>2014-11-22T14:23:14Z</time>
      </trkpt>
      <trkpt lat="46.14542" lon="3.73597">
        <ele>591.3</ele>
        <time>2014-11-22T14:23:17Z</time>
      </trkpt>
      <trkpt lat="46.14543" lon="3.73563">
        <ele>586.9</ele>
        <time>2014-11-22T14:23:20Z</time>
      </trkpt>
      <trkpt lat="46.14538" lon="3.73531">
        <ele>582.85</ele>
        <time>2014-11-22T14:23:23Z</time>
      </trkpt>
      <trkpt lat="46.14528" lon="3.73505">
        <ele>578.84</ele>
        <time>2014-11-22T14:23:26Z</time>
      </trkpt>
      <trkpt lat="46.14513" lon="3.73488">
        <ele>576.01</ele>
        <time>2014-11-22T14:23:30Z</time>
      </trkpt>
      <trkpt lat="46.14492" lon="3.73469">
        <ele>575.05</ele>
        <time>2014-11-22T14:23:43Z</time>
      </trkpt>
      <trkpt lat="46.14512" lon="3.73466">
        <ele>572.08</ele>
        <time>2014-11-22T14:23:54Z</time>
      </trkpt>
      <trkpt lat="46.1453" lon="3.73466">
        <ele>570.57</ele>
        <time>2014-11-22T14:23:59Z</time>
      </trkpt>
      <trkpt lat="46.14549" lon="3.73469">
        <ele>567.05</ele>
        <time>2014-11-22T14:24:03Z</time>
      </trkpt>
      <trkpt lat="46.14569" lon="3.73475">
        <ele>564.27</ele>
        <time>2014-11-22T14:24:07Z</time>
      </trkpt>
      <trkpt lat="46.14591" lon="3.73486">
        <ele>563.64</ele>
        <time>2014-11-22T14:24:10Z</time>
      </trkpt>
      <trkpt lat="46.14611" lon="3.73492">
        <ele>562.33</ele>
        <time>2014-11-22T14:24:12Z</time>
      </trkpt>
      <trkpt lat="46.1463" lon="3.73494">
        <ele>561.25</ele>
        <time>2014-11-22T14:24:14Z</time>
      </trkpt>
      <trkpt lat="46.14649" lon="3.73484">
        <ele>560.23</ele>
        <time>2014-11-22T14:24:16Z</time>
      </trkpt>
      <trkpt lat="46.14672" lon="3.73466">
        <ele>558.26</ele>
        <time>2014-11-22T14:24:19Z</time>
      </trkpt>
      <trkpt lat="46.14688" lon="3.73445">
        <ele>556.27</ele>
        <time>2014-11-22T14:24:22Z</time>
      </trkpt>
      <trkpt lat="46.14702" lon="3.73424">
        <ele>553.52</ele>
        <time>2014-11-22T14:24:25Z</time>
      </trkpt>
      <trkpt lat="46.14717" lon="3.734">
        <ele>551.3</ele>
        <time>2014-11-22T14:24:28Z</time>
      </trkpt>
      <trkpt lat="46.14732" lon="3.73374">
        <ele>549.27</ele>
        <time>2014-11-22T14:24:31Z</time>
      </trkpt>
      <trkpt lat="46.14748" lon="3.73348">
        <ele>546.91</ele>
        <time>2014-11-22T14:24:35Z</time>
      </trkpt>
      <trkpt lat="46.14766" lon="3.73331">
        <ele>545.64</ele>
        <time>2014-11-22T14:24:39Z</time>
      </trkpt>
      <trkpt lat="46.14788" lon="3.73323">
        <ele>544.62</ele>
        <time>2014-11-22T14:24:43Z</time>
      </trkpt>
      <trkpt lat="46.1481" lon="3.73321">
        <ele>543.81</ele>
        <time>2014-11-22T14:24:46Z</time>
      </trkpt>
      <trkpt lat="46.14833" lon="3.73323">
        <ele>543.59</ele>
        <time>2014-11-22T14:24:49Z</time>
      </trkpt>
      <trkpt lat="46.14858" lon="3.73331">
        <ele>543.56</ele>
        <time>2014-11-22T14:24:52Z</time>
      </trkpt>
      <trkpt lat="46.14883" lon="3.73342">
        <ele>542.68</ele>
        <time>2014-11-22T14:24:55Z</time>
      </trkpt>
      <trkpt lat="46.14902" lon="3.73351">
        <ele>541.83</ele>
        <time>2014-11-22T14:24:57Z</time>
      </trkpt>
      <trkpt lat="46.14925" lon="3.73359">
        <ele>541.62</ele>
        <time>2014-11-22T14:24:59Z</time>
      </trkpt>
      <trkpt lat="46.1495" lon="3.73366">
        <ele>541.07</ele>
        <time>2014-11-22T14:25:01Z</time>
      </trkpt>
      <trkpt lat="46.14974" lon="3.73368">
        <ele>539.68</ele>
        <time>2014-11-22T14:25:03Z</time>
      </trkpt>
      <trkpt lat="46.14999" lon="3.7337">
        <ele>537.59</ele>
        <time>2014-11-22T14:25:05Z</time>
      </trkpt>
      <trkpt lat="46.1502" lon="3.73372">
        <ele>535.56</ele>
        <time>2014-11-22T14:25:07Z</time>
      </trkpt>
      <trkpt lat="46.15042" lon="3.73372">
        <ele>531.68</ele>
        <time>2014-11-22T14:25:10Z</time>
      </trkpt>
      <trkpt lat="46.1506" lon="3.7337">
        <ele>527.56</ele>
        <time>2014-11-22T14:25:14Z</time>
      </trkpt>
      <trkpt lat="46.15076" lon="3.73346">
        <ele>524.99</ele>
        <time>2014-11-22T14:25:18Z</time>
      </trkpt>
      <trkpt lat="46.15093" lon="3.73325">
        <ele>523.23</ele>
        <time>2014-11-22T14:25:21Z</time>
      </trkpt>
      <trkpt lat="46.15109" lon="3.73297">
        <ele>522.64</ele>
        <time>2014-11-22T14:25:24Z</time>
      </trkpt>
      <trkpt lat="46.1512" lon="3.73276">
        <ele>522.07</ele>
        <time>2014-11-22T14:25:26Z</time>
      </trkpt>
      <trkpt lat="46.15133" lon="3.73256">
        <ele>521.18</ele>
        <time>2014-11-22T14:25:28Z</time>
      </trkpt>
      <trkpt lat="46.15152" lon="3.73235">
        <ele>519.46</ele>
        <time>2014-11-22T14:25:30Z</time>
      </trkpt>
      <trkpt lat="46.1517" lon="3.73215">
        <ele>516.78</ele>
        <time>2014-11-22T14:25:32Z</time>
      </trkpt>
      <trkpt lat="46.15187" lon="3.73196">
        <ele>514.61</ele>
        <time>2014-11-22T14:25:34Z</time>
      </trkpt>
      <trkpt lat="46.15203" lon="3.73179">
        <ele>513.32</ele>
        <time>2014-11-22T14:25:36Z</time>
      </trkpt>
      <trkpt lat="46.15218" lon="3.73162">
        <ele>511.49</ele>
        <time>2014-11-22T14:25:38Z</time>
      </trkpt>
      <trkpt lat="46.15233" lon="3.73147">
        <ele>510.29</ele>
        <time>2014-11-22T14:25:40Z</time>
      </trkpt>
      <trkpt lat="46.15248" lon="3.73132">
        <ele>508.99</ele>
        <time>2014-11-22T14:25:42Z</time>
      </trkpt>
      <trkpt lat="46.15272" lon="3.7311">
        <ele>506.98</ele>
        <time>2014-11-22T14:25:45Z</time>
      </trkpt>
      <trkpt lat="46.15288" lon="3.73097">
        <ele>505.41</ele>
        <time>2014-11-22T14:25:47Z</time>
      </trkpt>
      <trkpt lat="46.15307" lon="3.7308">
        <ele>503.04</ele>
        <time>2014-11-22T14:25:50Z</time>
      </trkpt>
      <trkpt lat="46.15321" lon="3.73063">
        <ele>500.99</ele>
        <time>2014-11-22T14:25:53Z</time>
      </trkpt>
      <trkpt lat="46.1532" lon="3.73029">
        <ele>498.89</ele>
        <time>2014-11-22T14:25:57Z</time>
      </trkpt>
      <trkpt lat="46.15332" lon="3.73005">
        <ele>498.6</ele>
        <time>2014-11-22T14:26:00Z</time>
      </trkpt>
      <trkpt lat="46.15349" lon="3.72984">
        <ele>496.43</ele>
        <time>2014-11-22T14:26:03Z</time>
      </trkpt>
      <trkpt lat="46.15363" lon="3.72962">
        <ele>492.29</ele>
        <time>2014-11-22T14:26:06Z</time>
      </trkpt>
      <trkpt lat="46.15378" lon="3.72939">
        <ele>485.64</ele>
        <time>2014-11-22T14:26:09Z</time>
      </trkpt>
      <trkpt lat="46.15395" lon="3.72917">
        <ele>479.56</ele>
        <time>2014-11-22T14:26:12Z</time>
      </trkpt>
      <trkpt lat="46.15409" lon="3.729">
        <ele>476.31</ele>
        <time>2014-11-22T14:26:14Z</time>
      </trkpt>
      <trkpt lat="46.15425" lon="3.72881">
        <ele>472.49</ele>
        <time>2014-11-22T14:26:16Z</time>
      </trkpt>
      <trkpt lat="46.1544" lon="3.72864">
        <ele>467.79</ele>
        <time>2014-11-22T14:26:18Z</time>
      </trkpt>
      <trkpt lat="46.15457" lon="3.72838">
        <ele>461.58</ele>
        <time>2014-11-22T14:26:21Z</time>
      </trkpt>
      <trkpt lat="46.15476" lon="3.72812">
        <ele>456.43</ele>
        <time>2014-11-22T14:26:24Z</time>
      </trkpt>
      <trkpt lat="46.15499" lon="3.72803">
        <ele>452.66</ele>
        <time>2014-11-22T14:26:27Z</time>
      </trkpt>
      <trkpt lat="46.15524" lon="3.72799">
        <ele>449.57</ele>
        <time>2014-11-22T14:26:30Z</time>
      </trkpt>
      <trkpt lat="46.15542" lon="3.72793">
        <ele>447.3</ele>
        <time>2014-11-22T14:26:33Z</time>
      </trkpt>
      <trkpt lat="46.15561" lon="3.72791">
        <ele>445.85</ele>
        <time>2014-11-22T14:26:37Z</time>
      </trkpt>
      <trkpt lat="46.15581" lon="3.72797">
        <ele>444.09</ele>
        <time>2014-11-22T14:26:42Z</time>
      </trkpt>
      <trkpt lat="46.156" lon="3.7281">
        <ele>443.56</ele>
        <time>2014-11-22T14:26:49Z</time>
      </trkpt>
      <trkpt lat="46.15623" lon="3.72818">
        <ele>443.55</ele>
        <time>2014-11-22T14:27:00Z</time>
      </trkpt>
      <trkpt lat="46.15642" lon="3.72827">
        <ele>440.09</ele>
        <time>2014-11-22T14:27:31Z</time>
      </trkpt>
      <trkpt lat="46.15657" lon="3.72842">
        <ele>434.07</ele>
        <time>2014-11-22T14:28:00Z</time>
      </trkpt>
      <trkpt lat="46.15659" lon="3.72872">
        <ele>431.59</ele>
        <time>2014-11-22T14:28:13Z</time>
      </trkpt>
      <trkpt lat="46.1566" lon="3.729">
        <ele>428.58</ele>
        <time>2014-11-22T14:28:33Z</time>
      </trkpt>
      <trkpt lat="46.15671" lon="3.72921">
        <ele>427.62</ele>
        <time>2014-11-22T14:28:39Z</time>
      </trkpt>
      <trkpt lat="46.15683" lon="3.72945">
        <ele>427.55</ele>
        <time>2014-11-22T14:28:45Z</time>
      </trkpt>
      <trkpt lat="46.15697" lon="3.72969">
        <ele>426.58</ele>
        <time>2014-11-22T14:28:51Z</time>
      </trkpt>
      <trkpt lat="46.15709" lon="3.7299">
        <ele>426.55</ele>
        <time>2014-11-22T14:28:57Z</time>
      </trkpt>
      <trkpt lat="46.15726" lon="3.73009">
        <ele>425.8</ele>
        <time>2014-11-22T14:29:03Z</time>
      </trkpt>
      <trkpt lat="46.15741" lon="3.73029">
        <ele>425.56</ele>
        <time>2014-11-22T14:29:09Z</time>
      </trkpt>
      <trkpt lat="46.15756" lon="3.73048">
        <ele>425.55</ele>
        <time>2014-11-22T14:29:15Z</time>
      </trkpt>
      <trkpt lat="46.15772" lon="3.73063">
        <ele>420.68</ele>
        <time>2014-11-22T14:32:27Z</time>
      </trkpt>
      <trkpt lat="46.15787" lon="3.73085">
        <ele>419.8</ele>
        <time>2014-11-22T14:32:34Z</time>
      </trkpt>
      <trkpt lat="46.15802" lon="3.731">
        <ele>419.56</ele>
        <time>2014-11-22T14:32:40Z</time>
      </trkpt>
      <trkpt lat="46.15818" lon="3.73117">
        <ele>419.55</ele>
        <time>2014-11-22T14:32:47Z</time>
      </trkpt>
      <trkpt lat="46.15833" lon="3.73132">
        <ele>419.55</ele>
        <time>2014-11-22T14:32:53Z</time>
      </trkpt>
      <trkpt lat="46.15851" lon="3.73147">
        <ele>418.56</ele>
        <time>2014-11-22T14:33:00Z</time>
      </trkpt>
      <trkpt lat="46.1587" lon="3.7316">
        <ele>418.55</ele>
        <time>2014-11-22T14:33:06Z</time>
      </trkpt>
      <trkpt lat="46.1589" lon="3.73173">
        <ele>418.55</ele>
        <time>2014-11-22T14:33:12Z</time>
      </trkpt>
      <trkpt lat="46.15906" lon="3.73185">
        <ele>418.55</ele>
        <time>2014-11-22T14:33:17Z</time>
      </trkpt>
      <trkpt lat="46.15922" lon="3.732">
        <ele>418.55</ele>
        <time>2014-11-22T14:33:22Z</time>
      </trkpt>
      <trkpt lat="46.15937" lon="3.73218">
        <ele>418.55</ele>
        <time>2014-11-22T14:33:28Z</time>
      </trkpt>
      <trkpt lat="46.1595" lon="3.73237">
        <ele>418.55</ele>
        <time>2014-11-22T14:33:34Z</time>
      </trkpt>
      <trkpt lat="46.15964" lon="3.73256">
        <ele>417.57</ele>
        <time>2014-11-22T14:33:40Z</time>
      </trkpt>
      <trkpt lat="46.1598" lon="3.73278">
        <ele>417.55</ele>
        <time>2014-11-22T14:33:47Z</time>
      </trkpt>
      <trkpt lat="46.16" lon="3.73284">
        <ele>417.55</ele>
        <time>2014-11-22T14:33:54Z</time>
      </trkpt>
      <trkpt lat="46.16018" lon="3.73286">
        <ele>418.05</ele>
        <time>2014-11-22T14:34:00Z</time>
      </trkpt>
      <trkpt lat="46.16038" lon="3.73291">
        <ele>418.55</ele>
        <time>2014-11-22T14:34:07Z</time>
      </trkpt>
      <trkpt lat="46.16057" lon="3.73299">
        <ele>418.55</ele>
        <time>2014-11-22T14:34:13Z</time>
      </trkpt>
      <trkpt lat="46.16075" lon="3.73308">
        <ele>419.52</ele>
        <time>2014-11-22T14:34:19Z</time>
      </trkpt>
      <trkpt lat="46.16098" lon="3.73321">
        <ele>420.05</ele>
        <time>2014-11-22T14:34:29Z</time>
      </trkpt>
      <trkpt lat="46.16115" lon="3.73331">
        <ele>420.54</ele>
        <time>2014-11-22T14:34:34Z</time>
      </trkpt>
      <trkpt lat="46.16133" lon="3.73342">
        <ele>420.55</ele>
        <time>2014-11-22T14:34:40Z</time>
      </trkpt>
      <trkpt lat="46.16155" lon="3.73353">
        <ele>419.55</ele>
        <time>2014-11-22T14:34:50Z</time>
      </trkpt>
      <trkpt lat="46.16174" lon="3.73363">
        <ele>419.55</ele>
        <time>2014-11-22T14:35:00Z</time>
      </trkpt>
      <trkpt lat="46.16191" lon="3.73372">
        <ele>419.55</ele>
        <time>2014-11-22T14:35:07Z</time>
      </trkpt>
      <trkpt lat="46.1621" lon="3.73383">
        <ele>420.49</ele>
        <time>2014-11-22T14:35:14Z</time>
      </trkpt>
      <trkpt lat="46.16228" lon="3.73391">
        <ele>422.02</ele>
        <time>2014-11-22T14:35:20Z</time>
      </trkpt>
      <trkpt lat="46.16244" lon="3.73404">
        <ele>423.49</ele>
        <time>2014-11-22T14:35:27Z</time>
      </trkpt>
      <trkpt lat="46.16259" lon="3.73419">
        <ele>425.05</ele>
        <time>2014-11-22T14:35:35Z</time>
      </trkpt>
      <trkpt lat="46.16273" lon="3.73439">
        <ele>427.48</ele>
        <time>2014-11-22T14:35:43Z</time>
      </trkpt>
      <trkpt lat="46.16286" lon="3.73458">
        <ele>429.42</ele>
        <time>2014-11-22T14:35:50Z</time>
      </trkpt>
      <trkpt lat="46.163" lon="3.73479">
        <ele>431.48</ele>
        <time>2014-11-22T14:35:58Z</time>
      </trkpt>
      <trkpt lat="46.16312" lon="3.73501">
        <ele>433.49</ele>
        <time>2014-11-22T14:36:06Z</time>
      </trkpt>
      <trkpt lat="46.16325" lon="3.73524">
        <ele>436.27</ele>
        <time>2014-11-22T14:36:14Z</time>
      </trkpt>
      <trkpt lat="46.16317" lon="3.7355">
        <ele>440.29</ele>
        <time>2014-11-22T14:36:28Z</time>
      </trkpt>
      <trkpt lat="46.163" lon="3.73561">
        <ele>443.29</ele>
        <time>2014-11-22T14:36:39Z</time>
      </trkpt>
      <trkpt lat="46.16283" lon="3.73574">
        <ele>446.02</ele>
        <time>2014-11-22T14:36:50Z</time>
      </trkpt>
      <trkpt lat="46.16266" lon="3.73587">
        <ele>449.04</ele>
        <time>2014-11-22T14:37:03Z</time>
      </trkpt>
      <trkpt lat="46.16251" lon="3.73602">
        <ele>451.29</ele>
        <time>2014-11-22T14:37:13Z</time>
      </trkpt>
      <trkpt lat="46.16238" lon="3.73621">
        <ele>453.29</ele>
        <time>2014-11-22T14:37:22Z</time>
      </trkpt>
      <trkpt lat="46.1623" lon="3.73645">
        <ele>455.04</ele>
        <time>2014-11-22T14:37:31Z</time>
      </trkpt>
      <trkpt lat="46.16224" lon="3.7367">
        <ele>456.54</ele>
        <time>2014-11-22T14:37:40Z</time>
      </trkpt>
      <trkpt lat="46.1622" lon="3.73696">
        <ele>458.49</ele>
        <time>2014-11-22T14:37:49Z</time>
      </trkpt>
      <trkpt lat="46.16217" lon="3.73722">
        <ele>460.49</ele>
        <time>2014-11-22T14:37:58Z</time>
      </trkpt>
      <trkpt lat="46.16214" lon="3.73748">
        <ele>462.43</ele>
        <time>2014-11-22T14:38:08Z</time>
      </trkpt>
      <trkpt lat="46.16209" lon="3.73773">
        <ele>464.04</ele>
        <time>2014-11-22T14:38:17Z</time>
      </trkpt>
      <trkpt lat="46.16207" lon="3.73801">
        <ele>466.3</ele>
        <time>2014-11-22T14:38:29Z</time>
      </trkpt>
      <trkpt lat="46.16212" lon="3.73827">
        <ele>468.42</ele>
        <time>2014-11-22T14:38:40Z</time>
      </trkpt>
      <trkpt lat="46.16221" lon="3.73851">
        <ele>471.04</ele>
        <time>2014-11-22T14:38:51Z</time>
      </trkpt>
      <trkpt lat="46.16231" lon="3.73874">
        <ele>473.49</ele>
        <time>2014-11-22T14:39:02Z</time>
      </trkpt>
      <trkpt lat="46.16235" lon="3.739">
        <ele>476.49</ele>
        <time>2014-11-22T14:39:14Z</time>
      </trkpt>
      <trkpt lat="46.16231" lon="3.73926">
        <ele>480.98</ele>
        <time>2014-11-22T14:39:28Z</time>
      </trkpt>
      <trkpt lat="46.16223" lon="3.73951">
        <ele>484.42</ele>
        <time>2014-11-22T14:39:41Z</time>
      </trkpt>
      <trkpt lat="46.16217" lon="3.73977">
        <ele>487.42</ele>
        <time>2014-11-22T14:39:53Z</time>
      </trkpt>
      <trkpt lat="46.16208" lon="3.74001">
        <ele>490.29</ele>
        <time>2014-11-22T14:40:05Z</time>
      </trkpt>
      <trkpt lat="46.162" lon="3.74024">
        <ele>492.52</ele>
        <time>2014-11-22T14:40:17Z</time>
      </trkpt>
      <trkpt lat="46.16187" lon="3.74044">
        <ele>495.42</ele>
        <time>2014-11-22T14:40:29Z</time>
      </trkpt>
      <trkpt lat="46.16172" lon="3.74059">
        <ele>498.04</ele>
        <time>2014-11-22T14:40:42Z</time>
      </trkpt>
      <trkpt lat="46.16166" lon="3.74084">
        <ele>502.43</ele>
        <time>2014-11-22T14:41:05Z</time>
      </trkpt>
      <trkpt lat="46.1618" lon="3.74104">
        <ele>504.55</ele>
        <time>2014-11-22T14:41:22Z</time>
      </trkpt>
      <trkpt lat="46.16193" lon="3.74123">
        <ele>506.55</ele>
        <time>2014-11-22T14:41:40Z</time>
      </trkpt>
      <trkpt lat="46.16203" lon="3.74147">
        <ele>508.49</ele>
        <time>2014-11-22T14:41:56Z</time>
      </trkpt>
      <trkpt lat="46.16216" lon="3.74166">
        <ele>510.43</ele>
        <time>2014-11-22T14:42:11Z</time>
      </trkpt>
      <trkpt lat="46.16229" lon="3.74187">
        <ele>512.52</ele>
        <time>2014-11-22T14:42:27Z</time>
      </trkpt>
      <trkpt lat="46.16241" lon="3.74209">
        <ele>514.52</ele>
        <time>2014-11-22T14:42:41Z</time>
      </trkpt>
      <trkpt lat="46.16253" lon="3.74228">
        <ele>517.52</ele>
        <time>2014-11-22T14:42:56Z</time>
      </trkpt>
      <trkpt lat="46.16265" lon="3.7425">
        <ele>519.52</ele>
        <time>2014-11-22T14:43:10Z</time>
      </trkpt>
      <trkpt lat="46.16278" lon="3.74269">
        <ele>521.43</ele>
        <time>2014-11-22T14:43:23Z</time>
      </trkpt>
      <trkpt lat="46.16291" lon="3.74288">
        <ele>523.52</ele>
        <time>2014-11-22T14:43:37Z</time>
      </trkpt>
      <trkpt lat="46.16304" lon="3.74308">
        <ele>527.02</ele>
        <time>2014-11-22T14:43:49Z</time>
      </trkpt>
      <trkpt lat="46.16317" lon="3.74327">
        <ele>530.42</ele>
        <time>2014-11-22T14:44:04Z</time>
      </trkpt>
      <trkpt lat="46.1633" lon="3.74348">
        <ele>533.49</ele>
        <time>2014-11-22T14:44:18Z</time>
      </trkpt>
      <trkpt lat="46.1634" lon="3.7437">
        <ele>537.48</ele>
        <time>2014-11-22T14:44:32Z</time>
      </trkpt>
      <trkpt lat="46.16351" lon="3.74391">
        <ele>541.41</ele>
        <time>2014-11-22T14:44:45Z</time>
      </trkpt>
      <trkpt lat="46.16361" lon="3.74415">
        <ele>544.99</ele>
        <time>2014-11-22T14:44:58Z</time>
      </trkpt>
      <trkpt lat="46.16365" lon="3.74441">
        <ele>548.42</ele>
        <time>2014-11-22T14:45:13Z</time>
      </trkpt>
      <trkpt lat="46.16372" lon="3.74464">
        <ele>551.52</ele>
        <time>2014-11-22T14:45:28Z</time>
      </trkpt>
      <trkpt lat="46.16385" lon="3.74486">
        <ele>555.98</ele>
        <time>2014-11-22T14:45:43Z</time>
      </trkpt>
      <trkpt lat="46.16396" lon="3.74509">
        <ele>561.22</ele>
        <time>2014-11-22T14:45:56Z</time>
      </trkpt>
      <trkpt lat="46.16404" lon="3.74533">
        <ele>566.89</ele>
        <time>2014-11-22T14:46:09Z</time>
      </trkpt>
      <trkpt lat="46.16411" lon="3.74557">
        <ele>571.91</ele>
        <time>2014-11-22T14:46:22Z</time>
      </trkpt>
      <trkpt lat="46.16412" lon="3.74584">
        <ele>576.27</ele>
        <time>2014-11-22T14:46:36Z</time>
      </trkpt>
      <trkpt lat="46.16411" lon="3.74612">
        <ele>578.42</ele>
        <time>2014-11-22T14:46:44Z</time>
      </trkpt>
      <trkpt lat="46.16413" lon="3.7464">
        <ele>581.29</ele>
        <time>2014-11-22T14:46:54Z</time>
      </trkpt>
      <trkpt lat="46.16422" lon="3.74664">
        <ele>584.54</ele>
        <time>2014-11-22T14:47:17Z</time>
      </trkpt>
      <trkpt lat="46.16414" lon="3.74687">
        <ele>584.55</ele>
        <time>2014-11-22T14:49:19Z</time>
      </trkpt>
      <trkpt lat="46.16428" lon="3.74707">
        <ele>583.55</ele>
        <time>2014-11-22T14:51:38Z</time>
      </trkpt>
      <trkpt lat="46.16435" lon="3.74732">
        <ele>584.05</ele>
        <time>2014-11-22T14:51:47Z</time>
      </trkpt>
      <trkpt lat="46.16443" lon="3.74756">
        <ele>585.3</ele>
        <time>2014-11-22T14:51:55Z</time>
      </trkpt>
      <trkpt lat="46.16453" lon="3.74782">
        <ele>587.41</ele>
        <time>2014-11-22T14:52:03Z</time>
      </trkpt>
      <trkpt lat="46.16462" lon="3.74808">
        <ele>589.29</ele>
        <time>2014-11-22T14:52:09Z</time>
      </trkpt>
      <trkpt lat="46.16464" lon="3.7484">
        <ele>589.54</ele>
        <time>2014-11-22T14:52:14Z</time>
      </trkpt>
      <trkpt lat="46.16473" lon="3.74863">
        <ele>589.55</ele>
        <time>2014-11-22T14:52:18Z</time>
      </trkpt>
      <trkpt lat="46.16487" lon="3.74883">
        <ele>589.55</ele>
        <time>2014-11-22T14:52:23Z</time>
      </trkpt>
      <trkpt lat="46.16506" lon="3.74893">
        <ele>588.58</ele>
        <time>2014-11-22T14:52:57Z</time>
      </trkpt>
      <trkpt lat="46.16521" lon="3.74911">
        <ele>587.05</ele>
        <time>2014-11-22T14:53:08Z</time>
      </trkpt>
      <trkpt lat="46.16537" lon="3.74928">
        <ele>586.56</ele>
        <time>2014-11-22T14:53:14Z</time>
      </trkpt>
      <trkpt lat="46.16556" lon="3.74938">
        <ele>585.8</ele>
        <time>2014-11-22T14:53:23Z</time>
      </trkpt>
      <trkpt lat="46.16571" lon="3.74962">
        <ele>581.56</ele>
        <time>2014-11-22T14:55:55Z</time>
      </trkpt>
      <trkpt lat="46.16582" lon="3.74986">
        <ele>580.62</ele>
        <time>2014-11-22T14:55:59Z</time>
      </trkpt>
      <trkpt lat="46.16592" lon="3.75014">
        <ele>580.18</ele>
        <time>2014-11-22T14:56:03Z</time>
      </trkpt>
      <trkpt lat="46.1662" lon="3.75029">
        <ele>580.05</ele>
        <time>2014-11-22T14:56:12Z</time>
      </trkpt>
      <trkpt lat="46.16641" lon="3.75024">
        <ele>568.56</ele>
        <time>2014-11-22T14:57:16Z</time>
      </trkpt>
      <trkpt lat="46.16646" lon="3.74992">
        <ele>562.43</ele>
        <time>2014-11-22T14:57:20Z</time>
      </trkpt>
      <trkpt lat="46.16641" lon="3.74966">
        <ele>560.04</ele>
        <time>2014-11-22T14:57:23Z</time>
      </trkpt>
      <trkpt lat="46.16663" lon="3.74966">
        <ele>560.49</ele>
        <time>2014-11-22T14:57:35Z</time>
      </trkpt>
      <trkpt lat="46.16679" lon="3.74988">
        <ele>561.42</ele>
        <time>2014-11-22T14:57:38Z</time>
      </trkpt>
      <trkpt lat="46.16694" lon="3.75009">
        <ele>560.79</ele>
        <time>2014-11-22T14:57:41Z</time>
      </trkpt>
      <trkpt lat="46.1671" lon="3.75035">
        <ele>560.57</ele>
        <time>2014-11-22T14:57:45Z</time>
      </trkpt>
      <trkpt lat="46.16717" lon="3.75063">
        <ele>558.43</ele>
        <time>2014-11-22T14:57:48Z</time>
      </trkpt>
      <trkpt lat="46.16722" lon="3.75093">
        <ele>554.79</ele>
        <time>2014-11-22T14:57:51Z</time>
      </trkpt>
      <trkpt lat="46.16717" lon="3.75119">
        <ele>550.21</ele>
        <time>2014-11-22T14:57:54Z</time>
      </trkpt>
      <trkpt lat="46.16708" lon="3.75142">
        <ele>545.76</ele>
        <time>2014-11-22T14:57:57Z</time>
      </trkpt>
      <trkpt lat="46.16695" lon="3.7517">
        <ele>542.82</ele>
        <time>2014-11-22T14:58:01Z</time>
      </trkpt>
      <trkpt lat="46.16679" lon="3.75192">
        <ele>542.56</ele>
        <time>2014-11-22T14:58:06Z</time>
      </trkpt>
      <trkpt lat="46.16664" lon="3.75213">
        <ele>541.58</ele>
        <time>2014-11-22T14:58:11Z</time>
      </trkpt>
      <trkpt lat="46.16649" lon="3.7523">
        <ele>541.55</ele>
        <time>2014-11-22T14:58:19Z</time>
      </trkpt>
      <trkpt lat="46.16633" lon="3.75247">
        <ele>541.55</ele>
        <time>2014-11-22T14:58:25Z</time>
      </trkpt>
      <trkpt lat="46.16617" lon="3.75262">
        <ele>541.55</ele>
        <time>2014-11-22T14:58:30Z</time>
      </trkpt>
      <trkpt lat="46.16598" lon="3.75282">
        <ele>540.68</ele>
        <time>2014-11-22T14:58:35Z</time>
      </trkpt>
      <trkpt lat="46.1658" lon="3.75297">
        <ele>540.57</ele>
        <time>2014-11-22T14:58:38Z</time>
      </trkpt>
      <trkpt lat="46.16559" lon="3.75314">
        <ele>540.05</ele>
        <time>2014-11-22T14:58:41Z</time>
      </trkpt>
      <trkpt lat="46.16539" lon="3.75333">
        <ele>537.49</ele>
        <time>2014-11-22T14:58:44Z</time>
      </trkpt>
      <trkpt lat="46.16518" lon="3.75348">
        <ele>535.05</ele>
        <time>2014-11-22T14:58:47Z</time>
      </trkpt>
      <trkpt lat="46.16501" lon="3.75359">
        <ele>532.49</ele>
        <time>2014-11-22T14:58:50Z</time>
      </trkpt>
      <trkpt lat="46.16481" lon="3.75363">
        <ele>527.8</ele>
        <time>2014-11-22T14:58:54Z</time>
      </trkpt>
      <trkpt lat="46.1646" lon="3.75361">
        <ele>524.1</ele>
        <time>2014-11-22T14:59:00Z</time>
      </trkpt>
      <trkpt lat="46.16444" lon="3.75344">
        <ele>521.82</ele>
        <time>2014-11-22T14:59:10Z</time>
      </trkpt>
      <trkpt lat="46.16424" lon="3.75342">
        <ele>520.62</ele>
        <time>2014-11-22T14:59:16Z</time>
      </trkpt>
      <trkpt lat="46.16404" lon="3.75348">
        <ele>518.09</ele>
        <time>2014-11-22T14:59:24Z</time>
      </trkpt>
      <trkpt lat="46.16384" lon="3.75353">
        <ele>516.62</ele>
        <time>2014-11-22T14:59:30Z</time>
      </trkpt>
      <trkpt lat="46.16366" lon="3.75355">
        <ele>514.69</ele>
        <time>2014-11-22T14:59:37Z</time>
      </trkpt>
      <trkpt lat="46.16348" lon="3.75359">
        <ele>513.62</ele>
        <time>2014-11-22T14:59:43Z</time>
      </trkpt>
      <trkpt lat="46.16326" lon="3.75363">
        <ele>512.68</ele>
        <time>2014-11-22T14:59:49Z</time>
      </trkpt>
      <trkpt lat="46.16307" lon="3.75365">
        <ele>511.8</ele>
        <time>2014-11-22T14:59:55Z</time>
      </trkpt>
      <trkpt lat="46.16289" lon="3.75368">
        <ele>510.8</ele>
        <time>2014-11-22T15:00:02Z</time>
      </trkpt>
      <trkpt lat="46.16271" lon="3.7537">
        <ele>510.06</ele>
        <time>2014-11-22T15:00:08Z</time>
      </trkpt>
      <trkpt lat="46.1625" lon="3.7537">
        <ele>509.56</ele>
        <time>2014-11-22T15:00:15Z</time>
      </trkpt>
      <trkpt lat="46.16232" lon="3.7537">
        <ele>509.55</ele>
        <time>2014-11-22T15:00:21Z</time>
      </trkpt>
      <trkpt lat="46.16212" lon="3.75372">
        <ele>509.55</ele>
        <time>2014-11-22T15:00:28Z</time>
      </trkpt>
      <trkpt lat="46.16193" lon="3.75374">
        <ele>510.3</ele>
        <time>2014-11-22T15:00:34Z</time>
      </trkpt>
      <trkpt lat="46.16174" lon="3.75376">
        <ele>510.55</ele>
        <time>2014-11-22T15:00:41Z</time>
      </trkpt>
      <trkpt lat="46.16155" lon="3.75381">
        <ele>511.93</ele>
        <time>2014-11-22T15:00:46Z</time>
      </trkpt>
      <trkpt lat="46.16132" lon="3.75378">
        <ele>513.26</ele>
        <time>2014-11-22T15:00:50Z</time>
      </trkpt>
      <trkpt lat="46.16113" lon="3.75372">
        <ele>514.27</ele>
        <time>2014-11-22T15:00:53Z</time>
      </trkpt>
      <trkpt lat="46.16095" lon="3.75363">
        <ele>514.52</ele>
        <time>2014-11-22T15:00:56Z</time>
      </trkpt>
      <trkpt lat="46.16076" lon="3.75353">
        <ele>514.05</ele>
        <time>2014-11-22T15:00:59Z</time>
      </trkpt>
      <trkpt lat="46.16058" lon="3.75344">
        <ele>512.86</ele>
        <time>2014-11-22T15:01:02Z</time>
      </trkpt>
      <trkpt lat="46.16038" lon="3.7534">
        <ele>512.07</ele>
        <time>2014-11-22T15:01:06Z</time>
      </trkpt>
      <trkpt lat="46.16018" lon="3.75338">
        <ele>511.57</ele>
        <time>2014-11-22T15:01:11Z</time>
      </trkpt>
      <trkpt lat="46.15999" lon="3.75338">
        <ele>510.68</ele>
        <time>2014-11-22T15:01:17Z</time>
      </trkpt>
      <trkpt lat="46.15981" lon="3.75338">
        <ele>510.55</ele>
        <time>2014-11-22T15:01:23Z</time>
      </trkpt>
      <trkpt lat="46.1596" lon="3.7534">
        <ele>509.8</ele>
        <time>2014-11-22T15:01:30Z</time>
      </trkpt>
      <trkpt lat="46.15941" lon="3.75344">
        <ele>509.55</ele>
        <time>2014-11-22T15:01:37Z</time>
      </trkpt>
      <trkpt lat="46.15922" lon="3.75348">
        <ele>509.55</ele>
        <time>2014-11-22T15:01:45Z</time>
      </trkpt>
      <trkpt lat="46.15906" lon="3.75363">
        <ele>509.55</ele>
        <time>2014-11-22T15:01:53Z</time>
      </trkpt>
      <trkpt lat="46.15898" lon="3.75387">
        <ele>509.55</ele>
        <time>2014-11-22T15:02:00Z</time>
      </trkpt>
      <trkpt lat="46.1589" lon="3.75413">
        <ele>509.55</ele>
        <time>2014-11-22T15:02:08Z</time>
      </trkpt>
      <trkpt lat="46.15876" lon="3.7543">
        <ele>510.49</ele>
        <time>2014-11-22T15:02:14Z</time>
      </trkpt>
      <trkpt lat="46.15857" lon="3.75438">
        <ele>511.3</ele>
        <time>2014-11-22T15:02:21Z</time>
      </trkpt>
      <trkpt lat="46.15838" lon="3.75449">
        <ele>511.55</ele>
        <time>2014-11-22T15:02:28Z</time>
      </trkpt>
      <trkpt lat="46.1582" lon="3.75456">
        <ele>512.54</ele>
        <time>2014-11-22T15:02:34Z</time>
      </trkpt>
      <trkpt lat="46.15802" lon="3.75458">
        <ele>514.02</ele>
        <time>2014-11-22T15:02:40Z</time>
      </trkpt>
      <trkpt lat="46.15783" lon="3.75451">
        <ele>515.04</ele>
        <time>2014-11-22T15:02:45Z</time>
      </trkpt>
      <trkpt lat="46.15767" lon="3.75438">
        <ele>519.77</ele>
        <time>2014-11-22T15:02:49Z</time>
      </trkpt>
      <trkpt lat="46.1575" lon="3.75421">
        <ele>522.32</ele>
        <time>2014-11-22T15:02:53Z</time>
      </trkpt>
      <trkpt lat="46.15732" lon="3.75406">
        <ele>524.39</ele>
        <time>2014-11-22T15:02:58Z</time>
      </trkpt>
      <trkpt lat="46.15713" lon="3.75393">
        <ele>526.27</ele>
        <time>2014-11-22T15:03:03Z</time>
      </trkpt>
      <trkpt lat="46.15695" lon="3.75383">
        <ele>527.42</ele>
        <time>2014-11-22T15:03:08Z</time>
      </trkpt>
      <trkpt lat="46.15678" lon="3.75372">
        <ele>528.49</ele>
        <time>2014-11-22T15:03:13Z</time>
      </trkpt>
      <trkpt lat="46.15659" lon="3.75365">
        <ele>528.55</ele>
        <time>2014-11-22T15:03:19Z</time>
      </trkpt>
      <trkpt lat="46.1564" lon="3.75361">
        <ele>528.55</ele>
        <time>2014-11-22T15:03:28Z</time>
      </trkpt>
      <trkpt lat="46.15635" lon="3.75335">
        <ele>527.8</ele>
        <time>2014-11-22T15:03:36Z</time>
      </trkpt>
      <trkpt lat="46.15633" lon="3.75308">
        <ele>527.55</ele>
        <time>2014-11-22T15:03:44Z</time>
      </trkpt>
      <trkpt lat="46.15629" lon="3.75282">
        <ele>527.55</ele>
        <time>2014-11-22T15:03:52Z</time>
      </trkpt>
      <trkpt lat="46.15626" lon="3.75254">
        <ele>527.55</ele>
        <time>2014-11-22T15:04:00Z</time>
      </trkpt>
      <trkpt lat="46.15644" lon="3.7526">
        <ele>529.02</ele>
        <time>2014-11-22T15:04:11Z</time>
      </trkpt>
      <trkpt lat="46.15664" lon="3.75269">
        <ele>530.49</ele>
        <time>2014-11-22T15:04:19Z</time>
      </trkpt>
      <trkpt lat="46.15682" lon="3.7528">
        <ele>532.02</ele>
        <time>2014-11-22T15:04:25Z</time>
      </trkpt>
      <trkpt lat="46.15697" lon="3.75297">
        <ele>533.49</ele>
        <time>2014-11-22T15:04:32Z</time>
      </trkpt>
      <trkpt lat="46.1571" lon="3.75314">
        <ele>534.54</ele>
        <time>2014-11-22T15:04:39Z</time>
      </trkpt>
      <trkpt lat="46.15727" lon="3.75327">
        <ele>536.04</ele>
        <time>2014-11-22T15:04:45Z</time>
      </trkpt>
      <trkpt lat="46.15746" lon="3.75331">
        <ele>537.42</ele>
        <time>2014-11-22T15:04:51Z</time>
      </trkpt>
      <trkpt lat="46.15767" lon="3.75323">
        <ele>538.52</ele>
        <time>2014-11-22T15:04:56Z</time>
      </trkpt>
      <trkpt lat="46.15785" lon="3.75312">
        <ele>539.52</ele>
        <time>2014-11-22T15:05:01Z</time>
      </trkpt>
      <trkpt lat="46.15801" lon="3.75299">
        <ele>540.54</ele>
        <time>2014-11-22T15:05:08Z</time>
      </trkpt>
      <trkpt lat="46.15816" lon="3.75284">
        <ele>541.55</ele>
        <time>2014-11-22T15:05:15Z</time>
      </trkpt>
      <trkpt lat="46.15833" lon="3.75265">
        <ele>542.55</ele>
        <time>2014-11-22T15:05:25Z</time>
      </trkpt>
      <trkpt lat="46.1585" lon="3.75243">
        <ele>543.55</ele>
        <time>2014-11-22T15:05:35Z</time>
      </trkpt>
      <trkpt lat="46.1587" lon="3.7522">
        <ele>544.54</ele>
        <time>2014-11-22T15:05:48Z</time>
      </trkpt>
      <trkpt lat="46.15895" lon="3.752">
        <ele>546.05</ele>
        <time>2014-11-22T15:06:00Z</time>
      </trkpt>
      <trkpt lat="46.15913" lon="3.75185">
        <ele>547.99</ele>
        <time>2014-11-22T15:06:07Z</time>
      </trkpt>
      <trkpt lat="46.15928" lon="3.7517">
        <ele>550.02</ele>
        <time>2014-11-22T15:06:14Z</time>
      </trkpt>
      <trkpt lat="46.15943" lon="3.75155">
        <ele>551.49</ele>
        <time>2014-11-22T15:06:21Z</time>
      </trkpt>
      <trkpt lat="46.15963" lon="3.75144">
        <ele>553.29</ele>
        <time>2014-11-22T15:06:27Z</time>
      </trkpt>
      <trkpt lat="46.15981" lon="3.75134">
        <ele>554.48</ele>
        <time>2014-11-22T15:06:32Z</time>
      </trkpt>
      <trkpt lat="46.15999" lon="3.75123">
        <ele>556.02</ele>
        <time>2014-11-22T15:06:37Z</time>
      </trkpt>
      <trkpt lat="46.16016" lon="3.7511">
        <ele>557.04</ele>
        <time>2014-11-22T15:06:42Z</time>
      </trkpt>
      <trkpt lat="46.16032" lon="3.75097">
        <ele>558.04</ele>
        <time>2014-11-22T15:06:47Z</time>
      </trkpt>
      <trkpt lat="46.16044" lon="3.75069">
        <ele>562.47</ele>
        <time>2014-11-22T15:06:52Z</time>
      </trkpt>
      <trkpt lat="46.16045" lon="3.75039">
        <ele>564.36</ele>
        <time>2014-11-22T15:06:56Z</time>
      </trkpt>
      <trkpt lat="46.16041" lon="3.75014">
        <ele>564.54</ele>
        <time>2014-11-22T15:07:00Z</time>
      </trkpt>
      <trkpt lat="46.16046" lon="3.74988">
        <ele>564.55</ele>
        <time>2014-11-22T15:07:06Z</time>
      </trkpt>
      <trkpt lat="46.16055" lon="3.74954">
        <ele>564.55</ele>
        <time>2014-11-22T15:07:15Z</time>
      </trkpt>
      <trkpt lat="46.16055" lon="3.74926">
        <ele>564.55</ele>
        <time>2014-11-22T15:07:25Z</time>
      </trkpt>
      <trkpt lat="46.16052" lon="3.74898">
        <ele>561.05</ele>
        <time>2014-11-22T15:07:35Z</time>
      </trkpt>
      <trkpt lat="46.16058" lon="3.7487">
        <ele>539</ele>
        <time>2014-11-22T15:07:47Z</time>
      </trkpt>
      <trkpt lat="46.16066" lon="3.74842">
        <ele>523.64</ele>
        <time>2014-11-22T15:08:00Z</time>
      </trkpt>
      <trkpt lat="46.16077" lon="3.7482">
        <ele>531.55</ele>
        <time>2014-11-22T15:08:15Z</time>
      </trkpt>
      <trkpt lat="46.161" lon="3.74799">
        <ele>547.03</ele>
        <time>2014-11-22T15:08:35Z</time>
      </trkpt>
      <trkpt lat="46.16122" lon="3.74786">
        <ele>557.54</ele>
        <time>2014-11-22T15:08:51Z</time>
      </trkpt>
      <trkpt lat="46.16138" lon="3.7476">
        <ele>566.55</ele>
        <time>2014-11-22T15:09:09Z</time>
      </trkpt>
      <trkpt lat="46.1614" lon="3.74732">
        <ele>572.43</ele>
        <time>2014-11-22T15:10:10Z</time>
      </trkpt>
      <trkpt lat="46.16122" lon="3.7472">
        <ele>582.26</ele>
        <time>2014-11-22T15:12:03Z</time>
      </trkpt>
      <trkpt lat="46.16109" lon="3.747">
        <ele>585.27</ele>
        <time>2014-11-22T15:12:12Z</time>
      </trkpt>
      <trkpt lat="46.16096" lon="3.74679">
        <ele>588.49</ele>
        <time>2014-11-22T15:12:25Z</time>
      </trkpt>
      <trkpt lat="46.16082" lon="3.7466">
        <ele>593.41</ele>
        <time>2014-11-22T15:12:44Z</time>
      </trkpt>
      <trkpt lat="46.16062" lon="3.7466">
        <ele>597.98</ele>
        <time>2014-11-22T15:12:58Z</time>
      </trkpt>
      <trkpt lat="46.16043" lon="3.74664">
        <ele>600.29</ele>
        <time>2014-11-22T15:13:07Z</time>
      </trkpt>
      <trkpt lat="46.16025" lon="3.74664">
        <ele>602.42</ele>
        <time>2014-11-22T15:13:16Z</time>
      </trkpt>
      <trkpt lat="46.16006" lon="3.74657">
        <ele>605.48</ele>
        <time>2014-11-22T15:13:28Z</time>
      </trkpt>
      <trkpt lat="46.15987" lon="3.74653">
        <ele>607.29</ele>
        <time>2014-11-22T15:13:34Z</time>
      </trkpt>
      <trkpt lat="46.15969" lon="3.74657">
        <ele>608.42</ele>
        <time>2014-11-22T15:13:39Z</time>
      </trkpt>
      <trkpt lat="46.15951" lon="3.74664">
        <ele>609.49</ele>
        <time>2014-11-22T15:13:44Z</time>
      </trkpt>
      <trkpt lat="46.15933" lon="3.74672">
        <ele>610.52</ele>
        <time>2014-11-22T15:13:49Z</time>
      </trkpt>
      <trkpt lat="46.15913" lon="3.74679">
        <ele>615.43</ele>
        <time>2014-11-22T15:13:53Z</time>
      </trkpt>
      <trkpt lat="46.15893" lon="3.74685">
        <ele>617.02</ele>
        <time>2014-11-22T15:13:58Z</time>
      </trkpt>
      <trkpt lat="46.15874" lon="3.74687">
        <ele>617.54</ele>
        <time>2014-11-22T15:14:03Z</time>
      </trkpt>
      <trkpt lat="46.15854" lon="3.7469">
        <ele>617.55</ele>
        <time>2014-11-22T15:14:08Z</time>
      </trkpt>
      <trkpt lat="46.15835" lon="3.74692">
        <ele>618.49</ele>
        <time>2014-11-22T15:14:13Z</time>
      </trkpt>
      <trkpt lat="46.15813" lon="3.74694">
        <ele>619.93</ele>
        <time>2014-11-22T15:14:18Z</time>
      </trkpt>
      <trkpt lat="46.15792" lon="3.74696">
        <ele>619.58</ele>
        <time>2014-11-22T15:14:22Z</time>
      </trkpt>
      <trkpt lat="46.15772" lon="3.74698">
        <ele>618.68</ele>
        <time>2014-11-22T15:14:26Z</time>
      </trkpt>
      <trkpt lat="46.1575" lon="3.74698">
        <ele>617.81</ele>
        <time>2014-11-22T15:14:30Z</time>
      </trkpt>
      <trkpt lat="46.15731" lon="3.74705">
        <ele>616.71</ele>
        <time>2014-11-22T15:14:33Z</time>
      </trkpt>
      <trkpt lat="46.15713" lon="3.74713">
        <ele>617.32</ele>
        <time>2014-11-22T15:14:36Z</time>
      </trkpt>
      <trkpt lat="46.1569" lon="3.74722">
        <ele>618.41</ele>
        <time>2014-11-22T15:14:40Z</time>
      </trkpt>
      <trkpt lat="46.15671" lon="3.74735">
        <ele>619.42</ele>
        <time>2014-11-22T15:14:44Z</time>
      </trkpt>
      <trkpt lat="46.15649" lon="3.74743">
        <ele>620.42</ele>
        <time>2014-11-22T15:14:48Z</time>
      </trkpt>
      <trkpt lat="46.15626" lon="3.74748">
        <ele>621.48</ele>
        <time>2014-11-22T15:14:52Z</time>
      </trkpt>
      <trkpt lat="46.15608" lon="3.74754">
        <ele>621.54</ele>
        <time>2014-11-22T15:14:55Z</time>
      </trkpt>
      <trkpt lat="46.15588" lon="3.7476">
        <ele>621.55</ele>
        <time>2014-11-22T15:14:58Z</time>
      </trkpt>
      <trkpt lat="46.1557" lon="3.74767">
        <ele>621.55</ele>
        <time>2014-11-22T15:15:01Z</time>
      </trkpt>
      <trkpt lat="46.15551" lon="3.74771">
        <ele>621.55</ele>
        <time>2014-11-22T15:15:05Z</time>
      </trkpt>
      <trkpt lat="46.1553" lon="3.7478">
        <ele>621.55</ele>
        <time>2014-11-22T15:15:12Z</time>
      </trkpt>
      <trkpt lat="46.15513" lon="3.74795">
        <ele>621.55</ele>
        <time>2014-11-22T15:15:18Z</time>
      </trkpt>
      <trkpt lat="46.15499" lon="3.74812">
        <ele>621.55</ele>
        <time>2014-11-22T15:15:23Z</time>
      </trkpt>
      <trkpt lat="46.15483" lon="3.74827">
        <ele>621.55</ele>
        <time>2014-11-22T15:15:29Z</time>
      </trkpt>
      <trkpt lat="46.15468" lon="3.74842">
        <ele>621.55</ele>
        <time>2014-11-22T15:15:35Z</time>
      </trkpt>
      <trkpt lat="46.15454" lon="3.74863">
        <ele>620.56</ele>
        <time>2014-11-22T15:15:43Z</time>
      </trkpt>
      <trkpt lat="46.15442" lon="3.74885">
        <ele>620.55</ele>
        <time>2014-11-22T15:15:49Z</time>
      </trkpt>
      <trkpt lat="46.1543" lon="3.74908">
        <ele>619.56</ele>
        <time>2014-11-22T15:15:56Z</time>
      </trkpt>
      <trkpt lat="46.15414" lon="3.74934">
        <ele>618.57</ele>
        <time>2014-11-22T15:16:05Z</time>
      </trkpt>
      <trkpt lat="46.15395" lon="3.74956">
        <ele>619.05</ele>
        <time>2014-11-22T15:16:16Z</time>
      </trkpt>
      <trkpt lat="46.1538" lon="3.74971">
        <ele>621.05</ele>
        <time>2014-11-22T15:17:44Z</time>
      </trkpt>
      <trkpt lat="46.15378" lon="3.7493">
        <ele>623.04</ele>
        <time>2014-11-22T15:17:57Z</time>
      </trkpt>
      <trkpt lat="46.15377" lon="3.74902">
        <ele>625.02</ele>
        <time>2014-11-22T15:18:05Z</time>
      </trkpt>
      <trkpt lat="46.15378" lon="3.74872">
        <ele>626.52</ele>
        <time>2014-11-22T15:18:13Z</time>
      </trkpt>
      <trkpt lat="46.15381" lon="3.74842">
        <ele>628.29</ele>
        <time>2014-11-22T15:18:19Z</time>
      </trkpt>
      <trkpt lat="46.15385" lon="3.74816">
        <ele>629.29</ele>
        <time>2014-11-22T15:18:24Z</time>
      </trkpt>
      <trkpt lat="46.15384" lon="3.74786">
        <ele>630.3</ele>
        <time>2014-11-22T15:18:31Z</time>
      </trkpt>
      <trkpt lat="46.15377" lon="3.7476">
        <ele>631.49</ele>
        <time>2014-11-22T15:18:40Z</time>
      </trkpt>
      <trkpt lat="46.15369" lon="3.74737">
        <ele>632.55</ele>
        <time>2014-11-22T15:18:50Z</time>
      </trkpt>
      <trkpt lat="46.15359" lon="3.74713">
        <ele>633.05</ele>
        <time>2014-11-22T15:19:02Z</time>
      </trkpt>
      <trkpt lat="46.1536" lon="3.74685">
        <ele>635.43</ele>
        <time>2014-11-22T15:19:19Z</time>
      </trkpt>
      <trkpt lat="46.1537" lon="3.74664">
        <ele>638.89</ele>
        <time>2014-11-22T15:19:27Z</time>
      </trkpt>
      <trkpt lat="46.15374" lon="3.74638">
        <ele>643.41</ele>
        <time>2014-11-22T15:19:40Z</time>
      </trkpt>
      <trkpt lat="46.1537" lon="3.7461">
        <ele>644.54</ele>
        <time>2014-11-22T15:19:48Z</time>
      </trkpt>
      <trkpt lat="46.15369" lon="3.74582">
        <ele>645.49</ele>
        <time>2014-11-22T15:19:55Z</time>
      </trkpt>
      <trkpt lat="46.15369" lon="3.74554">
        <ele>647.42</ele>
        <time>2014-11-22T15:20:05Z</time>
      </trkpt>
      <trkpt lat="46.1536" lon="3.74529">
        <ele>649.49</ele>
        <time>2014-11-22T15:20:15Z</time>
      </trkpt>
      <trkpt lat="46.15347" lon="3.74509">
        <ele>651.42</ele>
        <time>2014-11-22T15:20:24Z</time>
      </trkpt>
      <trkpt lat="46.15336" lon="3.74488">
        <ele>652.54</ele>
        <time>2014-11-22T15:20:32Z</time>
      </trkpt>
      <trkpt lat="46.15327" lon="3.74464">
        <ele>654.99</ele>
        <time>2014-11-22T15:20:41Z</time>
      </trkpt>
      <trkpt lat="46.15318" lon="3.74441">
        <ele>658.89</ele>
        <time>2014-11-22T15:20:50Z</time>
      </trkpt>
      <trkpt lat="46.15305" lon="3.74419">
        <ele>661.27</ele>
        <time>2014-11-22T15:20:57Z</time>
      </trkpt>
      <trkpt lat="46.15289" lon="3.74404">
        <ele>662.49</ele>
        <time>2014-11-22T15:21:04Z</time>
      </trkpt>
      <trkpt lat="46.15274" lon="3.74389">
        <ele>662.55</ele>
        <time>2014-11-22T15:21:13Z</time>
      </trkpt>
      <trkpt lat="46.15259" lon="3.7437">
        <ele>662.55</ele>
        <time>2014-11-22T15:21:23Z</time>
      </trkpt>
      <trkpt lat="46.15247" lon="3.74348">
        <ele>662.55</ele>
        <time>2014-11-22T15:21:29Z</time>
      </trkpt>
      <trkpt lat="46.15234" lon="3.74325">
        <ele>662.55</ele>
        <time>2014-11-22T15:21:36Z</time>
      </trkpt>
      <trkpt lat="46.15222" lon="3.74303">
        <ele>660.58</ele>
        <time>2014-11-22T15:21:50Z</time>
      </trkpt>
      <trkpt lat="46.15216" lon="3.74278">
        <ele>660.55</ele>
        <time>2014-11-22T15:22:12Z</time>
      </trkpt>
      <trkpt lat="46.15218" lon="3.7425">
        <ele>660.55</ele>
        <time>2014-11-22T15:22:31Z</time>
      </trkpt>
      <trkpt lat="46.15219" lon="3.74222">
        <ele>660.55</ele>
        <time>2014-11-22T15:22:39Z</time>
      </trkpt>
      <trkpt lat="46.15221" lon="3.74192">
        <ele>661.43</ele>
        <time>2014-11-22T15:22:44Z</time>
      </trkpt>
      <trkpt lat="46.15229" lon="3.74166">
        <ele>662.05</ele>
        <time>2014-11-22T15:22:48Z</time>
      </trkpt>
      <trkpt lat="46.15245" lon="3.74142">
        <ele>663.54</ele>
        <time>2014-11-22T15:22:56Z</time>
      </trkpt>
      <trkpt lat="46.15263" lon="3.74123">
        <ele>667.74</ele>
        <time>2014-11-22T15:23:01Z</time>
      </trkpt>
      <trkpt lat="46.15277" lon="3.74104">
        <ele>667.06</ele>
        <time>2014-11-22T15:23:05Z</time>
      </trkpt>
      <trkpt lat="46.15286" lon="3.74074">
        <ele>666.15</ele>
        <time>2014-11-22T15:23:09Z</time>
      </trkpt>
      <trkpt lat="46.15294" lon="3.7405">
        <ele>666.88</ele>
        <time>2014-11-22T15:23:12Z</time>
      </trkpt>
      <trkpt lat="46.15304" lon="3.74018">
        <ele>666.57</ele>
        <time>2014-11-22T15:23:16Z</time>
      </trkpt>
      <trkpt lat="46.15318" lon="3.73994">
        <ele>664.87</ele>
        <time>2014-11-22T15:23:20Z</time>
      </trkpt>
      <trkpt lat="46.15327" lon="3.73969">
        <ele>664.07</ele>
        <time>2014-11-22T15:23:24Z</time>
      </trkpt>
      <trkpt lat="46.15338" lon="3.73945">
        <ele>662.69</ele>
        <time>2014-11-22T15:23:29Z</time>
      </trkpt>
      <trkpt lat="46.15352" lon="3.73928">
        <ele>660.09</ele>
        <time>2014-11-22T15:23:34Z</time>
      </trkpt>
      <trkpt lat="46.15369" lon="3.73911">
        <ele>655.12</ele>
        <time>2014-11-22T15:23:42Z</time>
      </trkpt>
      <trkpt lat="46.15388" lon="3.73896">
        <ele>650.48</ele>
        <time>2014-11-22T15:23:47Z</time>
      </trkpt>
      <trkpt lat="46.154" lon="3.73874">
        <ele>632.3</ele>
        <time>2014-11-22T15:26:20Z</time>
      </trkpt>
      <trkpt lat="46.15395" lon="3.73846">
        <ele>629.91</ele>
        <time>2014-11-22T15:26:24Z</time>
      </trkpt>
      <trkpt lat="46.15379" lon="3.73833">
        <ele>629.05</ele>
        <time>2014-11-22T15:26:33Z</time>
      </trkpt>
      <trkpt lat="46.15371" lon="3.73859">
        <ele>592.8</ele>
        <time>2014-11-22T15:38:56Z</time>
      </trkpt>
      <trkpt lat="46.15376" lon="3.73887">
        <ele>587.69</ele>
        <time>2014-11-22T15:39:00Z</time>
      </trkpt>
      <trkpt lat="46.1538" lon="3.73913">
        <ele>585.69</ele>
        <time>2014-11-22T15:39:04Z</time>
      </trkpt>
      <trkpt lat="46.1539" lon="3.73936">
        <ele>585.56</ele>
        <time>2014-11-22T15:39:09Z</time>
      </trkpt>
      <trkpt lat="46.15406" lon="3.73949">
        <ele>586.43</ele>
        <time>2014-11-22T15:39:13Z</time>
      </trkpt>
      <trkpt lat="46.15421" lon="3.73969">
        <ele>586.55</ele>
        <time>2014-11-22T15:39:18Z</time>
      </trkpt>
      <trkpt lat="46.1543" lon="3.73992">
        <ele>587.93</ele>
        <time>2014-11-22T15:39:22Z</time>
      </trkpt>
      <trkpt lat="46.15435" lon="3.74022">
        <ele>588.51</ele>
        <time>2014-11-22T15:39:26Z</time>
      </trkpt>
      <trkpt lat="46.15438" lon="3.74052">
        <ele>589.43</ele>
        <time>2014-11-22T15:39:30Z</time>
      </trkpt>
      <trkpt lat="46.1543" lon="3.74078">
        <ele>589.55</ele>
        <time>2014-11-22T15:39:35Z</time>
      </trkpt>
      <trkpt lat="46.1542" lon="3.74102">
        <ele>589.55</ele>
        <time>2014-11-22T15:39:41Z</time>
      </trkpt>
      <trkpt lat="46.15427" lon="3.74127">
        <ele>588.8</ele>
        <time>2014-11-22T15:39:45Z</time>
      </trkpt>
      <trkpt lat="46.15438" lon="3.74155">
        <ele>587.59</ele>
        <time>2014-11-22T15:39:50Z</time>
      </trkpt>
      <trkpt lat="46.15456" lon="3.74175">
        <ele>587.56</ele>
        <time>2014-11-22T15:39:54Z</time>
      </trkpt>
      <trkpt lat="46.15472" lon="3.74192">
        <ele>586.8</ele>
        <time>2014-11-22T15:39:57Z</time>
      </trkpt>
      <trkpt lat="46.15487" lon="3.74211">
        <ele>584.76</ele>
        <time>2014-11-22T15:40:01Z</time>
      </trkpt>
      <trkpt lat="46.15503" lon="3.74226">
        <ele>585.44</ele>
        <time>2014-11-22T15:40:05Z</time>
      </trkpt>
      <trkpt lat="46.15522" lon="3.74243">
        <ele>587.46</ele>
        <time>2014-11-22T15:40:10Z</time>
      </trkpt>
      <trkpt lat="46.15541" lon="3.74265">
        <ele>590.61</ele>
        <time>2014-11-22T15:40:14Z</time>
      </trkpt>
      <trkpt lat="46.15565" lon="3.74286">
        <ele>591.04</ele>
        <time>2014-11-22T15:40:20Z</time>
      </trkpt>
      <trkpt lat="46.15576" lon="3.74321">
        <ele>588.56</ele>
        <time>2014-11-22T15:40:30Z</time>
      </trkpt>
      <trkpt lat="46.15582" lon="3.74348">
        <ele>585.7</ele>
        <time>2014-11-22T15:40:37Z</time>
      </trkpt>
      <trkpt lat="46.1559" lon="3.74376">
        <ele>578.71</ele>
        <time>2014-11-22T15:40:42Z</time>
      </trkpt>
      <trkpt lat="46.15605" lon="3.74398">
        <ele>573.69</ele>
        <time>2014-11-22T15:40:46Z</time>
      </trkpt>
      <trkpt lat="46.15628" lon="3.74402">
        <ele>570.9</ele>
        <time>2014-11-22T15:40:51Z</time>
      </trkpt>
      <trkpt lat="46.15645" lon="3.74385">
        <ele>569.22</ele>
        <time>2014-11-22T15:40:54Z</time>
      </trkpt>
      <trkpt lat="46.15662" lon="3.7437">
        <ele>568.64</ele>
        <time>2014-11-22T15:40:57Z</time>
      </trkpt>
      <trkpt lat="46.15683" lon="3.74357">
        <ele>568.06</ele>
        <time>2014-11-22T15:41:00Z</time>
      </trkpt>
      <trkpt lat="46.15706" lon="3.7434">
        <ele>565.12</ele>
        <time>2014-11-22T15:41:03Z</time>
      </trkpt>
      <trkpt lat="46.15723" lon="3.74325">
        <ele>563.94</ele>
        <time>2014-11-22T15:41:05Z</time>
      </trkpt>
      <trkpt lat="46.15739" lon="3.74312">
        <ele>563.65</ele>
        <time>2014-11-22T15:41:07Z</time>
      </trkpt>
      <trkpt lat="46.15757" lon="3.74299">
        <ele>563.58</ele>
        <time>2014-11-22T15:41:09Z</time>
      </trkpt>
      <trkpt lat="46.15773" lon="3.74282">
        <ele>563.56</ele>
        <time>2014-11-22T15:41:11Z</time>
      </trkpt>
      <trkpt lat="46.15788" lon="3.74258">
        <ele>564.3</ele>
        <time>2014-11-22T15:41:14Z</time>
      </trkpt>
      <trkpt lat="46.158" lon="3.74235">
        <ele>565.9</ele>
        <time>2014-11-22T15:41:17Z</time>
      </trkpt>
      <trkpt lat="46.15818" lon="3.74218">
        <ele>566.97</ele>
        <time>2014-11-22T15:41:20Z</time>
      </trkpt>
      <trkpt lat="46.15837" lon="3.74207">
        <ele>567.98</ele>
        <time>2014-11-22T15:41:23Z</time>
      </trkpt>
      <trkpt lat="46.15853" lon="3.74192">
        <ele>569.39</ele>
        <time>2014-11-22T15:41:27Z</time>
      </trkpt>
      <trkpt lat="46.15868" lon="3.74177">
        <ele>566.55</ele>
        <time>2014-11-22T15:41:41Z</time>
      </trkpt>
      <trkpt lat="46.1588" lon="3.74155">
        <ele>562.93</ele>
        <time>2014-11-22T15:41:46Z</time>
      </trkpt>
      <trkpt lat="46.15893" lon="3.7413">
        <ele>550.41</ele>
        <time>2014-11-22T15:41:51Z</time>
      </trkpt>
      <trkpt lat="46.15905" lon="3.74099">
        <ele>539.73</ele>
        <time>2014-11-22T15:41:55Z</time>
      </trkpt>
      <trkpt lat="46.15914" lon="3.74074">
        <ele>536.2</ele>
        <time>2014-11-22T15:41:58Z</time>
      </trkpt>
      <trkpt lat="46.15925" lon="3.7405">
        <ele>533.01</ele>
        <time>2014-11-22T15:42:01Z</time>
      </trkpt>
      <trkpt lat="46.15935" lon="3.74024">
        <ele>529.61</ele>
        <time>2014-11-22T15:42:04Z</time>
      </trkpt>
      <trkpt lat="46.15942" lon="3.74001">
        <ele>526.06</ele>
        <time>2014-11-22T15:42:07Z</time>
      </trkpt>
      <trkpt lat="46.15952" lon="3.73975">
        <ele>523.99</ele>
        <time>2014-11-22T15:42:10Z</time>
      </trkpt>
      <trkpt lat="46.15968" lon="3.73951">
        <ele>522.23</ele>
        <time>2014-11-22T15:42:13Z</time>
      </trkpt>
      <trkpt lat="46.15986" lon="3.73924">
        <ele>520.39</ele>
        <time>2014-11-22T15:42:16Z</time>
      </trkpt>
      <trkpt lat="46.15998" lon="3.73902">
        <ele>517.53</ele>
        <time>2014-11-22T15:42:19Z</time>
      </trkpt>
      <trkpt lat="46.1601" lon="3.73881">
        <ele>515.43</ele>
        <time>2014-11-22T15:42:22Z</time>
      </trkpt>
      <trkpt lat="46.16024" lon="3.73861">
        <ele>512.66</ele>
        <time>2014-11-22T15:42:25Z</time>
      </trkpt>
      <trkpt lat="46.16037" lon="3.73836">
        <ele>509.31</ele>
        <time>2014-11-22T15:42:29Z</time>
      </trkpt>
      <trkpt lat="46.16048" lon="3.73801">
        <ele>498.77</ele>
        <time>2014-11-22T15:42:32Z</time>
      </trkpt>
      <trkpt lat="46.16054" lon="3.73771">
        <ele>487.36</ele>
        <time>2014-11-22T15:42:34Z</time>
      </trkpt>
      <trkpt lat="46.16053" lon="3.73743">
        <ele>478</ele>
        <time>2014-11-22T15:42:36Z</time>
      </trkpt>
      <trkpt lat="46.16047" lon="3.73713">
        <ele>470.42</ele>
        <time>2014-11-22T15:42:38Z</time>
      </trkpt>
      <trkpt lat="46.16039" lon="3.73683">
        <ele>464.52</ele>
        <time>2014-11-22T15:42:40Z</time>
      </trkpt>
      <trkpt lat="46.16031" lon="3.73655">
        <ele>459.79</ele>
        <time>2014-11-22T15:42:42Z</time>
      </trkpt>
      <trkpt lat="46.16027" lon="3.7363">
        <ele>456.36</ele>
        <time>2014-11-22T15:42:44Z</time>
      </trkpt>
      <trkpt lat="46.16021" lon="3.73593">
        <ele>453.53</ele>
        <time>2014-11-22T15:42:47Z</time>
      </trkpt>
      <trkpt lat="46.16017" lon="3.73557">
        <ele>451.43</ele>
        <time>2014-11-22T15:42:50Z</time>
      </trkpt>
      <trkpt lat="46.16015" lon="3.73522">
        <ele>449.91</ele>
        <time>2014-11-22T15:42:53Z</time>
      </trkpt>
      <trkpt lat="46.16012" lon="3.73488">
        <ele>448.22</ele>
        <time>2014-11-22T15:42:56Z</time>
      </trkpt>
      <trkpt lat="46.16009" lon="3.73462">
        <ele>446.47</ele>
        <time>2014-11-22T15:42:58Z</time>
      </trkpt>
      <trkpt lat="46.16004" lon="3.73436">
        <ele>445.28</ele>
        <time>2014-11-22T15:43:00Z</time>
      </trkpt>
      <trkpt lat="46.15998" lon="3.73404">
        <ele>443.89</ele>
        <time>2014-11-22T15:43:03Z</time>
      </trkpt>
      <trkpt lat="46.15994" lon="3.73372">
        <ele>442.85</ele>
        <time>2014-11-22T15:43:06Z</time>
      </trkpt>
      <trkpt lat="46.15992" lon="3.7334">
        <ele>441.84</ele>
        <time>2014-11-22T15:43:09Z</time>
      </trkpt>
      <trkpt lat="46.15995" lon="3.73314">
        <ele>441.59</ele>
        <time>2014-11-22T15:43:12Z</time>
      </trkpt>
      <trkpt lat="46.16001" lon="3.73288">
        <ele>441.55</ele>
        <time>2014-11-22T15:43:17Z</time>
      </trkpt>
      <trkpt lat="46.15989" lon="3.73267">
        <ele>441.55</ele>
        <time>2014-11-22T15:43:22Z</time>
      </trkpt>
      <trkpt lat="46.15979" lon="3.73245">
        <ele>440.18</ele>
        <time>2014-11-22T15:43:26Z</time>
      </trkpt>
      <trkpt lat="46.15965" lon="3.73222">
        <ele>437.97</ele>
        <time>2014-11-22T15:43:30Z</time>
      </trkpt>
      <trkpt lat="46.15951" lon="3.73205">
        <ele>436.85</ele>
        <time>2014-11-22T15:43:33Z</time>
      </trkpt>
      <trkpt lat="46.15935" lon="3.7319">
        <ele>436.59</ele>
        <time>2014-11-22T15:43:36Z</time>
      </trkpt>
      <trkpt lat="46.15919" lon="3.73177">
        <ele>436.56</ele>
        <time>2014-11-22T15:43:39Z</time>
      </trkpt>
      <trkpt lat="46.15901" lon="3.73164">
        <ele>436.55</ele>
        <time>2014-11-22T15:43:42Z</time>
      </trkpt>
      <trkpt lat="46.15885" lon="3.73151">
        <ele>436.55</ele>
        <time>2014-11-22T15:43:45Z</time>
      </trkpt>
      <trkpt lat="46.15869" lon="3.73138">
        <ele>436.05</ele>
        <time>2014-11-22T15:43:48Z</time>
      </trkpt>
      <trkpt lat="46.15847" lon="3.73123">
        <ele>435.08</ele>
        <time>2014-11-22T15:43:52Z</time>
      </trkpt>
      <trkpt lat="46.15826" lon="3.73104">
        <ele>434.09</ele>
        <time>2014-11-22T15:43:56Z</time>
      </trkpt>
      <trkpt lat="46.15808" lon="3.73085">
        <ele>433.59</ele>
        <time>2014-11-22T15:44:00Z</time>
      </trkpt>
      <trkpt lat="46.15791" lon="3.73063">
        <ele>433.56</ele>
        <time>2014-11-22T15:44:04Z</time>
      </trkpt>
      <trkpt lat="46.15782" lon="3.73037">
        <ele>433.05</ele>
        <time>2014-11-22T15:44:08Z</time>
      </trkpt>
      <trkpt lat="46.15786" lon="3.73005">
        <ele>432.58</ele>
        <time>2014-11-22T15:44:12Z</time>
      </trkpt>
      <trkpt lat="46.15794" lon="3.72973">
        <ele>432.55</ele>
        <time>2014-11-22T15:44:16Z</time>
      </trkpt>
    </trkseg>
  </trk>
</gpx>